<?xml version="1.0" encoding="UTF-8" standalone="no" ?><gpx xmlns="http://www.topografix.com/GPX/1/1" xmlns:gpxx="http://www.garmin.com/xmlschemas/GpxExtensions/v3" xmlns:gpxtrkx="http://www.garmin.com/xmlschemas/TrackStatsExtension/v1" xmlns:wptx1="http://www.garmin.com/xmlschemas/WaypointExtension/v1" xmlns:gpxtpx="http://www.garmin.com/xmlschemas/TrackPointExtension/v1" creator="GPSMAP 64" version="1.1" xmlns:xsi="http://www.w3.org/2001/XMLSchema-instance" xsi:schemaLocation="http://www.topografix.com/GPX/1/1 http://www.topografix.com/GPX/1/1/gpx.xsd http://www.garmin.com/xmlschemas/GpxExtensions/v3 http://www8.garmin.com/xmlschemas/GpxExtensionsv3.xsd http://www.garmin.com/xmlschemas/TrackStatsExtension/v1 http://www8.garmin.com/xmlschemas/TrackStatsExtension.xsd http://www.garmin.com/xmlschemas/WaypointExtension/v1 http://www8.garmin.com/xmlschemas/WaypointExtensionv1.xsd http://www.garmin.com/xmlschemas/TrackPointExtension/v1 http://www.garmin.com/xmlschemas/TrackPointExtensionv1.xsd"><metadata><link href="http://www.garmin.com"><text>Garmin International</text></link><time>2026-04-25T17:49:15Z</time></metadata><trk><name>КИСЕЛЕВА 26-04-26</name><extensions><gpxx:TrackExtension><gpxx:DisplayColor>Red</gpxx:DisplayColor></gpxx:TrackExtension><gpxtrkx:TrackStatsExtension><gpxtrkx:Distance>16335.000</gpxtrkx:Distance><gpxtrkx:TotalElapsedTime>36097</gpxtrkx:TotalElapsedTime><gpxtrkx:MovingTime>31039</gpxtrkx:MovingTime><gpxtrkx:StoppedTime>4901</gpxtrkx:StoppedTime><gpxtrkx:MovingSpeed>0.526</gpxtrkx:MovingSpeed><gpxtrkx:MaxSpeed>101.419</gpxtrkx:MaxSpeed><gpxtrkx:MaxElevation>4267.865</gpxtrkx:MaxElevation><gpxtrkx:MinElevation>-1461.666</gpxtrkx:MinElevation><gpxtrkx:Ascent>198956.000</gpxtrkx:Ascent><gpxtrkx:Descent>199584.000</gpxtrkx:Descent><gpxtrkx:AvgAscentRate>0.069</gpxtrkx:AvgAscentRate><gpxtrkx:MaxAscentRate>18.177</gpxtrkx:MaxAscentRate><gpxtrkx:AvgDescentRate>0.072</gpxtrkx:AvgDescentRate><gpxtrkx:MaxDescentRate>-16.187</gpxtrkx:MaxDescentRate></gpxtrkx:TrackStatsExtension></extensions><trkseg><trkpt lat="59.0567088593" lon="29.9891188368"><ele>80.23</ele><time>2026-04-25T07:47:38Z</time></trkpt><trkpt lat="59.0567091946" lon="29.9891201779"><ele>79.11</ele><time>2026-04-25T07:48:12Z</time></trkpt><trkpt lat="59.0567242820" lon="29.9891900830"><ele>78.62</ele><time>2026-04-25T07:48:29Z</time></trkpt><trkpt lat="59.0567680355" lon="29.9892258737"><ele>78.26</ele><time>2026-04-25T07:48:51Z</time></trkpt><trkpt lat="59.0568144713" lon="29.9892183300"><ele>78.18</ele><time>2026-04-25T07:49:14Z</time></trkpt><trkpt lat="59.0568490047" lon="29.9891282246"><ele>78.38</ele><time>2026-04-25T07:49:39Z</time></trkpt><trkpt lat="59.0568516869" lon="29.9890449923"><ele>77.93</ele><time>2026-04-25T07:50:07Z</time></trkpt><trkpt lat="59.0568346716" lon="29.9889726564"><ele>77.23</ele><time>2026-04-25T07:50:29Z</time></trkpt><trkpt lat="59.0568394493" lon="29.9888993986"><ele>76.76</ele><time>2026-04-25T07:50:49Z</time></trkpt><trkpt lat="59.0568407904" lon="29.9888192676"><ele>77.04</ele><time>2026-04-25T07:51:09Z</time></trkpt><trkpt lat="59.0568163153" lon="29.9887747597"><ele>77.23</ele><time>2026-04-25T07:51:28Z</time></trkpt><trkpt lat="59.0568155609" lon="29.9886374641"><ele>77.04</ele><time>2026-04-25T07:51:51Z</time></trkpt><trkpt lat="59.0568582248" lon="29.9885805510"><ele>76.15</ele><time>2026-04-25T07:52:13Z</time></trkpt><trkpt lat="59.0568974521" lon="29.9885187764"><ele>75.89</ele><time>2026-04-25T07:52:35Z</time></trkpt><trkpt lat="59.0568944346" lon="29.9883420020"><ele>76.14</ele><time>2026-04-25T07:52:55Z</time></trkpt><trkpt lat="59.0568792634" lon="29.9881835002"><ele>76.04</ele><time>2026-04-25T07:53:11Z</time></trkpt><trkpt lat="59.0569222625" lon="29.9879332166"><ele>74.88</ele><time>2026-04-25T07:53:33Z</time></trkpt><trkpt lat="59.0569586400" lon="29.9877657462"><ele>73.96</ele><time>2026-04-25T07:53:50Z</time></trkpt><trkpt lat="59.0569636691" lon="29.9877152033"><ele>73.07</ele><time>2026-04-25T07:54:13Z</time></trkpt><trkpt lat="59.0569878090" lon="29.9876897223"><ele>73.40</ele><time>2026-04-25T07:54:44Z</time></trkpt><trkpt lat="59.0570340771" lon="29.9876482319"><ele>74.49</ele><time>2026-04-25T07:55:02Z</time></trkpt><trkpt lat="59.0570389386" lon="29.9876121897"><ele>75.51</ele><time>2026-04-25T07:55:39Z</time></trkpt><trkpt lat="59.0570781659" lon="29.9875960965"><ele>76.43</ele><time>2026-04-25T07:56:00Z</time></trkpt><trkpt lat="59.0571334027" lon="29.9875860382"><ele>76.67</ele><time>2026-04-25T07:56:11Z</time></trkpt><trkpt lat="59.0571758989" lon="29.9875422008"><ele>76.52</ele><time>2026-04-25T07:56:26Z</time></trkpt><trkpt lat="59.0572609752" lon="29.9874330685"><ele>74.42</ele><time>2026-04-25T07:56:47Z</time></trkpt><trkpt lat="59.0573795792" lon="29.9871998001"><ele>70.86</ele><time>2026-04-25T07:57:09Z</time></trkpt><trkpt lat="59.0575319622" lon="29.9869728182"><ele>67.88</ele><time>2026-04-25T07:57:30Z</time></trkpt><trkpt lat="59.0577037912" lon="29.9868167471"><ele>65.87</ele><time>2026-04-25T07:57:53Z</time></trkpt><trkpt lat="59.0577794798" lon="29.9868590757"><ele>71.50</ele><time>2026-04-25T07:58:13Z</time></trkpt><trkpt lat="59.0578538273" lon="29.9869687948"><ele>74.59</ele><time>2026-04-25T07:58:34Z</time></trkpt><trkpt lat="59.0579018556" lon="29.9870860577"><ele>74.97</ele><time>2026-04-25T07:58:53Z</time></trkpt><trkpt lat="59.0579203796" lon="29.9870443158"><ele>75.13</ele><time>2026-04-25T07:59:11Z</time></trkpt><trkpt lat="59.0579779632" lon="29.9869633466"><ele>74.74</ele><time>2026-04-25T07:59:32Z</time></trkpt><trkpt lat="59.0579970740" lon="29.9869542103"><ele>76.16</ele><time>2026-04-25T07:59:46Z</time></trkpt><trkpt lat="59.0579969063" lon="29.9869667832"><ele>76.35</ele><time>2026-04-25T08:00:12Z</time></trkpt><trkpt lat="59.0579645522" lon="29.9869576469"><ele>76.69</ele><time>2026-04-25T08:00:38Z</time></trkpt><trkpt lat="59.0579827409" lon="29.9870003946"><ele>77.97</ele><time>2026-04-25T08:01:02Z</time></trkpt><trkpt lat="59.0580152627" lon="29.9869663641"><ele>77.15</ele><time>2026-04-25T08:01:24Z</time></trkpt><trkpt lat="59.0580274165" lon="29.9869631790"><ele>77.83</ele><time>2026-04-25T08:01:49Z</time></trkpt><trkpt lat="59.0580383129" lon="29.9869545456"><ele>77.45</ele><time>2026-04-25T08:02:15Z</time></trkpt><trkpt lat="59.0580803901" lon="29.9868962076"><ele>76.62</ele><time>2026-04-25T08:02:36Z</time></trkpt><trkpt lat="59.0581233054" lon="29.9867599178"><ele>75.83</ele><time>2026-04-25T08:02:57Z</time></trkpt><trkpt lat="59.0581689868" lon="29.9867273960"><ele>75.71</ele><time>2026-04-25T08:03:14Z</time></trkpt><trkpt lat="59.0581956413" lon="29.9867221154"><ele>76.72</ele><time>2026-04-25T08:03:44Z</time></trkpt><trkpt lat="59.0581994969" lon="29.9866447505"><ele>77.15</ele><time>2026-04-25T08:04:18Z</time></trkpt><trkpt lat="59.0581984911" lon="29.9866289925"><ele>77.19</ele><time>2026-04-25T08:04:21Z</time></trkpt><trkpt lat="59.0581880976" lon="29.9866073672"><ele>78.82</ele><time>2026-04-25T08:04:53Z</time></trkpt><trkpt lat="59.0582416579" lon="29.9866568204"><ele>79.03</ele><time>2026-04-25T08:05:20Z</time></trkpt><trkpt lat="59.0582978167" lon="29.9866873305"><ele>78.76</ele><time>2026-04-25T08:05:44Z</time></trkpt><trkpt lat="59.0583934542" lon="29.9866589997"><ele>78.14</ele><time>2026-04-25T08:06:12Z</time></trkpt><trkpt lat="59.0584290773" lon="29.9866621848"><ele>78.68</ele><time>2026-04-25T08:06:36Z</time></trkpt><trkpt lat="59.0585325100" lon="29.9865964707"><ele>78.41</ele><time>2026-04-25T08:06:57Z</time></trkpt><trkpt lat="59.0585546382" lon="29.9865869153"><ele>78.61</ele><time>2026-04-25T08:07:02Z</time></trkpt><trkpt lat="59.0586454142" lon="29.9864979833"><ele>78.81</ele><time>2026-04-25T08:07:23Z</time></trkpt><trkpt lat="59.0587446559" lon="29.9863881804"><ele>77.76</ele><time>2026-04-25T08:07:43Z</time></trkpt><trkpt lat="59.0588547103" lon="29.9862820655"><ele>77.16</ele><time>2026-04-25T08:08:05Z</time></trkpt><trkpt lat="59.0588693786" lon="29.9862736836"><ele>77.28</ele><time>2026-04-25T08:08:08Z</time></trkpt><trkpt lat="59.0589314885" lon="29.9862093944"><ele>77.72</ele><time>2026-04-25T08:08:19Z</time></trkpt><trkpt lat="59.0590313170" lon="29.9862331152"><ele>76.87</ele><time>2026-04-25T08:08:40Z</time></trkpt><trkpt lat="59.0591298044" lon="29.9862219673"><ele>76.58</ele><time>2026-04-25T08:09:14Z</time></trkpt><trkpt lat="59.0591857117" lon="29.9862017669"><ele>77.00</ele><time>2026-04-25T08:09:48Z</time></trkpt><trkpt lat="59.0592155512" lon="29.9861655571"><ele>77.03</ele><time>2026-04-25T08:10:09Z</time></trkpt><trkpt lat="59.0592630766" lon="29.9861449376"><ele>76.90</ele><time>2026-04-25T08:10:30Z</time></trkpt><trkpt lat="59.0593090095" lon="29.9860889465"><ele>77.31</ele><time>2026-04-25T08:10:55Z</time></trkpt><trkpt lat="59.0594044793" lon="29.9860454444"><ele>76.60</ele><time>2026-04-25T08:11:16Z</time></trkpt><trkpt lat="59.0594191477" lon="29.9860429298"><ele>76.39</ele><time>2026-04-25T08:11:18Z</time></trkpt><trkpt lat="59.0595069900" lon="29.9859633017"><ele>75.54</ele><time>2026-04-25T08:11:37Z</time></trkpt><trkpt lat="59.0596131887" lon="29.9859089032"><ele>76.67</ele><time>2026-04-25T08:12:01Z</time></trkpt><trkpt lat="59.0596200619" lon="29.9858677480"><ele>76.60</ele><time>2026-04-25T08:12:16Z</time></trkpt><trkpt lat="59.0596497338" lon="29.9858057220"><ele>76.97</ele><time>2026-04-25T08:12:39Z</time></trkpt><trkpt lat="59.0597175434" lon="29.9857495632"><ele>78.38</ele><time>2026-04-25T08:12:58Z</time></trkpt><trkpt lat="59.0597816650" lon="29.9857444502"><ele>78.91</ele><time>2026-04-25T08:13:23Z</time></trkpt><trkpt lat="59.0598666575" lon="29.9857780617"><ele>79.73</ele><time>2026-04-25T08:13:54Z</time></trkpt><trkpt lat="59.0598759614" lon="29.9857898802"><ele>79.61</ele><time>2026-04-25T08:14:26Z</time></trkpt><trkpt lat="59.0598963294" lon="29.9857388344"><ele>80.11</ele><time>2026-04-25T08:14:51Z</time></trkpt><trkpt lat="59.0598918032" lon="29.9857322965"><ele>80.21</ele><time>2026-04-25T08:14:54Z</time></trkpt><trkpt lat="59.0599741135" lon="29.9858114216"><ele>80.27</ele><time>2026-04-25T08:15:15Z</time></trkpt><trkpt lat="59.0600404982" lon="29.9858526606"><ele>79.50</ele><time>2026-04-25T08:15:32Z</time></trkpt><trkpt lat="59.0601044521" lon="29.9858586956"><ele>78.75</ele><time>2026-04-25T08:15:55Z</time></trkpt><trkpt lat="59.0601985808" lon="29.9858820811"><ele>78.21</ele><time>2026-04-25T08:16:17Z</time></trkpt><trkpt lat="59.0602652170" lon="29.9858824164"><ele>77.90</ele><time>2026-04-25T08:16:41Z</time></trkpt><trkpt lat="59.0603347030" lon="29.9858496431"><ele>77.16</ele><time>2026-04-25T08:17:00Z</time></trkpt><trkpt lat="59.0604108945" lon="29.9858177081"><ele>76.65</ele><time>2026-04-25T08:17:21Z</time></trkpt><trkpt lat="59.0604700707" lon="29.9857454561"><ele>75.98</ele><time>2026-04-25T08:17:39Z</time></trkpt><trkpt lat="59.0605361201" lon="29.9855991919"><ele>75.81</ele><time>2026-04-25T08:17:55Z</time></trkpt><trkpt lat="59.0605698153" lon="29.9855507445"><ele>74.83</ele><time>2026-04-25T08:18:08Z</time></trkpt><trkpt lat="59.0606517065" lon="29.9854117725"><ele>74.60</ele><time>2026-04-25T08:18:27Z</time></trkpt><trkpt lat="59.0606947057" lon="29.9853747245"><ele>74.24</ele><time>2026-04-25T08:18:46Z</time></trkpt><trkpt lat="59.0607626829" lon="29.9853769876"><ele>76.12</ele><time>2026-04-25T08:19:14Z</time></trkpt><trkpt lat="59.0607870743" lon="29.9853458907"><ele>75.56</ele><time>2026-04-25T08:19:44Z</time></trkpt><trkpt lat="59.0608440712" lon="29.9853407778"><ele>77.03</ele><time>2026-04-25T08:20:13Z</time></trkpt><trkpt lat="59.0607945342" lon="29.9853905663"><ele>81.69</ele><time>2026-04-25T08:20:43Z</time></trkpt><trkpt lat="59.0608074423" lon="29.9854375049"><ele>82.92</ele><time>2026-04-25T08:21:14Z</time></trkpt><trkpt lat="59.0607691370" lon="29.9854391813"><ele>83.80</ele><time>2026-04-25T08:21:42Z</time></trkpt><trkpt lat="59.0607722383" lon="29.9854177237"><ele>83.56</ele><time>2026-04-25T08:22:18Z</time></trkpt><trkpt lat="59.0607957914" lon="29.9854251835"><ele>83.79</ele><time>2026-04-25T08:22:45Z</time></trkpt><trkpt lat="59.0607821289" lon="29.9854314700"><ele>82.73</ele><time>2026-04-25T08:23:16Z</time></trkpt><trkpt lat="59.0607771836" lon="29.9854502454"><ele>81.50</ele><time>2026-04-25T08:23:51Z</time></trkpt><trkpt lat="59.0607578214" lon="29.9854520056"><ele>81.24</ele><time>2026-04-25T08:24:19Z</time></trkpt><trkpt lat="59.0607510321" lon="29.9853719585"><ele>80.00</ele><time>2026-04-25T08:24:51Z</time></trkpt><trkpt lat="59.0608207695" lon="29.9853758141"><ele>80.36</ele><time>2026-04-25T08:25:15Z</time></trkpt><trkpt lat="59.0609083604" lon="29.9854219984"><ele>79.94</ele><time>2026-04-25T08:25:33Z</time></trkpt><trkpt lat="59.0609843004" lon="29.9854396004"><ele>80.44</ele><time>2026-04-25T08:26:07Z</time></trkpt><trkpt lat="59.0610136371" lon="29.9854094256"><ele>82.38</ele><time>2026-04-25T08:26:41Z</time></trkpt><trkpt lat="59.0610052552" lon="29.9854888022"><ele>82.39</ele><time>2026-04-25T08:27:07Z</time></trkpt><trkpt lat="59.0610621683" lon="29.9855403509"><ele>81.33</ele><time>2026-04-25T08:27:26Z</time></trkpt><trkpt lat="59.0611989610" lon="29.9855977669"><ele>78.50</ele><time>2026-04-25T08:27:45Z</time></trkpt><trkpt lat="59.0612331592" lon="29.9855950847"><ele>77.16</ele><time>2026-04-25T08:27:52Z</time></trkpt><trkpt lat="59.0612795111" lon="29.9855699390"><ele>75.54</ele><time>2026-04-25T08:28:14Z</time></trkpt><trkpt lat="59.0612803493" lon="29.9855349027"><ele>75.54</ele><time>2026-04-25T08:28:45Z</time></trkpt><trkpt lat="59.0612856299" lon="29.9855702743"><ele>75.90</ele><time>2026-04-25T08:29:12Z</time></trkpt><trkpt lat="59.0612913296" lon="29.9855777342"><ele>75.60</ele><time>2026-04-25T08:29:18Z</time></trkpt><trkpt lat="59.0614064969" lon="29.9856324680"><ele>75.02</ele><time>2026-04-25T08:29:41Z</time></trkpt><trkpt lat="59.0615075827" lon="29.9857238308"><ele>74.10</ele><time>2026-04-25T08:30:03Z</time></trkpt><trkpt lat="59.0615608916" lon="29.9857473839"><ele>73.73</ele><time>2026-04-25T08:30:15Z</time></trkpt><trkpt lat="59.0616969299" lon="29.9857763015"><ele>73.41</ele><time>2026-04-25T08:30:41Z</time></trkpt><trkpt lat="59.0617320500" lon="29.9858102482"><ele>73.13</ele><time>2026-04-25T08:30:49Z</time></trkpt><trkpt lat="59.0618765540" lon="29.9858805723"><ele>71.68</ele><time>2026-04-25T08:31:14Z</time></trkpt><trkpt lat="59.0619631391" lon="29.9859500583"><ele>70.16</ele><time>2026-04-25T08:31:33Z</time></trkpt><trkpt lat="59.0620661527" lon="29.9860202987"><ele>70.64</ele><time>2026-04-25T08:31:52Z</time></trkpt><trkpt lat="59.0621900372" lon="29.9860535748"><ele>75.15</ele><time>2026-04-25T08:32:14Z</time></trkpt><trkpt lat="59.0622126684" lon="29.9860669021"><ele>80.15</ele><time>2026-04-25T08:32:40Z</time></trkpt><trkpt lat="59.0622531530" lon="29.9860611185"><ele>80.30</ele><time>2026-04-25T08:33:13Z</time></trkpt><trkpt lat="59.0622107405" lon="29.9860679917"><ele>82.90</ele><time>2026-04-25T08:33:44Z</time></trkpt><trkpt lat="59.0621513966" lon="29.9860767927"><ele>83.61</ele><time>2026-04-25T08:34:20Z</time></trkpt><trkpt lat="59.0621381532" lon="29.9860779662"><ele>82.97</ele><time>2026-04-25T08:34:54Z</time></trkpt><trkpt lat="59.0622179490" lon="29.9860234000"><ele>86.73</ele><time>2026-04-25T08:35:26Z</time></trkpt><trkpt lat="59.0622017719" lon="29.9859984219"><ele>89.13</ele><time>2026-04-25T08:35:58Z</time></trkpt><trkpt lat="59.0622006822" lon="29.9860670697"><ele>88.24</ele><time>2026-04-25T08:36:39Z</time></trkpt><trkpt lat="59.0622721799" lon="29.9860748649"><ele>87.27</ele><time>2026-04-25T08:37:05Z</time></trkpt><trkpt lat="59.0623166878" lon="29.9860593583"><ele>86.49</ele><time>2026-04-25T08:37:26Z</time></trkpt><trkpt lat="59.0623202082" lon="29.9860887788"><ele>85.86</ele><time>2026-04-25T08:37:55Z</time></trkpt><trkpt lat="59.0623870119" lon="29.9861325324"><ele>85.17</ele><time>2026-04-25T08:38:19Z</time></trkpt><trkpt lat="59.0624746028" lon="29.9861023575"><ele>83.95</ele><time>2026-04-25T08:38:41Z</time></trkpt><trkpt lat="59.0625080466" lon="29.9861669820"><ele>82.01</ele><time>2026-04-25T08:39:04Z</time></trkpt><trkpt lat="59.0625226311" lon="29.9862412456"><ele>82.19</ele><time>2026-04-25T08:39:35Z</time></trkpt><trkpt lat="59.0625307616" lon="29.9862782098"><ele>82.18</ele><time>2026-04-25T08:40:04Z</time></trkpt><trkpt lat="59.0626103897" lon="29.9863413256"><ele>81.37</ele><time>2026-04-25T08:40:26Z</time></trkpt><trkpt lat="59.0627209470" lon="29.9863955565"><ele>80.22</ele><time>2026-04-25T08:40:48Z</time></trkpt><trkpt lat="59.0627721604" lon="29.9865063652"><ele>79.47</ele><time>2026-04-25T08:41:08Z</time></trkpt><trkpt lat="59.0627781115" lon="29.9865095504"><ele>79.39</ele><time>2026-04-25T08:41:09Z</time></trkpt><trkpt lat="59.0628705639" lon="29.9866035953"><ele>78.70</ele><time>2026-04-25T08:41:27Z</time></trkpt><trkpt lat="59.0629158262" lon="29.9866355304"><ele>78.48</ele><time>2026-04-25T08:41:48Z</time></trkpt><trkpt lat="59.0629757568" lon="29.9866792839"><ele>78.37</ele><time>2026-04-25T08:42:11Z</time></trkpt><trkpt lat="59.0630552173" lon="29.9866911862"><ele>76.82</ele><time>2026-04-25T08:42:30Z</time></trkpt><trkpt lat="59.0631050896" lon="29.9865512922"><ele>71.51</ele><time>2026-04-25T08:43:02Z</time></trkpt><trkpt lat="59.0631186683" lon="29.9864443392"><ele>69.77</ele><time>2026-04-25T08:43:16Z</time></trkpt><trkpt lat="59.0631652717" lon="29.9863349553"><ele>68.92</ele><time>2026-04-25T08:43:35Z</time></trkpt><trkpt lat="59.0631804429" lon="29.9862463586"><ele>68.33</ele><time>2026-04-25T08:43:51Z</time></trkpt><trkpt lat="59.0631599911" lon="29.9861763697"><ele>69.41</ele><time>2026-04-25T08:44:15Z</time></trkpt><trkpt lat="59.0631486755" lon="29.9861081410"><ele>69.60</ele><time>2026-04-25T08:44:43Z</time></trkpt><trkpt lat="59.0631354321" lon="29.9861477874"><ele>68.03</ele><time>2026-04-25T08:45:05Z</time></trkpt><trkpt lat="59.0631331690" lon="29.9861698318"><ele>68.03</ele><time>2026-04-25T08:45:33Z</time></trkpt><trkpt lat="59.0631680377" lon="29.9862093944"><ele>68.55</ele><time>2026-04-25T08:45:59Z</time></trkpt><trkpt lat="59.0631939378" lon="29.9862151779"><ele>69.86</ele><time>2026-04-25T08:46:27Z</time></trkpt><trkpt lat="59.0632149763" lon="29.9862491246"><ele>69.60</ele><time>2026-04-25T08:46:55Z</time></trkpt><trkpt lat="59.0632652678" lon="29.9863114860"><ele>69.05</ele><time>2026-04-25T08:47:18Z</time></trkpt><trkpt lat="59.0632839594" lon="29.9863285013"><ele>68.98</ele><time>2026-04-25T08:47:26Z</time></trkpt><trkpt lat="59.0633951034" lon="29.9863855820"><ele>69.41</ele><time>2026-04-25T08:47:48Z</time></trkpt><trkpt lat="59.0634724684" lon="29.9864336941"><ele>69.61</ele><time>2026-04-25T08:48:07Z</time></trkpt><trkpt lat="59.0635882225" lon="29.9864714965"><ele>70.48</ele><time>2026-04-25T08:48:24Z</time></trkpt><trkpt lat="59.0636292100" lon="29.9865470175"><ele>71.30</ele><time>2026-04-25T08:48:46Z</time></trkpt><trkpt lat="59.0636852011" lon="29.9867429025"><ele>71.24</ele><time>2026-04-25T08:49:06Z</time></trkpt><trkpt lat="59.0637629852" lon="29.9867786095"><ele>74.19</ele><time>2026-04-25T08:49:25Z</time></trkpt><trkpt lat="59.0638464689" lon="29.9867615104"><ele>75.36</ele><time>2026-04-25T08:49:41Z</time></trkpt><trkpt lat="59.0638839360" lon="29.9866443314"><ele>73.22</ele><time>2026-04-25T08:49:57Z</time></trkpt><trkpt lat="59.0638847742" lon="29.9864971451"><ele>72.35</ele><time>2026-04-25T08:50:15Z</time></trkpt><trkpt lat="59.0638902225" lon="29.9864450097"><ele>72.76</ele><time>2026-04-25T08:50:35Z</time></trkpt><trkpt lat="59.0638734587" lon="29.9864720833"><ele>73.74</ele><time>2026-04-25T08:51:04Z</time></trkpt><trkpt lat="59.0638558567" lon="29.9865277391"><ele>76.23</ele><time>2026-04-25T08:51:39Z</time></trkpt><trkpt lat="59.0638675075" lon="29.9864213727"><ele>73.75</ele><time>2026-04-25T08:52:09Z</time></trkpt><trkpt lat="59.0639251750" lon="29.9864963070"><ele>72.29</ele><time>2026-04-25T08:52:40Z</time></trkpt><trkpt lat="59.0639305394" lon="29.9865078740"><ele>72.02</ele><time>2026-04-25T08:52:44Z</time></trkpt><trkpt lat="59.0638910607" lon="29.9865481909"><ele>72.97</ele><time>2026-04-25T08:53:12Z</time></trkpt><trkpt lat="59.0638979338" lon="29.9865051918"><ele>74.04</ele><time>2026-04-25T08:53:41Z</time></trkpt><trkpt lat="59.0639162902" lon="29.9864993244"><ele>73.82</ele><time>2026-04-25T08:54:09Z</time></trkpt><trkpt lat="59.0639116801" lon="29.9865509570"><ele>74.77</ele><time>2026-04-25T08:54:36Z</time></trkpt><trkpt lat="59.0639661625" lon="29.9865379650"><ele>76.09</ele><time>2026-04-25T08:54:54Z</time></trkpt><trkpt lat="59.0640415158" lon="29.9865356181"><ele>76.27</ele><time>2026-04-25T08:55:15Z</time></trkpt><trkpt lat="59.0641551744" lon="29.9865610152"><ele>75.64</ele><time>2026-04-25T08:55:37Z</time></trkpt><trkpt lat="59.0642234031" lon="29.9865194410"><ele>75.67</ele><time>2026-04-25T08:55:56Z</time></trkpt><trkpt lat="59.0642750356" lon="29.9864825606"><ele>78.55</ele><time>2026-04-25T08:56:22Z</time></trkpt><trkpt lat="59.0643123351" lon="29.9865201116"><ele>80.52</ele><time>2026-04-25T08:56:45Z</time></trkpt><trkpt lat="59.0643913765" lon="29.9865995720"><ele>80.60</ele><time>2026-04-25T08:57:06Z</time></trkpt><trkpt lat="59.0644477028" lon="29.9866351113"><ele>81.34</ele><time>2026-04-25T08:57:34Z</time></trkpt><trkpt lat="59.0644684061" lon="29.9866859894"><ele>81.09</ele><time>2026-04-25T08:57:54Z</time></trkpt><trkpt lat="59.0644689091" lon="29.9867394660"><ele>81.04</ele><time>2026-04-25T08:58:22Z</time></trkpt><trkpt lat="59.0644540731" lon="29.9866867438"><ele>79.91</ele><time>2026-04-25T08:58:46Z</time></trkpt><trkpt lat="59.0644024406" lon="29.9866655376"><ele>79.33</ele><time>2026-04-25T08:59:16Z</time></trkpt><trkpt lat="59.0643964894" lon="29.9865798745"><ele>78.99</ele><time>2026-04-25T08:59:39Z</time></trkpt><trkpt lat="59.0644452721" lon="29.9866016675"><ele>77.86</ele><time>2026-04-25T09:00:02Z</time></trkpt><trkpt lat="59.0644228086" lon="29.9866860732"><ele>78.27</ele><time>2026-04-25T09:00:29Z</time></trkpt><trkpt lat="59.0644931328" lon="29.9866926949"><ele>80.77</ele><time>2026-04-25T09:00:50Z</time></trkpt><trkpt lat="59.0644859243" lon="29.9866786972"><ele>80.71</ele><time>2026-04-25T09:01:15Z</time></trkpt><trkpt lat="59.0644392371" lon="29.9866774399"><ele>79.75</ele><time>2026-04-25T09:01:41Z</time></trkpt><trkpt lat="59.0644834097" lon="29.9866347760"><ele>80.39</ele><time>2026-04-25T09:02:03Z</time></trkpt><trkpt lat="59.0645284206" lon="29.9866642803"><ele>81.27</ele><time>2026-04-25T09:02:32Z</time></trkpt><trkpt lat="59.0644336212" lon="29.9866812956"><ele>81.88</ele><time>2026-04-25T09:02:58Z</time></trkpt><trkpt lat="59.0644697472" lon="29.9867473450"><ele>82.38</ele><time>2026-04-25T09:03:25Z</time></trkpt><trkpt lat="59.0644314419" lon="29.9867359456"><ele>82.62</ele><time>2026-04-25T09:03:54Z</time></trkpt><trkpt lat="59.0644870140" lon="29.9867074471"><ele>83.44</ele><time>2026-04-25T09:04:23Z</time></trkpt><trkpt lat="59.0644589346" lon="29.9867651146"><ele>84.05</ele><time>2026-04-25T09:04:50Z</time></trkpt><trkpt lat="59.0644773748" lon="29.9867413938"><ele>83.45</ele><time>2026-04-25T09:05:14Z</time></trkpt><trkpt lat="59.0644668974" lon="29.9867124762"><ele>84.23</ele><time>2026-04-25T09:05:43Z</time></trkpt><trkpt lat="59.0644784644" lon="29.9867132306"><ele>85.11</ele><time>2026-04-25T09:06:08Z</time></trkpt><trkpt lat="59.0644442663" lon="29.9865810480"><ele>86.04</ele><time>2026-04-25T09:06:33Z</time></trkpt><trkpt lat="59.0643959865" lon="29.9866335187"><ele>85.45</ele><time>2026-04-25T09:06:54Z</time></trkpt><trkpt lat="59.0644668974" lon="29.9866669625"><ele>85.54</ele><time>2026-04-25T09:07:15Z</time></trkpt><trkpt lat="59.0644782968" lon="29.9867113866"><ele>86.05</ele><time>2026-04-25T09:07:39Z</time></trkpt><trkpt lat="59.0644899476" lon="29.9866995681"><ele>84.26</ele><time>2026-04-25T09:08:05Z</time></trkpt><trkpt lat="59.0645648818" lon="29.9866568204"><ele>83.97</ele><time>2026-04-25T09:08:23Z</time></trkpt><trkpt lat="59.0645929612" lon="29.9866705667"><ele>84.48</ele><time>2026-04-25T09:08:39Z</time></trkpt><trkpt lat="59.0646585077" lon="29.9866118934"><ele>84.51</ele><time>2026-04-25T09:08:57Z</time></trkpt><trkpt lat="59.0646529756" lon="29.9866191018"><ele>84.53</ele><time>2026-04-25T09:09:21Z</time></trkpt><trkpt lat="59.0646723378" lon="29.9865294155"><ele>86.12</ele><time>2026-04-25T09:09:48Z</time></trkpt><trkpt lat="59.0646736789" lon="29.9866658729"><ele>89.56</ele><time>2026-04-25T09:10:14Z</time></trkpt><trkpt lat="59.0647065360" lon="29.9867748376"><ele>89.66</ele><time>2026-04-25T09:10:36Z</time></trkpt><trkpt lat="59.0647812188" lon="29.9868427310"><ele>90.14</ele><time>2026-04-25T09:10:56Z</time></trkpt><trkpt lat="59.0648644511" lon="29.9869042542"><ele>89.49</ele><time>2026-04-25T09:11:13Z</time></trkpt><trkpt lat="59.0649655368" lon="29.9868862331"><ele>89.30</ele><time>2026-04-25T09:11:33Z</time></trkpt><trkpt lat="59.0649787802" lon="29.9868913461"><ele>89.10</ele><time>2026-04-25T09:11:46Z</time></trkpt><trkpt lat="59.0651076101" lon="29.9868616741"><ele>88.30</ele><time>2026-04-25T09:12:10Z</time></trkpt><trkpt lat="59.0651728213" lon="29.9868114665"><ele>88.18</ele><time>2026-04-25T09:12:27Z</time></trkpt><trkpt lat="59.0652350150" lon="29.9867736641"><ele>87.23</ele><time>2026-04-25T09:12:49Z</time></trkpt><trkpt lat="59.0653404593" lon="29.9868413061"><ele>87.29</ele><time>2026-04-25T09:13:07Z</time></trkpt><trkpt lat="59.0653857216" lon="29.9868739955"><ele>86.88</ele><time>2026-04-25T09:13:22Z</time></trkpt><trkpt lat="59.0654217638" lon="29.9869747460"><ele>85.98</ele><time>2026-04-25T09:13:40Z</time></trkpt><trkpt lat="59.0655226819" lon="29.9870107882"><ele>85.59</ele><time>2026-04-25T09:13:57Z</time></trkpt><trkpt lat="59.0656260308" lon="29.9870262109"><ele>82.58</ele><time>2026-04-25T09:14:16Z</time></trkpt><trkpt lat="59.0656024776" lon="29.9870692939"><ele>80.96</ele><time>2026-04-25T09:14:51Z</time></trkpt><trkpt lat="59.0656625759" lon="29.9871005584"><ele>78.90</ele><time>2026-04-25T09:15:22Z</time></trkpt><trkpt lat="59.0657542739" lon="29.9870254565"><ele>76.61</ele><time>2026-04-25T09:15:55Z</time></trkpt><trkpt lat="59.0657245182" lon="29.9871141370"><ele>75.85</ele><time>2026-04-25T09:16:20Z</time></trkpt><trkpt lat="59.0657430422" lon="29.9871159811"><ele>76.18</ele><time>2026-04-25T09:16:43Z</time></trkpt><trkpt lat="59.0658136178" lon="29.9871511012"><ele>76.83</ele><time>2026-04-25T09:16:57Z</time></trkpt><trkpt lat="59.0660178009" lon="29.9871799350"><ele>74.44</ele><time>2026-04-25T09:17:24Z</time></trkpt><trkpt lat="59.0660836827" lon="29.9872024823"><ele>74.81</ele><time>2026-04-25T09:17:39Z</time></trkpt><trkpt lat="59.0661167912" lon="29.9872357585"><ele>75.55</ele><time>2026-04-25T09:17:59Z</time></trkpt><trkpt lat="59.0662348084" lon="29.9873846211"><ele>75.69</ele><time>2026-04-25T09:18:20Z</time></trkpt><trkpt lat="59.0663077310" lon="29.9874579627"><ele>76.70</ele><time>2026-04-25T09:18:36Z</time></trkpt><trkpt lat="59.0663256682" lon="29.9874001276"><ele>79.22</ele><time>2026-04-25T09:19:00Z</time></trkpt><trkpt lat="59.0663459525" lon="29.9873140454"><ele>79.61</ele><time>2026-04-25T09:19:09Z</time></trkpt><trkpt lat="59.0664295200" lon="29.9870597385"><ele>78.00</ele><time>2026-04-25T09:19:29Z</time></trkpt><trkpt lat="59.0664407518" lon="29.9870392028"><ele>77.77</ele><time>2026-04-25T09:19:32Z</time></trkpt><trkpt lat="59.0664772131" lon="29.9870482553"><ele>77.62</ele><time>2026-04-25T09:20:01Z</time></trkpt><trkpt lat="59.0665244870" lon="29.9870002270"><ele>78.19</ele><time>2026-04-25T09:20:24Z</time></trkpt><trkpt lat="59.0665310249" lon="29.9867830519"><ele>76.87</ele><time>2026-04-25T09:20:45Z</time></trkpt><trkpt lat="59.0665869322" lon="29.9868808687"><ele>76.12</ele><time>2026-04-25T09:21:02Z</time></trkpt><trkpt lat="59.0666378941" lon="29.9870298151"><ele>74.89</ele><time>2026-04-25T09:21:18Z</time></trkpt><trkpt lat="59.0666367207" lon="29.9870780110"><ele>74.38</ele><time>2026-04-25T09:21:23Z</time></trkpt><trkpt lat="59.0666651353" lon="29.9874580465"><ele>72.39</ele><time>2026-04-25T09:21:45Z</time></trkpt><trkpt lat="59.0666635428" lon="29.9875245150"><ele>73.15</ele><time>2026-04-25T09:22:07Z</time></trkpt><trkpt lat="59.0666616149" lon="29.9874999560"><ele>73.05</ele><time>2026-04-25T09:22:36Z</time></trkpt><trkpt lat="59.0666893590" lon="29.9874323979"><ele>74.57</ele><time>2026-04-25T09:23:09Z</time></trkpt><trkpt lat="59.0666921251" lon="29.9874247704"><ele>76.40</ele><time>2026-04-25T09:23:41Z</time></trkpt><trkpt lat="59.0667053685" lon="29.9874282908"><ele>76.95</ele><time>2026-04-25T09:23:53Z</time></trkpt><trkpt lat="59.0667935461" lon="29.9875065777"><ele>77.64</ele><time>2026-04-25T09:24:19Z</time></trkpt><trkpt lat="59.0668848250" lon="29.9875479005"><ele>78.09</ele><time>2026-04-25T09:24:35Z</time></trkpt><trkpt lat="59.0669573285" lon="29.9875393510"><ele>78.06</ele><time>2026-04-25T09:24:55Z</time></trkpt><trkpt lat="59.0670585819" lon="29.9874717928"><ele>78.21</ele><time>2026-04-25T09:25:15Z</time></trkpt><trkpt lat="59.0671512857" lon="29.9874544423"><ele>78.12</ele><time>2026-04-25T09:25:39Z</time></trkpt><trkpt lat="59.0672518685" lon="29.9874672666"><ele>78.21</ele><time>2026-04-25T09:25:53Z</time></trkpt><trkpt lat="59.0673231985" lon="29.9874888919"><ele>78.16</ele><time>2026-04-25T09:26:08Z</time></trkpt><trkpt lat="59.0674013179" lon="29.9875368364"><ele>77.62</ele><time>2026-04-25T09:26:26Z</time></trkpt><trkpt lat="59.0674138907" lon="29.9876108486"><ele>77.10</ele><time>2026-04-25T09:26:45Z</time></trkpt><trkpt lat="59.0674387850" lon="29.9877162091"><ele>76.91</ele><time>2026-04-25T09:27:07Z</time></trkpt><trkpt lat="59.0674785152" lon="29.9877925683"><ele>77.07</ele><time>2026-04-25T09:27:25Z</time></trkpt><trkpt lat="59.0674846340" lon="29.9878506549"><ele>77.51</ele><time>2026-04-25T09:27:52Z</time></trkpt><trkpt lat="59.0675032418" lon="29.9878118467"><ele>77.19</ele><time>2026-04-25T09:28:10Z</time></trkpt><trkpt lat="59.0675660223" lon="29.9877867848"><ele>77.50</ele><time>2026-04-25T09:28:43Z</time></trkpt><trkpt lat="59.0675010625" lon="29.9879203923"><ele>76.52</ele><time>2026-04-25T09:29:09Z</time></trkpt><trkpt lat="59.0674998052" lon="29.9878843501"><ele>77.70</ele><time>2026-04-25T09:29:27Z</time></trkpt><trkpt lat="59.0674947761" lon="29.9878687598"><ele>78.87</ele><time>2026-04-25T09:29:50Z</time></trkpt><trkpt lat="59.0674979612" lon="29.9878515769"><ele>78.80</ele><time>2026-04-25T09:30:24Z</time></trkpt><trkpt lat="59.0674912557" lon="29.9877845217"><ele>79.48</ele><time>2026-04-25T09:30:58Z</time></trkpt><trkpt lat="59.0674558841" lon="29.9878692627"><ele>79.64</ele><time>2026-04-25T09:31:36Z</time></trkpt><trkpt lat="59.0674460772" lon="29.9878747948"><ele>79.69</ele><time>2026-04-25T09:31:39Z</time></trkpt><trkpt lat="59.0673860628" lon="29.9877321348"><ele>79.69</ele><time>2026-04-25T09:32:21Z</time></trkpt><trkpt lat="59.0674558841" lon="29.9878418539"><ele>79.35</ele><time>2026-04-25T09:32:48Z</time></trkpt><trkpt lat="59.0675097797" lon="29.9878500681"><ele>82.38</ele><time>2026-04-25T09:33:15Z</time></trkpt><trkpt lat="59.0675227717" lon="29.9878884573"><ele>83.61</ele><time>2026-04-25T09:33:50Z</time></trkpt><trkpt lat="59.0675193351" lon="29.9878379982"><ele>83.89</ele><time>2026-04-25T09:34:19Z</time></trkpt><trkpt lat="59.0675404575" lon="29.9878307898"><ele>83.33</ele><time>2026-04-25T09:35:00Z</time></trkpt><trkpt lat="59.0675215144" lon="29.9878212344"><ele>83.43</ele><time>2026-04-25T09:35:50Z</time></trkpt><trkpt lat="59.0674207639" lon="29.9876744673"><ele>84.79</ele><time>2026-04-25T09:36:30Z</time></trkpt><trkpt lat="59.0674909204" lon="29.9879089091"><ele>84.94</ele><time>2026-04-25T09:37:21Z</time></trkpt><trkpt lat="59.0674954467" lon="29.9878431112"><ele>83.04</ele><time>2026-04-25T09:37:52Z</time></trkpt><trkpt lat="59.0674928483" lon="29.9878023751"><ele>84.92</ele><time>2026-04-25T09:38:27Z</time></trkpt><trkpt lat="59.0674774256" lon="29.9878662452"><ele>85.74</ele><time>2026-04-25T09:39:01Z</time></trkpt><trkpt lat="59.0674671996" lon="29.9879036285"><ele>81.87</ele><time>2026-04-25T09:42:07Z</time></trkpt><trkpt lat="59.0675048344" lon="29.9878480565"><ele>80.38</ele><time>2026-04-25T09:42:33Z</time></trkpt><trkpt lat="59.0674563870" lon="29.9877747986"><ele>79.28</ele><time>2026-04-25T09:43:16Z</time></trkpt><trkpt lat="59.0674873162" lon="29.9878483918"><ele>79.53</ele><time>2026-04-25T09:43:41Z</time></trkpt><trkpt lat="59.0675190836" lon="29.9878875352"><ele>78.84</ele><time>2026-04-25T09:44:07Z</time></trkpt><trkpt lat="59.0674910042" lon="29.9879741203"><ele>80.11</ele><time>2026-04-25T09:44:34Z</time></trkpt><trkpt lat="59.0674655233" lon="29.9879505672"><ele>82.19</ele><time>2026-04-25T09:45:08Z</time></trkpt><trkpt lat="59.0674541239" lon="29.9879476335"><ele>80.57</ele><time>2026-04-25T09:45:54Z</time></trkpt><trkpt lat="59.0674519446" lon="29.9879628047"><ele>80.65</ele><time>2026-04-25T09:46:30Z</time></trkpt><trkpt lat="59.0674586501" lon="29.9879690912"><ele>78.37</ele><time>2026-04-25T09:47:02Z</time></trkpt><trkpt lat="59.0674627572" lon="29.9879516568"><ele>77.33</ele><time>2026-04-25T09:47:39Z</time></trkpt><trkpt lat="59.0674574766" lon="29.9880286865"><ele>76.70</ele><time>2026-04-25T09:48:07Z</time></trkpt><trkpt lat="59.0674338397" lon="29.9880629685"><ele>78.62</ele><time>2026-04-25T09:48:36Z</time></trkpt><trkpt lat="59.0674593206" lon="29.9880792294"><ele>78.18</ele><time>2026-04-25T09:49:02Z</time></trkpt><trkpt lat="59.0674976259" lon="29.9882866815"><ele>77.02</ele><time>2026-04-25T09:49:27Z</time></trkpt><trkpt lat="59.0675542876" lon="29.9883530661"><ele>76.67</ele><time>2026-04-25T09:49:48Z</time></trkpt><trkpt lat="59.0675860550" lon="29.9883990828"><ele>77.15</ele><time>2026-04-25T09:50:14Z</time></trkpt><trkpt lat="59.0675370209" lon="29.9883686565"><ele>77.22</ele><time>2026-04-25T09:50:38Z</time></trkpt><trkpt lat="59.0675381105" lon="29.9884212110"><ele>77.00</ele><time>2026-04-25T09:51:01Z</time></trkpt><trkpt lat="59.0675365180" lon="29.9884988274"><ele>76.73</ele><time>2026-04-25T09:51:22Z</time></trkpt><trkpt lat="59.0675461572" lon="29.9886064511"><ele>76.23</ele><time>2026-04-25T09:51:45Z</time></trkpt><trkpt lat="59.0675164014" lon="29.9886471033"><ele>75.81</ele><time>2026-04-25T09:52:10Z</time></trkpt><trkpt lat="59.0675156470" lon="29.9886840675"><ele>75.61</ele><time>2026-04-25T09:52:33Z</time></trkpt><trkpt lat="59.0675353445" lon="29.9887294136"><ele>76.12</ele><time>2026-04-25T09:53:01Z</time></trkpt><trkpt lat="59.0675744042" lon="29.9887801241"><ele>75.80</ele><time>2026-04-25T09:53:28Z</time></trkpt><trkpt lat="59.0676175710" lon="29.9888134003"><ele>76.39</ele><time>2026-04-25T09:53:52Z</time></trkpt><trkpt lat="59.0676171519" lon="29.9888938665"><ele>76.15</ele><time>2026-04-25T09:54:16Z</time></trkpt><trkpt lat="59.0676699579" lon="29.9890136439"><ele>75.80</ele><time>2026-04-25T09:54:41Z</time></trkpt><trkpt lat="59.0676838718" lon="29.9891822878"><ele>75.65</ele><time>2026-04-25T09:55:02Z</time></trkpt><trkpt lat="59.0677523520" lon="29.9893552065"><ele>75.23</ele><time>2026-04-25T09:55:26Z</time></trkpt><trkpt lat="59.0677896515" lon="29.9894961901"><ele>74.71</ele><time>2026-04-25T09:55:53Z</time></trkpt><trkpt lat="59.0678253584" lon="29.9894783366"><ele>74.29</ele><time>2026-04-25T09:56:30Z</time></trkpt><trkpt lat="59.0677950159" lon="29.9895095173"><ele>75.50</ele><time>2026-04-25T09:56:56Z</time></trkpt><trkpt lat="59.0677997097" lon="29.9897120241"><ele>76.83</ele><time>2026-04-25T09:57:18Z</time></trkpt><trkpt lat="59.0677866340" lon="29.9899990205"><ele>77.11</ele><time>2026-04-25T09:57:39Z</time></trkpt><trkpt lat="59.0677870531" lon="29.9902727734"><ele>75.27</ele><time>2026-04-25T09:57:57Z</time></trkpt><trkpt lat="59.0677254461" lon="29.9905503821"><ele>75.33</ele><time>2026-04-25T09:58:19Z</time></trkpt><trkpt lat="59.0677305590" lon="29.9906803016"><ele>75.44</ele><time>2026-04-25T09:58:30Z</time></trkpt><trkpt lat="59.0677459817" lon="29.9908609316"><ele>75.15</ele><time>2026-04-25T09:58:46Z</time></trkpt><trkpt lat="59.0677221771" lon="29.9909745902"><ele>75.04</ele><time>2026-04-25T09:58:56Z</time></trkpt><trkpt lat="59.0676943492" lon="29.9912527855"><ele>76.31</ele><time>2026-04-25T09:59:12Z</time></trkpt><trkpt lat="59.0678129531" lon="29.9914495926"><ele>77.40</ele><time>2026-04-25T09:59:33Z</time></trkpt><trkpt lat="59.0678593051" lon="29.9916400295"><ele>77.13</ele><time>2026-04-25T09:59:55Z</time></trkpt><trkpt lat="59.0680468082" lon="29.9916634150"><ele>79.08</ele><time>2026-04-25T10:00:16Z</time></trkpt><trkpt lat="59.0680741332" lon="29.9919137824"><ele>79.77</ele><time>2026-04-25T10:00:37Z</time></trkpt><trkpt lat="59.0681772307" lon="29.9920693506"><ele>84.24</ele><time>2026-04-25T10:01:00Z</time></trkpt><trkpt lat="59.0681221616" lon="29.9921012018"><ele>86.12</ele><time>2026-04-25T10:01:29Z</time></trkpt><trkpt lat="59.0679394361" lon="29.9922119267"><ele>85.47</ele><time>2026-04-25T10:01:49Z</time></trkpt><trkpt lat="59.0678607300" lon="29.9923773855"><ele>86.84</ele><time>2026-04-25T10:02:09Z</time></trkpt><trkpt lat="59.0678708721" lon="29.9924172834"><ele>87.59</ele><time>2026-04-25T10:02:25Z</time></trkpt><trkpt lat="59.0678053256" lon="29.9924291857"><ele>88.46</ele><time>2026-04-25T10:02:56Z</time></trkpt><trkpt lat="59.0678573772" lon="29.9924544990"><ele>87.97</ele><time>2026-04-25T10:03:29Z</time></trkpt><trkpt lat="59.0679036453" lon="29.9924110807"><ele>86.51</ele><time>2026-04-25T10:04:06Z</time></trkpt><trkpt lat="59.0678412002" lon="29.9924665689"><ele>87.83</ele><time>2026-04-25T10:04:33Z</time></trkpt><trkpt lat="59.0677936748" lon="29.9924952351"><ele>86.19</ele><time>2026-04-25T10:05:00Z</time></trkpt><trkpt lat="59.0677642543" lon="29.9925668165"><ele>85.33</ele><time>2026-04-25T10:05:49Z</time></trkpt><trkpt lat="59.0677238535" lon="29.9927442614"><ele>84.01</ele><time>2026-04-25T10:06:07Z</time></trkpt><trkpt lat="59.0677179024" lon="29.9927539844"><ele>84.02</ele><time>2026-04-25T10:06:09Z</time></trkpt><trkpt lat="59.0677131247" lon="29.9930583313"><ele>83.53</ele><time>2026-04-25T10:06:31Z</time></trkpt><trkpt lat="59.0677929204" lon="29.9934243690"><ele>83.04</ele><time>2026-04-25T10:06:55Z</time></trkpt><trkpt lat="59.0678848699" lon="29.9936396163"><ele>80.89</ele><time>2026-04-25T10:07:14Z</time></trkpt><trkpt lat="59.0679653361" lon="29.9939707015"><ele>78.51</ele><time>2026-04-25T10:07:36Z</time></trkpt><trkpt lat="59.0680343192" lon="29.9942820054"><ele>78.13</ele><time>2026-04-25T10:07:53Z</time></trkpt><trkpt lat="59.0680226684" lon="29.9943425227"><ele>75.52</ele><time>2026-04-25T10:08:19Z</time></trkpt><trkpt lat="59.0679676831" lon="29.9944975041"><ele>77.11</ele><time>2026-04-25T10:08:50Z</time></trkpt><trkpt lat="59.0680012107" lon="29.9945870228"><ele>77.66</ele><time>2026-04-25T10:09:23Z</time></trkpt><trkpt lat="59.0680605546" lon="29.9946717639"><ele>78.44</ele><time>2026-04-25T10:09:40Z</time></trkpt><trkpt lat="59.0681359917" lon="29.9947796389"><ele>78.64</ele><time>2026-04-25T10:09:59Z</time></trkpt><trkpt lat="59.0681794100" lon="29.9948093947"><ele>78.65</ele><time>2026-04-25T10:10:20Z</time></trkpt><trkpt lat="59.0682255104" lon="29.9949588440"><ele>78.53</ele><time>2026-04-25T10:10:43Z</time></trkpt><trkpt lat="59.0681574494" lon="29.9951373786"><ele>79.26</ele><time>2026-04-25T10:11:04Z</time></trkpt><trkpt lat="59.0681080800" lon="29.9953256361"><ele>80.12</ele><time>2026-04-25T10:11:27Z</time></trkpt><trkpt lat="59.0681011230" lon="29.9954604171"><ele>80.92</ele><time>2026-04-25T10:11:51Z</time></trkpt><trkpt lat="59.0681069065" lon="29.9954736605"><ele>80.78</ele><time>2026-04-25T10:11:53Z</time></trkpt><trkpt lat="59.0681538451" lon="29.9956310727"><ele>80.55</ele><time>2026-04-25T10:12:18Z</time></trkpt><trkpt lat="59.0682020411" lon="29.9956642650"><ele>80.08</ele><time>2026-04-25T10:12:34Z</time></trkpt><trkpt lat="59.0683034621" lon="29.9957698770"><ele>79.51</ele><time>2026-04-25T10:12:56Z</time></trkpt><trkpt lat="59.0683528315" lon="29.9958510138"><ele>79.18</ele><time>2026-04-25T10:13:17Z</time></trkpt><trkpt lat="59.0684073139" lon="29.9960083421"><ele>81.16</ele><time>2026-04-25T10:13:41Z</time></trkpt><trkpt lat="59.0683573578" lon="29.9962691031"><ele>81.12</ele><time>2026-04-25T10:14:04Z</time></trkpt><trkpt lat="59.0682987683" lon="29.9965110887"><ele>81.36</ele><time>2026-04-25T10:14:23Z</time></trkpt><trkpt lat="59.0682500694" lon="29.9966317043"><ele>81.11</ele><time>2026-04-25T10:14:41Z</time></trkpt><trkpt lat="59.0682060644" lon="29.9967840035"><ele>81.46</ele><time>2026-04-25T10:15:09Z</time></trkpt><trkpt lat="59.0682112612" lon="29.9968217220"><ele>83.73</ele><time>2026-04-25T10:15:36Z</time></trkpt><trkpt lat="59.0682291146" lon="29.9970193673"><ele>84.98</ele><time>2026-04-25T10:15:58Z</time></trkpt><trkpt lat="59.0682305396" lon="29.9971844908"><ele>84.66</ele><time>2026-04-25T10:16:16Z</time></trkpt><trkpt lat="59.0682170447" lon="29.9973545596"><ele>84.44</ele><time>2026-04-25T10:16:35Z</time></trkpt><trkpt lat="59.0682109259" lon="29.9975109659"><ele>83.92</ele><time>2026-04-25T10:16:47Z</time></trkpt><trkpt lat="59.0682052262" lon="29.9978093617"><ele>82.84</ele><time>2026-04-25T10:17:09Z</time></trkpt><trkpt lat="59.0681955032" lon="29.9980351701"><ele>81.33</ele><time>2026-04-25T10:17:27Z</time></trkpt><trkpt lat="59.0681727882" lon="29.9983044807"><ele>80.33</ele><time>2026-04-25T10:17:44Z</time></trkpt><trkpt lat="59.0682395920" lon="29.9984215759"><ele>80.07</ele><time>2026-04-25T10:18:01Z</time></trkpt><trkpt lat="59.0682707727" lon="29.9985205662"><ele>79.85</ele><time>2026-04-25T10:18:11Z</time></trkpt><trkpt lat="59.0683004446" lon="29.9987402558"><ele>82.99</ele><time>2026-04-25T10:18:40Z</time></trkpt><trkpt lat="59.0683196392" lon="29.9988246616"><ele>84.58</ele><time>2026-04-25T10:19:10Z</time></trkpt><trkpt lat="59.0684146062" lon="29.9987785611"><ele>88.27</ele><time>2026-04-25T10:19:40Z</time></trkpt><trkpt lat="59.0684241615" lon="29.9989513122"><ele>87.25</ele><time>2026-04-25T10:20:04Z</time></trkpt><trkpt lat="59.0684840921" lon="29.9991567526"><ele>87.76</ele><time>2026-04-25T10:20:23Z</time></trkpt><trkpt lat="59.0685205534" lon="29.9993251450"><ele>88.01</ele><time>2026-04-25T10:20:45Z</time></trkpt><trkpt lat="59.0684888698" lon="29.9994248897"><ele>88.17</ele><time>2026-04-25T10:21:15Z</time></trkpt><trkpt lat="59.0684234072" lon="29.9997918494"><ele>87.17</ele><time>2026-04-25T10:21:41Z</time></trkpt><trkpt lat="59.0684085712" lon="29.9998791050"><ele>86.75</ele><time>2026-04-25T10:21:58Z</time></trkpt><trkpt lat="59.0684112534" lon="29.9998777639"><ele>86.65</ele><time>2026-04-25T10:21:59Z</time></trkpt><trkpt lat="59.0683480538" lon="30.0001536962"><ele>86.76</ele><time>2026-04-25T10:22:23Z</time></trkpt><trkpt lat="59.0683213156" lon="30.0001925044"><ele>86.56</ele><time>2026-04-25T10:22:28Z</time></trkpt><trkpt lat="59.0682535898" lon="30.0004282873"><ele>86.85</ele><time>2026-04-25T10:22:53Z</time></trkpt><trkpt lat="59.0682463814" lon="30.0004660897"><ele>86.67</ele><time>2026-04-25T10:22:57Z</time></trkpt><trkpt lat="59.0682530031" lon="30.0006515812"><ele>86.47</ele><time>2026-04-25T10:23:15Z</time></trkpt><trkpt lat="59.0682484768" lon="30.0009047985"><ele>87.50</ele><time>2026-04-25T10:23:41Z</time></trkpt><trkpt lat="59.0682891291" lon="30.0009669084"><ele>89.31</ele><time>2026-04-25T10:24:06Z</time></trkpt><trkpt lat="59.0683083236" lon="30.0009218976"><ele>90.38</ele><time>2026-04-25T10:24:35Z</time></trkpt><trkpt lat="59.0683213994" lon="30.0009644777"><ele>90.38</ele><time>2026-04-25T10:25:02Z</time></trkpt><trkpt lat="59.0683775581" lon="30.0009458698"><ele>90.41</ele><time>2026-04-25T10:25:14Z</time></trkpt><trkpt lat="59.0684811585" lon="30.0009423494"><ele>89.96</ele><time>2026-04-25T10:25:27Z</time></trkpt><trkpt lat="59.0685475431" lon="30.0009811576"><ele>89.58</ele><time>2026-04-25T10:25:51Z</time></trkpt><trkpt lat="59.0685608704" lon="30.0010046270"><ele>89.91</ele><time>2026-04-25T10:26:18Z</time></trkpt><trkpt lat="59.0686208010" lon="30.0010890327"><ele>88.97</ele><time>2026-04-25T10:26:41Z</time></trkpt><trkpt lat="59.0686229803" lon="30.0012406614"><ele>88.40</ele><time>2026-04-25T10:27:02Z</time></trkpt><trkpt lat="59.0686037857" lon="30.0013496261"><ele>88.48</ele><time>2026-04-25T10:27:18Z</time></trkpt><trkpt lat="59.0685346350" lon="30.0016807113"><ele>88.11</ele><time>2026-04-25T10:27:40Z</time></trkpt><trkpt lat="59.0685306117" lon="30.0019268878"><ele>87.28</ele><time>2026-04-25T10:28:01Z</time></trkpt><trkpt lat="59.0685146023" lon="30.0021369383"><ele>86.27</ele><time>2026-04-25T10:28:16Z</time></trkpt><trkpt lat="59.0685178712" lon="30.0024441350"><ele>85.32</ele><time>2026-04-25T10:28:41Z</time></trkpt><trkpt lat="59.0685020294" lon="30.0024254434"><ele>86.71</ele><time>2026-04-25T10:29:06Z</time></trkpt><trkpt lat="59.0684480499" lon="30.0024757348"><ele>87.80</ele><time>2026-04-25T10:29:36Z</time></trkpt><trkpt lat="59.0685229842" lon="30.0024418719"><ele>88.16</ele><time>2026-04-25T10:30:09Z</time></trkpt><trkpt lat="59.0685265884" lon="30.0024318974"><ele>87.54</ele><time>2026-04-25T10:30:32Z</time></trkpt><trkpt lat="59.0685576852" lon="30.0024495833"><ele>86.87</ele><time>2026-04-25T10:30:59Z</time></trkpt><trkpt lat="59.0685805678" lon="30.0025045685"><ele>87.26</ele><time>2026-04-25T10:31:29Z</time></trkpt><trkpt lat="59.0685201343" lon="30.0027203187"><ele>87.41</ele><time>2026-04-25T10:31:58Z</time></trkpt><trkpt lat="59.0685222298" lon="30.0027048960"><ele>87.18</ele><time>2026-04-25T10:32:21Z</time></trkpt><trkpt lat="59.0685188770" lon="30.0026140362"><ele>86.76</ele><time>2026-04-25T10:32:31Z</time></trkpt><trkpt lat="59.0685106628" lon="30.0024752319"><ele>86.61</ele><time>2026-04-25T10:32:57Z</time></trkpt><trkpt lat="59.0685073100" lon="30.0024286285"><ele>85.48</ele><time>2026-04-25T10:33:24Z</time></trkpt><trkpt lat="59.0685484651" lon="30.0025337376"><ele>85.10</ele><time>2026-04-25T10:33:54Z</time></trkpt><trkpt lat="59.0685496386" lon="30.0025410298"><ele>86.62</ele><time>2026-04-25T10:34:28Z</time></trkpt><trkpt lat="59.0685134288" lon="30.0025912374"><ele>88.62</ele><time>2026-04-25T10:34:56Z</time></trkpt><trkpt lat="59.0685175359" lon="30.0024806801"><ele>87.46</ele><time>2026-04-25T10:35:23Z</time></trkpt><trkpt lat="59.0685255826" lon="30.0022571348"><ele>87.57</ele><time>2026-04-25T10:35:46Z</time></trkpt><trkpt lat="59.0684632212" lon="30.0020351820"><ele>85.96</ele><time>2026-04-25T10:36:05Z</time></trkpt><trkpt lat="59.0684223175" lon="30.0019110460"><ele>85.48</ele><time>2026-04-25T10:36:27Z</time></trkpt><trkpt lat="59.0683831740" lon="30.0019241218"><ele>86.39</ele><time>2026-04-25T10:36:57Z</time></trkpt><trkpt lat="59.0684001055" lon="30.0019176677"><ele>86.70</ele><time>2026-04-25T10:37:13Z</time></trkpt><trkpt lat="59.0683488082" lon="30.0019897521"><ele>86.89</ele><time>2026-04-25T10:37:26Z</time></trkpt><trkpt lat="59.0682340600" lon="30.0020304043"><ele>86.72</ele><time>2026-04-25T10:37:45Z</time></trkpt><trkpt lat="59.0680764802" lon="30.0020239502"><ele>86.52</ele><time>2026-04-25T10:38:03Z</time></trkpt><trkpt lat="59.0679447167" lon="30.0021072663"><ele>84.90</ele><time>2026-04-25T10:38:25Z</time></trkpt><trkpt lat="59.0678174794" lon="30.0022301450"><ele>84.04</ele><time>2026-04-25T10:38:47Z</time></trkpt><trkpt lat="59.0676879790" lon="30.0023557059"><ele>83.71</ele><time>2026-04-25T10:39:07Z</time></trkpt><trkpt lat="59.0675791819" lon="30.0024623238"><ele>83.21</ele><time>2026-04-25T10:39:31Z</time></trkpt><trkpt lat="59.0675404575" lon="30.0025802571"><ele>82.87</ele><time>2026-04-25T10:39:43Z</time></trkpt><trkpt lat="59.0674154833" lon="30.0027362444"><ele>84.13</ele><time>2026-04-25T10:40:06Z</time></trkpt><trkpt lat="59.0673964564" lon="30.0027634017"><ele>84.24</ele><time>2026-04-25T10:40:27Z</time></trkpt><trkpt lat="59.0672694705" lon="30.0027051475"><ele>85.16</ele><time>2026-04-25T10:40:49Z</time></trkpt><trkpt lat="59.0672093723" lon="30.0027567800"><ele>84.81</ele><time>2026-04-25T10:41:07Z</time></trkpt><trkpt lat="59.0671986435" lon="30.0027649105"><ele>84.07</ele><time>2026-04-25T10:41:27Z</time></trkpt><trkpt lat="59.0671713185" lon="30.0026848633"><ele>85.13</ele><time>2026-04-25T10:41:54Z</time></trkpt><trkpt lat="59.0671571530" lon="30.0027022976"><ele>84.45</ele><time>2026-04-25T10:42:13Z</time></trkpt><trkpt lat="59.0671446640" lon="30.0027631503"><ele>84.15</ele><time>2026-04-25T10:42:42Z</time></trkpt><trkpt lat="59.0671918541" lon="30.0028740428"><ele>81.64</ele><time>2026-04-25T10:43:10Z</time></trkpt><trkpt lat="59.0671340190" lon="30.0029957481"><ele>80.40</ele><time>2026-04-25T10:43:42Z</time></trkpt><trkpt lat="59.0671421494" lon="30.0028312951"><ele>81.32</ele><time>2026-04-25T10:44:08Z</time></trkpt><trkpt lat="59.0671706479" lon="30.0027184747"><ele>82.44</ele><time>2026-04-25T10:44:35Z</time></trkpt><trkpt lat="59.0671752580" lon="30.0026862882"><ele>82.51</ele><time>2026-04-25T10:45:04Z</time></trkpt><trkpt lat="59.0672333445" lon="30.0026041456"><ele>82.49</ele><time>2026-04-25T10:45:22Z</time></trkpt><trkpt lat="59.0672496893" lon="30.0025081728"><ele>82.63</ele><time>2026-04-25T10:45:37Z</time></trkpt><trkpt lat="59.0672682971" lon="30.0022818614"><ele>82.53</ele><time>2026-04-25T10:46:00Z</time></trkpt><trkpt lat="59.0673138108" lon="30.0021166541"><ele>82.41</ele><time>2026-04-25T10:46:25Z</time></trkpt><trkpt lat="59.0673162416" lon="30.0021116249"><ele>82.39</ele><time>2026-04-25T10:46:26Z</time></trkpt><trkpt lat="59.0673708916" lon="30.0018993113"><ele>82.20</ele><time>2026-04-25T10:46:47Z</time></trkpt><trkpt lat="59.0673679579" lon="30.0017766841"><ele>81.14</ele><time>2026-04-25T10:46:56Z</time></trkpt><trkpt lat="59.0673679579" lon="30.0016430765"><ele>81.29</ele><time>2026-04-25T10:47:17Z</time></trkpt><trkpt lat="59.0673703887" lon="30.0014325231"><ele>82.52</ele><time>2026-04-25T10:47:36Z</time></trkpt><trkpt lat="59.0673443209" lon="30.0013876799"><ele>80.61</ele><time>2026-04-25T10:48:07Z</time></trkpt><trkpt lat="59.0673195943" lon="30.0011980813"><ele>80.33</ele><time>2026-04-25T10:48:29Z</time></trkpt><trkpt lat="59.0673100390" lon="30.0011959858"><ele>80.55</ele><time>2026-04-25T10:48:49Z</time></trkpt><trkpt lat="59.0673220251" lon="30.0010945648"><ele>82.71</ele><time>2026-04-25T10:49:11Z</time></trkpt><trkpt lat="59.0672888327" lon="30.0010273419"><ele>86.94</ele><time>2026-04-25T10:49:30Z</time></trkpt><trkpt lat="59.0672712307" lon="30.0010157749"><ele>91.33</ele><time>2026-04-25T10:50:05Z</time></trkpt><trkpt lat="59.0672901738" lon="30.0010172836"><ele>89.70</ele><time>2026-04-25T10:50:29Z</time></trkpt><trkpt lat="59.0672798641" lon="30.0009250827"><ele>88.87</ele><time>2026-04-25T10:50:56Z</time></trkpt><trkpt lat="59.0673139784" lon="30.0007930677"><ele>88.86</ele><time>2026-04-25T10:51:13Z</time></trkpt><trkpt lat="59.0673376154" lon="30.0006685965"><ele>88.61</ele><time>2026-04-25T10:51:33Z</time></trkpt><trkpt lat="59.0673854761" lon="30.0004886370"><ele>87.77</ele><time>2026-04-25T10:51:47Z</time></trkpt><trkpt lat="59.0673500206" lon="30.0002194103"><ele>85.40</ele><time>2026-04-25T10:52:07Z</time></trkpt><trkpt lat="59.0672992263" lon="30.0000091083"><ele>85.87</ele><time>2026-04-25T10:52:27Z</time></trkpt><trkpt lat="59.0672574006" lon="29.9998186715"><ele>85.87</ele><time>2026-04-25T10:52:48Z</time></trkpt><trkpt lat="59.0672122221" lon="29.9996416457"><ele>85.63</ele><time>2026-04-25T10:53:05Z</time></trkpt><trkpt lat="59.0671760123" lon="29.9994009174"><ele>85.87</ele><time>2026-04-25T10:53:26Z</time></trkpt><trkpt lat="59.0671397187" lon="29.9992039427"><ele>86.01</ele><time>2026-04-25T10:53:50Z</time></trkpt><trkpt lat="59.0670941211" lon="29.9992613588"><ele>86.45</ele><time>2026-04-25T10:54:14Z</time></trkpt><trkpt lat="59.0670845658" lon="29.9992309324"><ele>88.33</ele><time>2026-04-25T10:54:42Z</time></trkpt><trkpt lat="59.0671000723" lon="29.9990657251"><ele>87.70</ele><time>2026-04-25T10:55:03Z</time></trkpt><trkpt lat="59.0670969710" lon="29.9990614504"><ele>87.67</ele><time>2026-04-25T10:55:04Z</time></trkpt><trkpt lat="59.0670581628" lon="29.9989098217"><ele>87.09</ele><time>2026-04-25T10:55:13Z</time></trkpt><trkpt lat="59.0670181811" lon="29.9986599572"><ele>86.30</ele><time>2026-04-25T10:55:32Z</time></trkpt><trkpt lat="59.0669492818" lon="29.9983802531"><ele>85.80</ele><time>2026-04-25T10:55:59Z</time></trkpt><trkpt lat="59.0669488627" lon="29.9982114416"><ele>84.44</ele><time>2026-04-25T10:56:27Z</time></trkpt><trkpt lat="59.0669854917" lon="29.9981029797"><ele>83.25</ele><time>2026-04-25T10:56:48Z</time></trkpt><trkpt lat="59.0669760201" lon="29.9980427139"><ele>82.31</ele><time>2026-04-25T10:57:01Z</time></trkpt><trkpt lat="59.0669600945" lon="29.9978847150"><ele>82.98</ele><time>2026-04-25T10:57:24Z</time></trkpt><trkpt lat="59.0669647884" lon="29.9978372734"><ele>82.20</ele><time>2026-04-25T10:57:49Z</time></trkpt><trkpt lat="59.0670136549" lon="29.9977381993"><ele>82.20</ele><time>2026-04-25T10:58:12Z</time></trkpt><trkpt lat="59.0670663770" lon="29.9977094494"><ele>81.32</ele><time>2026-04-25T10:58:38Z</time></trkpt><trkpt lat="59.0670729149" lon="29.9976367783"><ele>80.51</ele><time>2026-04-25T10:59:00Z</time></trkpt><trkpt lat="59.0670977253" lon="29.9976022448"><ele>81.91</ele><time>2026-04-25T10:59:22Z</time></trkpt><trkpt lat="59.0670788661" lon="29.9975304119"><ele>82.63</ele><time>2026-04-25T10:59:51Z</time></trkpt><trkpt lat="59.0670746751" lon="29.9976391252"><ele>82.13</ele><time>2026-04-25T11:00:23Z</time></trkpt><trkpt lat="59.0670755133" lon="29.9975679629"><ele>80.62</ele><time>2026-04-25T11:00:54Z</time></trkpt><trkpt lat="59.0670502838" lon="29.9975657836"><ele>79.66</ele><time>2026-04-25T11:01:22Z</time></trkpt><trkpt lat="59.0671048500" lon="29.9975339323"><ele>78.49</ele><time>2026-04-25T11:01:43Z</time></trkpt><trkpt lat="59.0671232902" lon="29.9974082038"><ele>77.98</ele><time>2026-04-25T11:02:14Z</time></trkpt><trkpt lat="59.0671170875" lon="29.9973579962"><ele>77.65</ele><time>2026-04-25T11:02:36Z</time></trkpt><trkpt lat="59.0670695622" lon="29.9973804597"><ele>77.99</ele><time>2026-04-25T11:03:01Z</time></trkpt><trkpt lat="59.0670656227" lon="29.9973131530"><ele>78.38</ele><time>2026-04-25T11:03:21Z</time></trkpt><trkpt lat="59.0670376271" lon="29.9972049426"><ele>78.92</ele><time>2026-04-25T11:03:47Z</time></trkpt><trkpt lat="59.0670104697" lon="29.9971278291"><ele>78.62</ele><time>2026-04-25T11:04:09Z</time></trkpt><trkpt lat="59.0669806302" lon="29.9969751947"><ele>78.26</ele><time>2026-04-25T11:04:35Z</time></trkpt><trkpt lat="59.0669495333" lon="29.9968867656"><ele>77.85</ele><time>2026-04-25T11:04:59Z</time></trkpt><trkpt lat="59.0669699013" lon="29.9967455305"><ele>77.22</ele><time>2026-04-25T11:05:24Z</time></trkpt><trkpt lat="59.0669548977" lon="29.9966455344"><ele>76.76</ele><time>2026-04-25T11:05:43Z</time></trkpt><trkpt lat="59.0669434983" lon="29.9964779802"><ele>77.19</ele><time>2026-04-25T11:06:09Z</time></trkpt><trkpt lat="59.0669433307" lon="29.9964315444"><ele>77.21</ele><time>2026-04-25T11:06:34Z</time></trkpt><trkpt lat="59.0669683088" lon="29.9963254295"><ele>77.40</ele><time>2026-04-25T11:06:55Z</time></trkpt><trkpt lat="59.0669703204" lon="29.9962747190"><ele>77.36</ele><time>2026-04-25T11:07:18Z</time></trkpt><trkpt lat="59.0669673868" lon="29.9961561151"><ele>77.18</ele><time>2026-04-25T11:07:40Z</time></trkpt><trkpt lat="59.0669461805" lon="29.9960858747"><ele>77.71</ele><time>2026-04-25T11:08:00Z</time></trkpt><trkpt lat="59.0669278242" lon="29.9960181490"><ele>78.71</ele><time>2026-04-25T11:08:21Z</time></trkpt><trkpt lat="59.0668739285" lon="29.9960175622"><ele>79.45</ele><time>2026-04-25T11:08:43Z</time></trkpt><trkpt lat="59.0668242238" lon="29.9959706236"><ele>79.35</ele><time>2026-04-25T11:09:05Z</time></trkpt><trkpt lat="59.0667929593" lon="29.9958634190"><ele>80.12</ele><time>2026-04-25T11:09:30Z</time></trkpt><trkpt lat="59.0667465236" lon="29.9958740640"><ele>80.59</ele><time>2026-04-25T11:10:01Z</time></trkpt><trkpt lat="59.0667095594" lon="29.9958566297"><ele>81.66</ele><time>2026-04-25T11:10:31Z</time></trkpt><trkpt lat="59.0667248145" lon="29.9958835356"><ele>80.47</ele><time>2026-04-25T11:11:03Z</time></trkpt><trkpt lat="59.0667253174" lon="29.9958513491"><ele>81.81</ele><time>2026-04-25T11:11:09Z</time></trkpt><trkpt lat="59.0667057876" lon="29.9958069250"><ele>81.68</ele><time>2026-04-25T11:11:41Z</time></trkpt><trkpt lat="59.0667341184" lon="29.9957870599"><ele>81.11</ele><time>2026-04-25T11:12:12Z</time></trkpt><trkpt lat="59.0667542350" lon="29.9957421329"><ele>79.13</ele><time>2026-04-25T11:12:40Z</time></trkpt><trkpt lat="59.0667646285" lon="29.9957436416"><ele>76.69</ele><time>2026-04-25T11:13:10Z</time></trkpt><trkpt lat="59.0667713340" lon="29.9958336633"><ele>75.54</ele><time>2026-04-25T11:13:37Z</time></trkpt><trkpt lat="59.0667376388" lon="29.9957573880"><ele>75.76</ele><time>2026-04-25T11:14:02Z</time></trkpt><trkpt lat="59.0667598508" lon="29.9956501834"><ele>75.77</ele><time>2026-04-25T11:14:25Z</time></trkpt><trkpt lat="59.0667270776" lon="29.9956306536"><ele>76.04</ele><time>2026-04-25T11:14:49Z</time></trkpt><trkpt lat="59.0667371359" lon="29.9955778476"><ele>75.84</ele><time>2026-04-25T11:15:11Z</time></trkpt><trkpt lat="59.0667542350" lon="29.9954913463"><ele>76.03</ele><time>2026-04-25T11:15:37Z</time></trkpt><trkpt lat="59.0667365491" lon="29.9953356944"><ele>75.78</ele><time>2026-04-25T11:15:59Z</time></trkpt><trkpt lat="59.0667412430" lon="29.9952409789"><ele>76.12</ele><time>2026-04-25T11:16:20Z</time></trkpt><trkpt lat="59.0667552408" lon="29.9950875901"><ele>76.39</ele><time>2026-04-25T11:16:42Z</time></trkpt><trkpt lat="59.0667331964" lon="29.9950374663"><ele>76.24</ele><time>2026-04-25T11:17:01Z</time></trkpt><trkpt lat="59.0666986629" lon="29.9949637894"><ele>76.44</ele><time>2026-04-25T11:17:26Z</time></trkpt><trkpt lat="59.0666610282" lon="29.9948280025"><ele>76.36</ele><time>2026-04-25T11:17:43Z</time></trkpt><trkpt lat="59.0666316077" lon="29.9947617017"><ele>76.27</ele><time>2026-04-25T11:18:03Z</time></trkpt><trkpt lat="59.0666305181" lon="29.9946845882"><ele>76.11</ele><time>2026-04-25T11:18:25Z</time></trkpt><trkpt lat="59.0666323621" lon="29.9945428502"><ele>74.85</ele><time>2026-04-25T11:18:47Z</time></trkpt><trkpt lat="59.0666201245" lon="29.9944316223"><ele>74.20</ele><time>2026-04-25T11:19:09Z</time></trkpt><trkpt lat="59.0666071326" lon="29.9943227414"><ele>73.70</ele><time>2026-04-25T11:19:37Z</time></trkpt><trkpt lat="59.0665652230" lon="29.9943071511"><ele>73.69</ele><time>2026-04-25T11:19:57Z</time></trkpt><trkpt lat="59.0665380657" lon="29.9941913970"><ele>73.41</ele><time>2026-04-25T11:20:20Z</time></trkpt><trkpt lat="59.0665646363" lon="29.9940744694"><ele>72.41</ele><time>2026-04-25T11:20:55Z</time></trkpt><trkpt lat="59.0665651392" lon="29.9940866232"><ele>71.85</ele><time>2026-04-25T11:20:57Z</time></trkpt><trkpt lat="59.0665216371" lon="29.9941593781"><ele>71.43</ele><time>2026-04-25T11:21:23Z</time></trkpt><trkpt lat="59.0665313601" lon="29.9941729568"><ele>71.29</ele><time>2026-04-25T11:21:55Z</time></trkpt><trkpt lat="59.0665704198" lon="29.9941261020"><ele>73.21</ele><time>2026-04-25T11:22:22Z</time></trkpt><trkpt lat="59.0665375628" lon="29.9941323884"><ele>72.87</ele><time>2026-04-25T11:22:48Z</time></trkpt><trkpt lat="59.0665482916" lon="29.9941406865"><ele>72.42</ele><time>2026-04-25T11:23:16Z</time></trkpt><trkpt lat="59.0664993413" lon="29.9940703623"><ele>72.55</ele><time>2026-04-25T11:23:35Z</time></trkpt><trkpt lat="59.0665099863" lon="29.9940121081"><ele>71.94</ele><time>2026-04-25T11:23:57Z</time></trkpt><trkpt lat="59.0664586890" lon="29.9938919954"><ele>72.36</ele><time>2026-04-25T11:24:22Z</time></trkpt><trkpt lat="59.0664523188" lon="29.9937982019"><ele>72.48</ele><time>2026-04-25T11:24:43Z</time></trkpt><trkpt lat="59.0664312802" lon="29.9936990440"><ele>71.44</ele><time>2026-04-25T11:25:08Z</time></trkpt><trkpt lat="59.0664185397" lon="29.9936021492"><ele>71.85</ele><time>2026-04-25T11:25:29Z</time></trkpt><trkpt lat="59.0664132591" lon="29.9933917634"><ele>72.60</ele><time>2026-04-25T11:25:53Z</time></trkpt><trkpt lat="59.0663919691" lon="29.9932673760"><ele>72.24</ele><time>2026-04-25T11:26:18Z</time></trkpt><trkpt lat="59.0664197132" lon="29.9931558128"><ele>73.12</ele><time>2026-04-25T11:26:44Z</time></trkpt><trkpt lat="59.0664089005" lon="29.9930268992"><ele>72.99</ele><time>2026-04-25T11:27:02Z</time></trkpt><trkpt lat="59.0663303621" lon="29.9928770307"><ele>71.70</ele><time>2026-04-25T11:27:26Z</time></trkpt><trkpt lat="59.0663277637" lon="29.9927150924"><ele>70.62</ele><time>2026-04-25T11:27:47Z</time></trkpt><trkpt lat="59.0663685836" lon="29.9925765395"><ele>71.35</ele><time>2026-04-25T11:28:04Z</time></trkpt><trkpt lat="59.0664130077" lon="29.9924829137"><ele>72.69</ele><time>2026-04-25T11:28:28Z</time></trkpt><trkpt lat="59.0663529932" lon="29.9924239889"><ele>79.65</ele><time>2026-04-25T11:29:02Z</time></trkpt><trkpt lat="59.0663622972" lon="29.9923817441"><ele>78.22</ele><time>2026-04-25T11:29:35Z</time></trkpt><trkpt lat="59.0663286019" lon="29.9922398385"><ele>77.94</ele><time>2026-04-25T11:29:58Z</time></trkpt><trkpt lat="59.0663506463" lon="29.9920955859"><ele>76.55</ele><time>2026-04-25T11:30:17Z</time></trkpt><trkpt lat="59.0663616266" lon="29.9918885529"><ele>74.88</ele><time>2026-04-25T11:30:39Z</time></trkpt><trkpt lat="59.0664097387" lon="29.9917532690"><ele>74.08</ele><time>2026-04-25T11:31:00Z</time></trkpt><trkpt lat="59.0664218087" lon="29.9916902371"><ele>73.84</ele><time>2026-04-25T11:31:26Z</time></trkpt><trkpt lat="59.0664431825" lon="29.9915437214"><ele>73.03</ele><time>2026-04-25T11:31:48Z</time></trkpt><trkpt lat="59.0664517321" lon="29.9913210142"><ele>72.11</ele><time>2026-04-25T11:32:06Z</time></trkpt><trkpt lat="59.0665219724" lon="29.9911124725"><ele>69.13</ele><time>2026-04-25T11:32:26Z</time></trkpt><trkpt lat="59.0665201284" lon="29.9910941161"><ele>68.87</ele><time>2026-04-25T11:32:27Z</time></trkpt><trkpt lat="59.0665286779" lon="29.9910224508"><ele>68.06</ele><time>2026-04-25T11:32:30Z</time></trkpt><trkpt lat="59.0664825775" lon="29.9909073673"><ele>66.66</ele><time>2026-04-25T11:32:52Z</time></trkpt><trkpt lat="59.0664419252" lon="29.9907681439"><ele>66.35</ele><time>2026-04-25T11:33:19Z</time></trkpt><trkpt lat="59.0664083138" lon="29.9906450976"><ele>68.78</ele><time>2026-04-25T11:33:39Z</time></trkpt><trkpt lat="59.0663685836" lon="29.9906340335"><ele>74.57</ele><time>2026-04-25T11:34:08Z</time></trkpt><trkpt lat="59.0664048772" lon="29.9905675650"><ele>75.30</ele><time>2026-04-25T11:34:32Z</time></trkpt><trkpt lat="59.0664155222" lon="29.9904374778"><ele>74.59</ele><time>2026-04-25T11:34:48Z</time></trkpt><trkpt lat="59.0664123371" lon="29.9902497232"><ele>73.05</ele><time>2026-04-25T11:35:03Z</time></trkpt><trkpt lat="59.0663740318" lon="29.9901946541"><ele>72.08</ele><time>2026-04-25T11:35:10Z</time></trkpt><trkpt lat="59.0662609600" lon="29.9899401795"><ele>68.90</ele><time>2026-04-25T11:35:31Z</time></trkpt><trkpt lat="59.0662706830" lon="29.9898818415"><ele>68.28</ele><time>2026-04-25T11:35:49Z</time></trkpt><trkpt lat="59.0662690066" lon="29.9898245092"><ele>69.05</ele><time>2026-04-25T11:36:12Z</time></trkpt><trkpt lat="59.0662596188" lon="29.9897996988"><ele>69.12</ele><time>2026-04-25T11:36:18Z</time></trkpt><trkpt lat="59.0661735367" lon="29.9897311348"><ele>69.42</ele><time>2026-04-25T11:36:37Z</time></trkpt><trkpt lat="59.0660830960" lon="29.9896651693"><ele>67.87</ele><time>2026-04-25T11:36:56Z</time></trkpt><trkpt lat="59.0660758875" lon="29.9896598887"><ele>67.81</ele><time>2026-04-25T11:36:57Z</time></trkpt><trkpt lat="59.0660211537" lon="29.9894759059"><ele>67.59</ele><time>2026-04-25T11:37:19Z</time></trkpt><trkpt lat="59.0660160407" lon="29.9894126225"><ele>67.46</ele><time>2026-04-25T11:37:31Z</time></trkpt><trkpt lat="59.0660056472" lon="29.9892323278"><ele>65.74</ele><time>2026-04-25T11:37:50Z</time></trkpt><trkpt lat="59.0660128556" lon="29.9890862312"><ele>66.88</ele><time>2026-04-25T11:38:10Z</time></trkpt><trkpt lat="59.0660593752" lon="29.9889716506"><ele>67.05</ele><time>2026-04-25T11:38:25Z</time></trkpt><trkpt lat="59.0661203116" lon="29.9889638554"><ele>66.62</ele><time>2026-04-25T11:38:45Z</time></trkpt><trkpt lat="59.0661913063" lon="29.9888750073"><ele>67.41</ele><time>2026-04-25T11:39:03Z</time></trkpt><trkpt lat="59.0661859419" lon="29.9887631927"><ele>65.67</ele><time>2026-04-25T11:39:25Z</time></trkpt><trkpt lat="59.0661048051" lon="29.9888082873"><ele>67.67</ele><time>2026-04-25T11:39:53Z</time></trkpt><trkpt lat="59.0661032964" lon="29.9887480214"><ele>67.18</ele><time>2026-04-25T11:40:21Z</time></trkpt><trkpt lat="59.0659890510" lon="29.9888333492"><ele>68.64</ele><time>2026-04-25T11:40:37Z</time></trkpt><trkpt lat="59.0659137815" lon="29.9889625981"><ele>68.37</ele><time>2026-04-25T11:40:57Z</time></trkpt><trkpt lat="59.0658462234" lon="29.9890486803"><ele>68.07</ele><time>2026-04-25T11:41:18Z</time></trkpt><trkpt lat="59.0658103488" lon="29.9890404660"><ele>68.92</ele><time>2026-04-25T11:41:42Z</time></trkpt><trkpt lat="59.0657982789" lon="29.9890273064"><ele>68.93</ele><time>2026-04-25T11:41:44Z</time></trkpt><trkpt lat="59.0656755678" lon="29.9891599081"><ele>70.58</ele><time>2026-04-25T11:42:03Z</time></trkpt><trkpt lat="59.0655925870" lon="29.9891573936"><ele>70.93</ele><time>2026-04-25T11:42:17Z</time></trkpt><trkpt lat="59.0655557066" lon="29.9891283922"><ele>72.43</ele><time>2026-04-25T11:42:40Z</time></trkpt><trkpt lat="59.0655557066" lon="29.9891088624"><ele>71.62</ele><time>2026-04-25T11:43:06Z</time></trkpt><trkpt lat="59.0655013081" lon="29.9891369417"><ele>70.94</ele><time>2026-04-25T11:43:29Z</time></trkpt><trkpt lat="59.0654461551" lon="29.9890874885"><ele>70.83</ele><time>2026-04-25T11:43:50Z</time></trkpt><trkpt lat="59.0653761663" lon="29.9890714791"><ele>71.33</ele><time>2026-04-25T11:44:09Z</time></trkpt><trkpt lat="59.0652568080" lon="29.9889934435"><ele>71.69</ele><time>2026-04-25T11:44:28Z</time></trkpt><trkpt lat="59.0651597455" lon="29.9888981413"><ele>70.41</ele><time>2026-04-25T11:44:48Z</time></trkpt><trkpt lat="59.0651261341" lon="29.9888222851"><ele>69.30</ele><time>2026-04-25T11:45:07Z</time></trkpt><trkpt lat="59.0650192648" lon="29.9887330178"><ele>67.68</ele><time>2026-04-25T11:45:25Z</time></trkpt><trkpt lat="59.0650078654" lon="29.9887420703"><ele>66.44</ele><time>2026-04-25T11:45:49Z</time></trkpt><trkpt lat="59.0649789479" lon="29.9887424055"><ele>65.95</ele><time>2026-04-25T11:46:21Z</time></trkpt><trkpt lat="59.0649771877" lon="29.9887729157"><ele>66.06</ele><time>2026-04-25T11:46:34Z</time></trkpt><trkpt lat="59.0649161674" lon="29.9887305871"><ele>67.91</ele><time>2026-04-25T11:47:02Z</time></trkpt><trkpt lat="59.0649012476" lon="29.9886839837"><ele>69.93</ele><time>2026-04-25T11:47:24Z</time></trkpt><trkpt lat="59.0649361163" lon="29.9887807108"><ele>69.82</ele><time>2026-04-25T11:47:48Z</time></trkpt><trkpt lat="59.0649987292" lon="29.9888138194"><ele>70.32</ele><time>2026-04-25T11:48:15Z</time></trkpt><trkpt lat="59.0649784449" lon="29.9888468441"><ele>69.35</ele><time>2026-04-25T11:48:38Z</time></trkpt><trkpt lat="59.0649959631" lon="29.9888386298"><ele>69.12</ele><time>2026-04-25T11:49:04Z</time></trkpt><trkpt lat="59.0649788640" lon="29.9890933558"><ele>68.45</ele><time>2026-04-25T11:49:24Z</time></trkpt><trkpt lat="59.0649591666" lon="29.9891338404"><ele>67.94</ele><time>2026-04-25T11:49:34Z</time></trkpt><trkpt lat="59.0649000742" lon="29.9893505964"><ele>67.79</ele><time>2026-04-25T11:49:53Z</time></trkpt><trkpt lat="59.0649198554" lon="29.9895895645"><ele>67.01</ele><time>2026-04-25T11:50:11Z</time></trkpt><trkpt lat="59.0649237111" lon="29.9898013752"><ele>66.89</ele><time>2026-04-25T11:50:25Z</time></trkpt><trkpt lat="59.0649622679" lon="29.9900453724"><ele>66.42</ele><time>2026-04-25T11:50:43Z</time></trkpt><trkpt lat="59.0649861563" lon="29.9903612025"><ele>67.43</ele><time>2026-04-25T11:51:03Z</time></trkpt><trkpt lat="59.0650537983" lon="29.9905950576"><ele>68.92</ele><time>2026-04-25T11:51:22Z</time></trkpt><trkpt lat="59.0651545487" lon="29.9906223826"><ele>67.34</ele><time>2026-04-25T11:51:38Z</time></trkpt><trkpt lat="59.0651491005" lon="29.9906999152"><ele>67.96</ele><time>2026-04-25T11:52:01Z</time></trkpt><trkpt lat="59.0651920997" lon="29.9906554073"><ele>68.63</ele><time>2026-04-25T11:52:29Z</time></trkpt><trkpt lat="59.0652705543" lon="29.9908239674"><ele>69.27</ele><time>2026-04-25T11:52:50Z</time></trkpt><trkpt lat="59.0652727336" lon="29.9909040146"><ele>69.62</ele><time>2026-04-25T11:52:59Z</time></trkpt><trkpt lat="59.0652392898" lon="29.9910417292"><ele>69.83</ele><time>2026-04-25T11:53:22Z</time></trkpt><trkpt lat="59.0652466659" lon="29.9912003987"><ele>69.74</ele><time>2026-04-25T11:53:37Z</time></trkpt><trkpt lat="59.0652426425" lon="29.9914616626"><ele>70.28</ele><time>2026-04-25T11:53:56Z</time></trkpt><trkpt lat="59.0652299020" lon="29.9915303942"><ele>71.68</ele><time>2026-04-25T11:54:20Z</time></trkpt><trkpt lat="59.0652046725" lon="29.9915903248"><ele>72.43</ele><time>2026-04-25T11:54:47Z</time></trkpt><trkpt lat="59.0651667025" lon="29.9916404486"><ele>72.75</ele><time>2026-04-25T11:55:07Z</time></trkpt><trkpt lat="59.0651656967" lon="29.9917473178"><ele>72.16</ele><time>2026-04-25T11:55:27Z</time></trkpt><trkpt lat="59.0651587397" lon="29.9918466434"><ele>71.82</ele><time>2026-04-25T11:55:39Z</time></trkpt><trkpt lat="59.0651977994" lon="29.9919446278"><ele>71.96</ele><time>2026-04-25T11:56:00Z</time></trkpt><trkpt lat="59.0651940275" lon="29.9921009503"><ele>72.36</ele><time>2026-04-25T11:56:24Z</time></trkpt><trkpt lat="59.0652381163" lon="29.9921587016"><ele>72.99</ele><time>2026-04-25T11:56:45Z</time></trkpt><trkpt lat="59.0652725659" lon="29.9921998568"><ele>73.62</ele><time>2026-04-25T11:57:07Z</time></trkpt><trkpt lat="59.0652356017" lon="29.9923435226"><ele>76.43</ele><time>2026-04-25T11:57:28Z</time></trkpt><trkpt lat="59.0652268846" lon="29.9924528226"><ele>77.19</ele><time>2026-04-25T11:57:55Z</time></trkpt><trkpt lat="59.0652485099" lon="29.9925382342"><ele>77.87</ele><time>2026-04-25T11:58:19Z</time></trkpt><trkpt lat="59.0652363561" lon="29.9926506355"><ele>78.12</ele><time>2026-04-25T11:58:42Z</time></trkpt><trkpt lat="59.0652415529" lon="29.9926979095"><ele>78.81</ele><time>2026-04-25T11:59:05Z</time></trkpt><trkpt lat="59.0652905032" lon="29.9927539006"><ele>78.83</ele><time>2026-04-25T11:59:26Z</time></trkpt><trkpt lat="59.0653057583" lon="29.9927766155"><ele>78.54</ele><time>2026-04-25T11:59:49Z</time></trkpt><trkpt lat="59.0652920958" lon="29.9929043557"><ele>78.93</ele><time>2026-04-25T12:00:17Z</time></trkpt><trkpt lat="59.0653410461" lon="29.9930238817"><ele>79.31</ele><time>2026-04-25T12:00:43Z</time></trkpt><trkpt lat="59.0653605759" lon="29.9930879194"><ele>79.49</ele><time>2026-04-25T12:01:04Z</time></trkpt><trkpt lat="59.0653166547" lon="29.9931707326"><ele>78.02</ele><time>2026-04-25T12:01:26Z</time></trkpt><trkpt lat="59.0653177444" lon="29.9931939505"><ele>77.95</ele><time>2026-04-25T12:01:28Z</time></trkpt><trkpt lat="59.0653497633" lon="29.9932703935"><ele>77.84</ele><time>2026-04-25T12:01:55Z</time></trkpt><trkpt lat="59.0653884877" lon="29.9933152366"><ele>78.02</ele><time>2026-04-25T12:02:18Z</time></trkpt><trkpt lat="59.0654317383" lon="29.9933819566"><ele>77.29</ele><time>2026-04-25T12:02:40Z</time></trkpt><trkpt lat="59.0654250327" lon="29.9934140593"><ele>76.59</ele><time>2026-04-25T12:03:04Z</time></trkpt><trkpt lat="59.0653865598" lon="29.9934677873"><ele>76.83</ele><time>2026-04-25T12:03:27Z</time></trkpt><trkpt lat="59.0653723106" lon="29.9935407937"><ele>77.13</ele><time>2026-04-25T12:03:50Z</time></trkpt><trkpt lat="59.0654344205" lon="29.9935899954"><ele>77.54</ele><time>2026-04-25T12:04:18Z</time></trkpt><trkpt lat="59.0654610749" lon="29.9935845472"><ele>77.46</ele><time>2026-04-25T12:04:45Z</time></trkpt><trkpt lat="59.0654353425" lon="29.9937205855"><ele>77.09</ele><time>2026-04-25T12:05:07Z</time></trkpt><trkpt lat="59.0653977077" lon="29.9937849585"><ele>76.88</ele><time>2026-04-25T12:05:34Z</time></trkpt><trkpt lat="59.0653773397" lon="29.9938779976"><ele>76.48</ele><time>2026-04-25T12:06:01Z</time></trkpt><trkpt lat="59.0653308202" lon="29.9939213321"><ele>75.04</ele><time>2026-04-25T12:06:25Z</time></trkpt><trkpt lat="59.0653418005" lon="29.9939841963"><ele>74.29</ele><time>2026-04-25T12:06:50Z</time></trkpt><trkpt lat="59.0653628390" lon="29.9940620642"><ele>74.33</ele><time>2026-04-25T12:07:16Z</time></trkpt><trkpt lat="59.0653358493" lon="29.9942210689"><ele>78.33</ele><time>2026-04-25T12:07:42Z</time></trkpt><trkpt lat="59.0653112903" lon="29.9942778982"><ele>79.52</ele><time>2026-04-25T12:08:12Z</time></trkpt><trkpt lat="59.0653308202" lon="29.9943146948"><ele>79.25</ele><time>2026-04-25T12:08:40Z</time></trkpt><trkpt lat="59.0653744899" lon="29.9941987731"><ele>80.61</ele><time>2026-04-25T12:09:02Z</time></trkpt><trkpt lat="59.0653437283" lon="29.9942952488"><ele>82.07</ele><time>2026-04-25T12:09:30Z</time></trkpt><trkpt lat="59.0653801057" lon="29.9942989368"><ele>81.47</ele><time>2026-04-25T12:09:59Z</time></trkpt><trkpt lat="59.0653790161" lon="29.9942860287"><ele>80.99</ele><time>2026-04-25T12:10:25Z</time></trkpt><trkpt lat="59.0654016472" lon="29.9944202229"><ele>81.81</ele><time>2026-04-25T12:10:48Z</time></trkpt><trkpt lat="59.0654273797" lon="29.9945055507"><ele>81.78</ele><time>2026-04-25T12:11:11Z</time></trkpt><trkpt lat="59.0654143039" lon="29.9945918005"><ele>81.71</ele><time>2026-04-25T12:11:34Z</time></trkpt><trkpt lat="59.0653899964" lon="29.9946803134"><ele>81.39</ele><time>2026-04-25T12:11:58Z</time></trkpt><trkpt lat="59.0653789323" lon="29.9947830755"><ele>81.32</ele><time>2026-04-25T12:12:24Z</time></trkpt><trkpt lat="59.0653482545" lon="29.9948789645"><ele>80.97</ele><time>2026-04-25T12:12:46Z</time></trkpt><trkpt lat="59.0653149784" lon="29.9950576667"><ele>79.83</ele><time>2026-04-25T12:13:08Z</time></trkpt><trkpt lat="59.0653239470" lon="29.9951093830"><ele>79.05</ele><time>2026-04-25T12:13:13Z</time></trkpt><trkpt lat="59.0653495118" lon="29.9952389672"><ele>78.62</ele><time>2026-04-25T12:13:36Z</time></trkpt><trkpt lat="59.0653559659" lon="29.9953010771"><ele>78.90</ele><time>2026-04-25T12:14:00Z</time></trkpt><trkpt lat="59.0653323289" lon="29.9953570683"><ele>78.91</ele><time>2026-04-25T12:14:03Z</time></trkpt><trkpt lat="59.0653016511" lon="29.9954627641"><ele>78.55</ele><time>2026-04-25T12:14:24Z</time></trkpt><trkpt lat="59.0652906708" lon="29.9955518637"><ele>79.60</ele><time>2026-04-25T12:14:50Z</time></trkpt><trkpt lat="59.0652813669" lon="29.9956091121"><ele>79.57</ele><time>2026-04-25T12:15:17Z</time></trkpt><trkpt lat="59.0653052554" lon="29.9957096949"><ele>78.94</ele><time>2026-04-25T12:15:39Z</time></trkpt><trkpt lat="59.0653568879" lon="29.9957151432"><ele>78.78</ele><time>2026-04-25T12:15:59Z</time></trkpt><trkpt lat="59.0654152259" lon="29.9957395345"><ele>79.43</ele><time>2026-04-25T12:16:19Z</time></trkpt><trkpt lat="59.0654505976" lon="29.9958090205"><ele>80.09</ele><time>2026-04-25T12:16:43Z</time></trkpt><trkpt lat="59.0656059980" lon="29.9960147962"><ele>68.44</ele><time>2026-04-25T12:19:01Z</time></trkpt><trkpt lat="59.0653982107" lon="29.9960121140"><ele>92.20</ele><time>2026-04-25T12:19:24Z</time></trkpt><trkpt lat="59.0654393658" lon="29.9959913269"><ele>83.23</ele><time>2026-04-25T12:19:53Z</time></trkpt><trkpt lat="59.0654288884" lon="29.9960396904"><ele>80.98</ele><time>2026-04-25T12:20:16Z</time></trkpt><trkpt lat="59.0654461551" lon="29.9960886408"><ele>78.97</ele><time>2026-04-25T12:20:40Z</time></trkpt><trkpt lat="59.0655023977" lon="29.9961374234"><ele>76.19</ele><time>2026-04-25T12:21:04Z</time></trkpt><trkpt lat="59.0655440558" lon="29.9961754773"><ele>73.13</ele><time>2026-04-25T12:21:30Z</time></trkpt><trkpt lat="59.0655469894" lon="29.9961088412"><ele>71.55</ele><time>2026-04-25T12:21:52Z</time></trkpt><trkpt lat="59.0655604843" lon="29.9960242677"><ele>71.03</ele><time>2026-04-25T12:22:16Z</time></trkpt><trkpt lat="59.0655748174" lon="29.9959567934"><ele>70.59</ele><time>2026-04-25T12:22:43Z</time></trkpt><trkpt lat="59.0656380169" lon="29.9959170632"><ele>71.66</ele><time>2026-04-25T12:23:04Z</time></trkpt><trkpt lat="59.0656785853" lon="29.9958873913"><ele>74.41</ele><time>2026-04-25T12:23:28Z</time></trkpt><trkpt lat="59.0657016356" lon="29.9958875589"><ele>74.63</ele><time>2026-04-25T12:23:53Z</time></trkpt><trkpt lat="59.0657436289" lon="29.9958467390"><ele>74.23</ele><time>2026-04-25T12:24:17Z</time></trkpt><trkpt lat="59.0657463949" lon="29.9959996250"><ele>74.10</ele><time>2026-04-25T12:24:40Z</time></trkpt><trkpt lat="59.0657791682" lon="29.9960980285"><ele>73.50</ele><time>2026-04-25T12:25:04Z</time></trkpt><trkpt lat="59.0658100136" lon="29.9961222522"><ele>73.12</ele><time>2026-04-25T12:25:25Z</time></trkpt><trkpt lat="59.0658895578" lon="29.9961238448"><ele>73.13</ele><time>2026-04-25T12:25:51Z</time></trkpt><trkpt lat="59.0659331437" lon="29.9961270299"><ele>73.02</ele><time>2026-04-25T12:26:16Z</time></trkpt><trkpt lat="59.0659318864" lon="29.9961801711"><ele>73.43</ele><time>2026-04-25T12:26:42Z</time></trkpt><trkpt lat="59.0660053119" lon="29.9962774850"><ele>73.88</ele><time>2026-04-25T12:27:06Z</time></trkpt><trkpt lat="59.0660028812" lon="29.9963040557"><ele>73.92</ele><time>2026-04-25T12:27:10Z</time></trkpt><trkpt lat="59.0660227463" lon="29.9963623937"><ele>72.07</ele><time>2026-04-25T12:27:41Z</time></trkpt><trkpt lat="59.0659965109" lon="29.9963323865"><ele>72.43</ele><time>2026-04-25T12:28:13Z</time></trkpt><trkpt lat="59.0660105925" lon="29.9963494018"><ele>76.07</ele><time>2026-04-25T12:28:42Z</time></trkpt><trkpt lat="59.0659949183" lon="29.9963310454"><ele>76.95</ele><time>2026-04-25T12:29:11Z</time></trkpt><trkpt lat="59.0659877099" lon="29.9964226596"><ele>75.48</ele><time>2026-04-25T12:29:40Z</time></trkpt><trkpt lat="59.0660178848" lon="29.9963507429"><ele>72.33</ele><time>2026-04-25T12:30:08Z</time></trkpt><trkpt lat="59.0660562739" lon="29.9963385891"><ele>68.00</ele><time>2026-04-25T12:30:40Z</time></trkpt><trkpt lat="59.0660034679" lon="29.9963838514"><ele>67.96</ele><time>2026-04-25T12:31:02Z</time></trkpt><trkpt lat="59.0659871232" lon="29.9964673351"><ele>68.38</ele><time>2026-04-25T12:31:21Z</time></trkpt><trkpt lat="59.0660043899" lon="29.9964887928"><ele>71.09</ele><time>2026-04-25T12:31:43Z</time></trkpt><trkpt lat="59.0660467185" lon="29.9967396632"><ele>76.17</ele><time>2026-04-25T12:32:18Z</time></trkpt><trkpt lat="59.0659930743" lon="29.9966596998"><ele>74.58</ele><time>2026-04-25T12:32:44Z</time></trkpt><trkpt lat="59.0659977682" lon="29.9966521561"><ele>74.10</ele><time>2026-04-25T12:32:47Z</time></trkpt><trkpt lat="59.0659657493" lon="29.9967084825"><ele>72.93</ele><time>2026-04-25T12:33:04Z</time></trkpt><trkpt lat="59.0659345686" lon="29.9967969116"><ele>72.60</ele><time>2026-04-25T12:33:32Z</time></trkpt><trkpt lat="59.0660060663" lon="29.9967872724"><ele>72.15</ele><time>2026-04-25T12:33:56Z</time></trkpt><trkpt lat="59.0660063177" lon="29.9968194589"><ele>75.50</ele><time>2026-04-25T12:34:21Z</time></trkpt><trkpt lat="59.0660615545" lon="29.9968591891"><ele>74.85</ele><time>2026-04-25T12:34:46Z</time></trkpt><trkpt lat="59.0660533402" lon="29.9969137553"><ele>74.68</ele><time>2026-04-25T12:35:07Z</time></trkpt><trkpt lat="59.0660564415" lon="29.9969790503"><ele>73.90</ele><time>2026-04-25T12:35:29Z</time></trkpt><trkpt lat="59.0660680085" lon="29.9970935471"><ele>73.11</ele><time>2026-04-25T12:35:53Z</time></trkpt><trkpt lat="59.0661054756" lon="29.9972013384"><ele>72.43</ele><time>2026-04-25T12:36:14Z</time></trkpt><trkpt lat="59.0661128517" lon="29.9972942937"><ele>71.78</ele><time>2026-04-25T12:36:34Z</time></trkpt><trkpt lat="59.0660992730" lon="29.9973792862"><ele>73.84</ele><time>2026-04-25T12:36:56Z</time></trkpt><trkpt lat="59.0660571121" lon="29.9974694755"><ele>75.51</ele><time>2026-04-25T12:37:24Z</time></trkpt><trkpt lat="59.0660296194" lon="29.9975080322"><ele>74.59</ele><time>2026-04-25T12:37:52Z</time></trkpt><trkpt lat="59.0659838542" lon="29.9973932840"><ele>72.68</ele><time>2026-04-25T12:38:21Z</time></trkpt><trkpt lat="59.0659917332" lon="29.9973830581"><ele>72.90</ele><time>2026-04-25T12:38:52Z</time></trkpt><trkpt lat="59.0659923200" lon="29.9974753428"><ele>73.40</ele><time>2026-04-25T12:39:24Z</time></trkpt><trkpt lat="59.0660133585" lon="29.9974632729"><ele>74.43</ele><time>2026-04-25T12:39:51Z</time></trkpt><trkpt lat="59.0660328884" lon="29.9974616803"><ele>74.13</ele><time>2026-04-25T12:40:14Z</time></trkpt><trkpt lat="59.0660601296" lon="29.9974878319"><ele>73.98</ele><time>2026-04-25T12:40:42Z</time></trkpt><trkpt lat="59.0660779830" lon="29.9975583237"><ele>73.60</ele><time>2026-04-25T12:41:07Z</time></trkpt><trkpt lat="59.0660442878" lon="29.9976321682"><ele>73.47</ele><time>2026-04-25T12:41:34Z</time></trkpt><trkpt lat="59.0660836827" lon="29.9975988083"><ele>73.90</ele><time>2026-04-25T12:42:04Z</time></trkpt><trkpt lat="59.0660751332" lon="29.9976231996"><ele>75.82</ele><time>2026-04-25T12:42:37Z</time></trkpt><trkpt lat="59.0660925675" lon="29.9976589903"><ele>76.00</ele><time>2026-04-25T12:43:07Z</time></trkpt><trkpt lat="59.0660588723" lon="29.9976570625"><ele>76.40</ele><time>2026-04-25T12:43:35Z</time></trkpt><trkpt lat="59.0660651587" lon="29.9976470880"><ele>75.26</ele><time>2026-04-25T12:44:03Z</time></trkpt><trkpt lat="59.0660693496" lon="29.9976680428"><ele>74.50</ele><time>2026-04-25T12:44:34Z</time></trkpt><trkpt lat="59.0660601296" lon="29.9976905063"><ele>73.34</ele><time>2026-04-25T12:45:06Z</time></trkpt><trkpt lat="59.0660634823" lon="29.9976988044"><ele>72.36</ele><time>2026-04-25T12:45:34Z</time></trkpt><trkpt lat="59.0660895500" lon="29.9977479223"><ele>72.55</ele><time>2026-04-25T12:46:02Z</time></trkpt><trkpt lat="59.0660992730" lon="29.9977154005"><ele>73.32</ele><time>2026-04-25T12:46:27Z</time></trkpt><trkpt lat="59.0661310405" lon="29.9975704774"><ele>73.27</ele><time>2026-04-25T12:47:00Z</time></trkpt><trkpt lat="59.0661047213" lon="29.9976200145"><ele>73.91</ele><time>2026-04-25T12:47:30Z</time></trkpt><trkpt lat="59.0660953335" lon="29.9976002332"><ele>74.12</ele><time>2026-04-25T12:48:01Z</time></trkpt><trkpt lat="59.0660743788" lon="29.9976325873"><ele>72.68</ele><time>2026-04-25T12:48:25Z</time></trkpt><trkpt lat="59.0660815034" lon="29.9976447411"><ele>72.73</ele><time>2026-04-25T12:48:53Z</time></trkpt><trkpt lat="59.0661067329" lon="29.9977899995"><ele>71.90</ele><time>2026-04-25T12:49:14Z</time></trkpt><trkpt lat="59.0660748817" lon="29.9978430569"><ele>71.35</ele><time>2026-04-25T12:49:37Z</time></trkpt><trkpt lat="59.0660423599" lon="29.9978884868"><ele>70.54</ele><time>2026-04-25T12:49:56Z</time></trkpt><trkpt lat="59.0660302900" lon="29.9979333300"><ele>69.82</ele><time>2026-04-25T12:50:20Z</time></trkpt><trkpt lat="59.0659693535" lon="29.9980327394"><ele>69.72</ele><time>2026-04-25T12:50:45Z</time></trkpt><trkpt lat="59.0659808367" lon="29.9981305562"><ele>72.31</ele><time>2026-04-25T12:51:22Z</time></trkpt><trkpt lat="59.0660075750" lon="29.9981856253"><ele>71.72</ele><time>2026-04-25T12:51:44Z</time></trkpt><trkpt lat="59.0660655778" lon="29.9982789997"><ele>70.42</ele><time>2026-04-25T12:52:09Z</time></trkpt><trkpt lat="59.0661053080" lon="29.9983805045"><ele>70.10</ele><time>2026-04-25T12:52:33Z</time></trkpt><trkpt lat="59.0661428589" lon="29.9983850308"><ele>69.98</ele><time>2026-04-25T12:52:55Z</time></trkpt><trkpt lat="59.0661571920" lon="29.9984034710"><ele>70.74</ele><time>2026-04-25T12:53:17Z</time></trkpt><trkpt lat="59.0661691781" lon="29.9984515831"><ele>70.34</ele><time>2026-04-25T12:53:39Z</time></trkpt><trkpt lat="59.0661871154" lon="29.9984662514"><ele>68.99</ele><time>2026-04-25T12:54:03Z</time></trkpt><trkpt lat="59.0662395861" lon="29.9985105079"><ele>68.67</ele><time>2026-04-25T12:54:25Z</time></trkpt><trkpt lat="59.0662216488" lon="29.9986250047"><ele>67.30</ele><time>2026-04-25T12:54:52Z</time></trkpt><trkpt lat="59.0662141889" lon="29.9986976758"><ele>67.66</ele><time>2026-04-25T12:55:17Z</time></trkpt><trkpt lat="59.0662817471" lon="29.9988016114"><ele>67.63</ele><time>2026-04-25T12:55:41Z</time></trkpt><trkpt lat="59.0663403366" lon="29.9989058822"><ele>67.96</ele><time>2026-04-25T12:56:03Z</time></trkpt><trkpt lat="59.0663451981" lon="29.9990199599"><ele>67.60</ele><time>2026-04-25T12:56:26Z</time></trkpt><trkpt lat="59.0663323738" lon="29.9990388192"><ele>67.74</ele><time>2026-04-25T12:56:28Z</time></trkpt><trkpt lat="59.0662838425" lon="29.9991547409"><ele>71.58</ele><time>2026-04-25T12:57:00Z</time></trkpt><trkpt lat="59.0663172025" lon="29.9991042819"><ele>75.58</ele><time>2026-04-25T12:57:30Z</time></trkpt><trkpt lat="59.0662990976" lon="29.9991596863"><ele>75.71</ele><time>2026-04-25T12:57:51Z</time></trkpt><trkpt lat="59.0662602056" lon="29.9992605206"><ele>74.69</ele><time>2026-04-25T12:58:10Z</time></trkpt><trkpt lat="59.0662226547" lon="29.9994171783"><ele>74.17</ele><time>2026-04-25T12:58:30Z</time></trkpt><trkpt lat="59.0662262589" lon="29.9996092916"><ele>72.90</ele><time>2026-04-25T12:58:56Z</time></trkpt><trkpt lat="59.0662040468" lon="29.9997474253"><ele>71.37</ele><time>2026-04-25T12:59:17Z</time></trkpt><trkpt lat="59.0661502350" lon="29.9998209346"><ele>70.72</ele><time>2026-04-25T12:59:43Z</time></trkpt><trkpt lat="59.0661480557" lon="29.9998845533"><ele>71.09</ele><time>2026-04-25T12:59:54Z</time></trkpt><trkpt lat="59.0661998559" lon="30.0001459010"><ele>70.29</ele><time>2026-04-25T13:00:19Z</time></trkpt><trkpt lat="59.0662448667" lon="30.0002623256"><ele>69.21</ele><time>2026-04-25T13:00:38Z</time></trkpt><trkpt lat="59.0662653185" lon="30.0002786703"><ele>68.77</ele><time>2026-04-25T13:00:47Z</time></trkpt><trkpt lat="59.0663247462" lon="30.0006399304"><ele>67.45</ele><time>2026-04-25T13:01:11Z</time></trkpt><trkpt lat="59.0663497243" lon="30.0008723605"><ele>67.32</ele><time>2026-04-25T13:01:32Z</time></trkpt><trkpt lat="59.0663369000" lon="30.0011881068"><ele>66.92</ele><time>2026-04-25T13:01:55Z</time></trkpt><trkpt lat="59.0663372353" lon="30.0015901029"><ele>65.46</ele><time>2026-04-25T13:02:16Z</time></trkpt><trkpt lat="59.0663031209" lon="30.0017505325"><ele>65.54</ele><time>2026-04-25T13:02:39Z</time></trkpt><trkpt lat="59.0662899613" lon="30.0018776022"><ele>65.52</ele><time>2026-04-25T13:03:05Z</time></trkpt><trkpt lat="59.0663273446" lon="30.0018791109"><ele>66.61</ele><time>2026-04-25T13:03:36Z</time></trkpt><trkpt lat="59.0663503110" lon="30.0020465814"><ele>66.22</ele><time>2026-04-25T13:03:57Z</time></trkpt><trkpt lat="59.0663539991" lon="30.0021934323"><ele>65.65</ele><time>2026-04-25T13:04:22Z</time></trkpt><trkpt lat="59.0663722716" lon="30.0022443943"><ele>65.86</ele><time>2026-04-25T13:04:28Z</time></trkpt><trkpt lat="59.0664509777" lon="30.0024239346"><ele>66.32</ele><time>2026-04-25T13:04:44Z</time></trkpt><trkpt lat="59.0664565098" lon="30.0025921594"><ele>64.49</ele><time>2026-04-25T13:05:06Z</time></trkpt><trkpt lat="59.0664199647" lon="30.0026339013"><ele>63.95</ele><time>2026-04-25T13:05:30Z</time></trkpt><trkpt lat="59.0664301068" lon="30.0025898963"><ele>64.36</ele><time>2026-04-25T13:05:55Z</time></trkpt><trkpt lat="59.0664286818" lon="30.0026267767"><ele>65.24</ele><time>2026-04-25T13:06:22Z</time></trkpt><trkpt lat="59.0664295200" lon="30.0026608072"><ele>65.16</ele><time>2026-04-25T13:06:47Z</time></trkpt><trkpt lat="59.0664015245" lon="30.0027190614"><ele>65.76</ele><time>2026-04-25T13:07:10Z</time></trkpt><trkpt lat="59.0664379857" lon="30.0027703587"><ele>65.48</ele><time>2026-04-25T13:07:31Z</time></trkpt><trkpt lat="59.0664472058" lon="30.0028172974"><ele>66.69</ele><time>2026-04-25T13:08:00Z</time></trkpt><trkpt lat="59.0663975012" lon="30.0028763060"><ele>67.20</ele><time>2026-04-25T13:08:28Z</time></trkpt><trkpt lat="59.0664047934" lon="30.0027520023"><ele>67.38</ele><time>2026-04-25T13:08:58Z</time></trkpt><trkpt lat="59.0664721001" lon="30.0027555227"><ele>66.72</ele><time>2026-04-25T13:09:31Z</time></trkpt><trkpt lat="59.0664160252" lon="30.0027007051"><ele>66.42</ele><time>2026-04-25T13:10:06Z</time></trkpt><trkpt lat="59.0664478764" lon="30.0027716998"><ele>67.25</ele><time>2026-04-25T13:10:41Z</time></trkpt><trkpt lat="59.0664541628" lon="30.0027919002"><ele>67.78</ele><time>2026-04-25T13:11:15Z</time></trkpt><trkpt lat="59.0664214734" lon="30.0028529204"><ele>67.27</ele><time>2026-04-25T13:11:46Z</time></trkpt><trkpt lat="59.0664192103" lon="30.0027075782"><ele>66.73</ele><time>2026-04-25T13:12:17Z</time></trkpt><trkpt lat="59.0663821623" lon="30.0029239990"><ele>67.10</ele><time>2026-04-25T13:12:44Z</time></trkpt><trkpt lat="59.0664011892" lon="30.0028203987"><ele>66.38</ele><time>2026-04-25T13:13:13Z</time></trkpt><trkpt lat="59.0664197132" lon="30.0027299579"><ele>66.61</ele><time>2026-04-25T13:13:43Z</time></trkpt><trkpt lat="59.0664424282" lon="30.0026476476"><ele>69.72</ele><time>2026-04-25T13:14:13Z</time></trkpt><trkpt lat="59.0664900374" lon="30.0027823448"><ele>68.99</ele><time>2026-04-25T13:14:39Z</time></trkpt><trkpt lat="59.0664097387" lon="30.0028482266"><ele>68.77</ele><time>2026-04-25T13:15:11Z</time></trkpt><trkpt lat="59.0663833357" lon="30.0027699396"><ele>69.62</ele><time>2026-04-25T13:15:39Z</time></trkpt><trkpt lat="59.0663848445" lon="30.0028141122"><ele>68.04</ele><time>2026-04-25T13:16:05Z</time></trkpt><trkpt lat="59.0664208867" lon="30.0027432851"><ele>68.49</ele><time>2026-04-25T13:16:31Z</time></trkpt><trkpt lat="59.0664185397" lon="30.0027159601"><ele>68.77</ele><time>2026-04-25T13:16:55Z</time></trkpt><trkpt lat="59.0663927235" lon="30.0027654972"><ele>68.61</ele><time>2026-04-25T13:17:23Z</time></trkpt><trkpt lat="59.0663409233" lon="30.0029312912"><ele>67.84</ele><time>2026-04-25T13:17:55Z</time></trkpt><trkpt lat="59.0663887840" lon="30.0027846918"><ele>67.62</ele><time>2026-04-25T13:18:22Z</time></trkpt><trkpt lat="59.0664130077" lon="30.0027534273"><ele>69.19</ele><time>2026-04-25T13:18:51Z</time></trkpt><trkpt lat="59.0664389916" lon="30.0027410220"><ele>71.51</ele><time>2026-04-25T13:19:21Z</time></trkpt><trkpt lat="59.0664491337" lon="30.0027053989"><ele>75.66</ele><time>2026-04-25T13:19:51Z</time></trkpt><trkpt lat="59.0665255766" lon="30.0027069077"><ele>82.08</ele><time>2026-04-25T13:20:23Z</time></trkpt><trkpt lat="59.0665570088" lon="30.0027210731"><ele>80.87</ele><time>2026-04-25T13:20:51Z</time></trkpt><trkpt lat="59.0666225553" lon="30.0026931614"><ele>80.40</ele><time>2026-04-25T13:21:08Z</time></trkpt><trkpt lat="59.0666781273" lon="30.0029009487"><ele>78.54</ele><time>2026-04-25T13:21:29Z</time></trkpt><trkpt lat="59.0667440090" lon="30.0030646473"><ele>77.68</ele><time>2026-04-25T13:21:47Z</time></trkpt><trkpt lat="59.0667693224" lon="30.0031084009"><ele>77.37</ele><time>2026-04-25T13:21:54Z</time></trkpt><trkpt lat="59.0667638741" lon="30.0033032801"><ele>76.55</ele><time>2026-04-25T13:22:16Z</time></trkpt><trkpt lat="59.0667094756" lon="30.0035440922"><ele>76.84</ele><time>2026-04-25T13:22:34Z</time></trkpt><trkpt lat="59.0666839108" lon="30.0037763547"><ele>75.86</ele><time>2026-04-25T13:22:52Z</time></trkpt><trkpt lat="59.0666799713" lon="30.0038334355"><ele>75.44</ele><time>2026-04-25T13:22:57Z</time></trkpt><trkpt lat="59.0666435938" lon="30.0040786900"><ele>73.71</ele><time>2026-04-25T13:23:17Z</time></trkpt><trkpt lat="59.0666310210" lon="30.0041699689"><ele>72.75</ele><time>2026-04-25T13:23:39Z</time></trkpt><trkpt lat="59.0666612796" lon="30.0042681210"><ele>72.85</ele><time>2026-04-25T13:24:07Z</time></trkpt><trkpt lat="59.0667140856" lon="30.0042552967"><ele>72.69</ele><time>2026-04-25T13:24:27Z</time></trkpt><trkpt lat="59.0666866768" lon="30.0044178218"><ele>72.81</ele><time>2026-04-25T13:24:49Z</time></trkpt><trkpt lat="59.0666265786" lon="30.0045367610"><ele>72.78</ele><time>2026-04-25T13:25:16Z</time></trkpt><trkpt lat="59.0666275006" lon="30.0045462325"><ele>72.76</ele><time>2026-04-25T13:25:17Z</time></trkpt><trkpt lat="59.0666726790" lon="30.0047802553"><ele>72.92</ele><time>2026-04-25T13:25:50Z</time></trkpt><trkpt lat="59.0666445997" lon="30.0047900621"><ele>73.23</ele><time>2026-04-25T13:26:05Z</time></trkpt><trkpt lat="59.0665807296" lon="30.0048946682"><ele>73.77</ele><time>2026-04-25T13:26:24Z</time></trkpt><trkpt lat="59.0665705036" lon="30.0050395075"><ele>73.52</ele><time>2026-04-25T13:26:43Z</time></trkpt><trkpt lat="59.0665505547" lon="30.0051472150"><ele>73.23</ele><time>2026-04-25T13:26:52Z</time></trkpt><trkpt lat="59.0664952341" lon="30.0053753704"><ele>72.83</ele><time>2026-04-25T13:27:08Z</time></trkpt><trkpt lat="59.0663960762" lon="30.0056176074"><ele>72.80</ele><time>2026-04-25T13:27:30Z</time></trkpt><trkpt lat="59.0663538314" lon="30.0058260653"><ele>71.53</ele><time>2026-04-25T13:27:53Z</time></trkpt><trkpt lat="59.0662573557" lon="30.0059909374"><ele>70.58</ele><time>2026-04-25T13:28:12Z</time></trkpt><trkpt lat="59.0661191382" lon="30.0061848108"><ele>69.84</ele><time>2026-04-25T13:28:31Z</time></trkpt><trkpt lat="59.0660728700" lon="30.0063248724"><ele>69.80</ele><time>2026-04-25T13:28:42Z</time></trkpt><trkpt lat="59.0659970976" lon="30.0064084399"><ele>69.51</ele><time>2026-04-25T13:28:55Z</time></trkpt><trkpt lat="59.0659569483" lon="30.0064889900"><ele>69.06</ele><time>2026-04-25T13:29:03Z</time></trkpt><trkpt lat="59.0658626519" lon="30.0067261979"><ele>69.19</ele><time>2026-04-25T13:29:22Z</time></trkpt><trkpt lat="59.0657606442" lon="30.0068662595"><ele>68.94</ele><time>2026-04-25T13:29:35Z</time></trkpt><trkpt lat="59.0657059103" lon="30.0069893058"><ele>69.00</ele><time>2026-04-25T13:29:49Z</time></trkpt><trkpt lat="59.0656861290" lon="30.0070159603"><ele>69.28</ele><time>2026-04-25T13:29:55Z</time></trkpt><trkpt lat="59.0655536111" lon="30.0069366675"><ele>68.58</ele><time>2026-04-25T13:30:18Z</time></trkpt><trkpt lat="59.0654462390" lon="30.0068569556"><ele>68.06</ele><time>2026-04-25T13:30:36Z</time></trkpt><trkpt lat="59.0653499309" lon="30.0067799259"><ele>67.95</ele><time>2026-04-25T13:30:55Z</time></trkpt><trkpt lat="59.0652451571" lon="30.0067891460"><ele>68.16</ele><time>2026-04-25T13:31:18Z</time></trkpt><trkpt lat="59.0652347635" lon="30.0067752320"><ele>68.11</ele><time>2026-04-25T13:31:20Z</time></trkpt><trkpt lat="59.0652023256" lon="30.0067864638"><ele>68.40</ele><time>2026-04-25T13:31:24Z</time></trkpt><trkpt lat="59.0650248807" lon="30.0066745654"><ele>67.56</ele><time>2026-04-25T13:31:47Z</time></trkpt><trkpt lat="59.0648980625" lon="30.0065408740"><ele>67.84</ele><time>2026-04-25T13:32:11Z</time></trkpt><trkpt lat="59.0647634491" lon="30.0065421313"><ele>67.99</ele><time>2026-04-25T13:32:31Z</time></trkpt><trkpt lat="59.0646838211" lon="30.0064563844"><ele>70.61</ele><time>2026-04-25T13:32:55Z</time></trkpt><trkpt lat="59.0646533947" lon="30.0065044127"><ele>71.58</ele><time>2026-04-25T13:33:17Z</time></trkpt><trkpt lat="59.0645557456" lon="30.0065777544"><ele>71.44</ele><time>2026-04-25T13:33:37Z</time></trkpt><trkpt lat="59.0644899476" lon="30.0067393575"><ele>71.33</ele><time>2026-04-25T13:33:57Z</time></trkpt><trkpt lat="59.0645012632" lon="30.0067811832"><ele>71.15</ele><time>2026-04-25T13:34:23Z</time></trkpt><trkpt lat="59.0645139199" lon="30.0069121085"><ele>70.76</ele><time>2026-04-25T13:34:42Z</time></trkpt><trkpt lat="59.0645156801" lon="30.0070349034"><ele>70.47</ele><time>2026-04-25T13:34:54Z</time></trkpt><trkpt lat="59.0643295180" lon="30.0071265176"><ele>68.11</ele><time>2026-04-25T13:35:16Z</time></trkpt><trkpt lat="59.0642533265" lon="30.0071276072"><ele>65.77</ele><time>2026-04-25T13:35:32Z</time></trkpt><trkpt lat="59.0641809069" lon="30.0070375856"><ele>67.71</ele><time>2026-04-25T13:35:52Z</time></trkpt><trkpt lat="59.0642300248" lon="30.0069242623"><ele>67.94</ele><time>2026-04-25T13:36:13Z</time></trkpt><trkpt lat="59.0642125066" lon="30.0067858770"><ele>68.08</ele><time>2026-04-25T13:36:41Z</time></trkpt><trkpt lat="59.0642117523" lon="30.0067798421"><ele>68.69</ele><time>2026-04-25T13:37:05Z</time></trkpt><trkpt lat="59.0642248280" lon="30.0068143755"><ele>68.89</ele><time>2026-04-25T13:37:29Z</time></trkpt><trkpt lat="59.0641278494" lon="30.0067101885"><ele>68.62</ele><time>2026-04-25T13:37:50Z</time></trkpt><trkpt lat="59.0640834253" lon="30.0065099448"><ele>68.97</ele><time>2026-04-25T13:38:12Z</time></trkpt><trkpt lat="59.0640797373" lon="30.0063557178"><ele>73.54</ele><time>2026-04-25T13:38:37Z</time></trkpt><trkpt lat="59.0640797373" lon="30.0063661113"><ele>75.06</ele><time>2026-04-25T13:39:00Z</time></trkpt><trkpt lat="59.0640743729" lon="30.0063179992"><ele>73.42</ele><time>2026-04-25T13:39:29Z</time></trkpt><trkpt lat="59.0640856046" lon="30.0063215196"><ele>73.95</ele><time>2026-04-25T13:40:00Z</time></trkpt><trkpt lat="59.0640712716" lon="30.0063653570"><ele>75.23</ele><time>2026-04-25T13:40:28Z</time></trkpt><trkpt lat="59.0640991833" lon="30.0060980581"><ele>74.08</ele><time>2026-04-25T13:40:50Z</time></trkpt><trkpt lat="59.0641187131" lon="30.0057982374"><ele>71.84</ele><time>2026-04-25T13:41:09Z</time></trkpt><trkpt lat="59.0640622191" lon="30.0055482890"><ele>69.99</ele><time>2026-04-25T13:41:28Z</time></trkpt><trkpt lat="59.0639797412" lon="30.0052162819"><ele>71.78</ele><time>2026-04-25T13:41:49Z</time></trkpt><trkpt lat="59.0640384983" lon="30.0050733704"><ele>71.42</ele><time>2026-04-25T13:42:06Z</time></trkpt><trkpt lat="59.0641127620" lon="30.0049534254"><ele>69.79</ele><time>2026-04-25T13:42:22Z</time></trkpt><trkpt lat="59.0641502291" lon="30.0048770662"><ele>70.66</ele><time>2026-04-25T13:42:48Z</time></trkpt><trkpt lat="59.0641309507" lon="30.0049116835"><ele>71.23</ele><time>2026-04-25T13:43:09Z</time></trkpt><trkpt lat="59.0640195552" lon="30.0050209835"><ele>70.37</ele><time>2026-04-25T13:43:30Z</time></trkpt><trkpt lat="59.0639525838" lon="30.0048432872"><ele>71.60</ele><time>2026-04-25T13:43:48Z</time></trkpt><trkpt lat="59.0638722014" lon="30.0046864618"><ele>70.20</ele><time>2026-04-25T13:44:09Z</time></trkpt><trkpt lat="59.0638265200" lon="30.0046225078"><ele>71.08</ele><time>2026-04-25T13:44:28Z</time></trkpt><trkpt lat="59.0638819244" lon="30.0044464879"><ele>70.37</ele><time>2026-04-25T13:44:51Z</time></trkpt><trkpt lat="59.0639501531" lon="30.0043356791"><ele>70.99</ele><time>2026-04-25T13:45:11Z</time></trkpt><trkpt lat="59.0639677551" lon="30.0042097829"><ele>74.04</ele><time>2026-04-25T13:45:37Z</time></trkpt><trkpt lat="59.0639244206" lon="30.0041674543"><ele>73.85</ele><time>2026-04-25T13:45:57Z</time></trkpt><trkpt lat="59.0638089180" lon="30.0041020755"><ele>72.18</ele><time>2026-04-25T13:46:15Z</time></trkpt><trkpt lat="59.0637623146" lon="30.0039423164"><ele>73.71</ele><time>2026-04-25T13:46:39Z</time></trkpt><trkpt lat="59.0637363307" lon="30.0038880017"><ele>75.62</ele><time>2026-04-25T13:47:09Z</time></trkpt><trkpt lat="59.0637423657" lon="30.0039247982"><ele>78.32</ele><time>2026-04-25T13:47:33Z</time></trkpt><trkpt lat="59.0637168009" lon="30.0039099623"><ele>79.86</ele><time>2026-04-25T13:48:00Z</time></trkpt><trkpt lat="59.0636917390" lon="30.0039719045"><ele>80.87</ele><time>2026-04-25T13:48:23Z</time></trkpt><trkpt lat="59.0636213310" lon="30.0040401332"><ele>79.79</ele><time>2026-04-25T13:48:43Z</time></trkpt><trkpt lat="59.0634961892" lon="30.0039967988"><ele>79.03</ele><time>2026-04-25T13:49:02Z</time></trkpt><trkpt lat="59.0633906610" lon="30.0038422365"><ele>78.67</ele><time>2026-04-25T13:49:23Z</time></trkpt><trkpt lat="59.0632673632" lon="30.0038365368"><ele>76.83</ele><time>2026-04-25T13:49:45Z</time></trkpt><trkpt lat="59.0631671995" lon="30.0038667116"><ele>75.58</ele><time>2026-04-25T13:49:59Z</time></trkpt><trkpt lat="59.0630420577" lon="30.0039274804"><ele>75.06</ele><time>2026-04-25T13:50:23Z</time></trkpt><trkpt lat="59.0630099550" lon="30.0039492734"><ele>75.12</ele><time>2026-04-25T13:50:30Z</time></trkpt><trkpt lat="59.0629360266" lon="30.0039601699"><ele>75.09</ele><time>2026-04-25T13:50:45Z</time></trkpt><trkpt lat="59.0628032573" lon="30.0039893389"><ele>74.38</ele><time>2026-04-25T13:51:07Z</time></trkpt><trkpt lat="59.0627454221" lon="30.0040745828"><ele>74.55</ele><time>2026-04-25T13:51:27Z</time></trkpt><trkpt lat="59.0627202764" lon="30.0041426439"><ele>75.75</ele><time>2026-04-25T13:51:58Z</time></trkpt><trkpt lat="59.0627217852" lon="30.0041493494"><ele>75.74</ele><time>2026-04-25T13:51:59Z</time></trkpt><trkpt lat="59.0626771096" lon="30.0043091923"><ele>74.40</ele><time>2026-04-25T13:52:17Z</time></trkpt><trkpt lat="59.0625317674" lon="30.0044679455"><ele>72.60</ele><time>2026-04-25T13:52:39Z</time></trkpt><trkpt lat="59.0624611918" lon="30.0046658423"><ele>71.06</ele><time>2026-04-25T13:52:59Z</time></trkpt><trkpt lat="59.0623055398" lon="30.0048995297"><ele>68.83</ele><time>2026-04-25T13:53:18Z</time></trkpt><trkpt lat="59.0622684080" lon="30.0049464684"><ele>68.35</ele><time>2026-04-25T13:53:22Z</time></trkpt><trkpt lat="59.0622165240" lon="30.0051155314"><ele>67.61</ele><time>2026-04-25T13:53:36Z</time></trkpt><trkpt lat="59.0621500555" lon="30.0052044634"><ele>73.22</ele><time>2026-04-25T13:53:57Z</time></trkpt><trkpt lat="59.0620816592" lon="30.0052374881"><ele>74.13</ele><time>2026-04-25T13:54:25Z</time></trkpt><trkpt lat="59.0620596148" lon="30.0052359793"><ele>74.18</ele><time>2026-04-25T13:54:28Z</time></trkpt><trkpt lat="59.0619390830" lon="30.0052773021"><ele>74.28</ele><time>2026-04-25T13:54:49Z</time></trkpt><trkpt lat="59.0618812479" lon="30.0052057207"><ele>76.44</ele><time>2026-04-25T13:55:14Z</time></trkpt><trkpt lat="59.0617878735" lon="30.0052150246"><ele>76.40</ele><time>2026-04-25T13:55:36Z</time></trkpt><trkpt lat="59.0617024619" lon="30.0051201414"><ele>75.80</ele><time>2026-04-25T13:55:54Z</time></trkpt><trkpt lat="59.0616642404" lon="30.0050392561"><ele>75.50</ele><time>2026-04-25T13:56:17Z</time></trkpt><trkpt lat="59.0616214089" lon="30.0050071534"><ele>74.95</ele><time>2026-04-25T13:56:42Z</time></trkpt><trkpt lat="59.0615326446" lon="30.0050853565"><ele>74.32</ele><time>2026-04-25T13:57:06Z</time></trkpt><trkpt lat="59.0615126118" lon="30.0049942452"><ele>74.02</ele><time>2026-04-25T13:57:23Z</time></trkpt><trkpt lat="59.0614580456" lon="30.0048100110"><ele>73.31</ele><time>2026-04-25T13:57:42Z</time></trkpt><trkpt lat="59.0614372585" lon="30.0046660937"><ele>73.33</ele><time>2026-04-25T13:58:01Z</time></trkpt><trkpt lat="59.0613779984" lon="30.0044842064"><ele>72.98</ele><time>2026-04-25T13:58:19Z</time></trkpt><trkpt lat="59.0613520145" lon="30.0044042431"><ele>72.30</ele><time>2026-04-25T13:58:25Z</time></trkpt><trkpt lat="59.0613425430" lon="30.0041772611"><ele>73.51</ele><time>2026-04-25T13:58:47Z</time></trkpt><trkpt lat="59.0613535233" lon="30.0039309170"><ele>73.73</ele><time>2026-04-25T13:59:11Z</time></trkpt><trkpt lat="59.0613772441" lon="30.0037362892"><ele>74.63</ele><time>2026-04-25T13:59:31Z</time></trkpt><trkpt lat="59.0614101011" lon="30.0036327727"><ele>76.43</ele><time>2026-04-25T13:59:55Z</time></trkpt><trkpt lat="59.0613864642" lon="30.0036001671"><ele>76.52</ele><time>2026-04-25T14:00:21Z</time></trkpt><trkpt lat="59.0613595583" lon="30.0036108959"><ele>76.86</ele><time>2026-04-25T14:00:33Z</time></trkpt><trkpt lat="59.0613196604" lon="30.0036572479"><ele>76.57</ele><time>2026-04-25T14:01:57Z</time></trkpt><trkpt lat="59.0612852946" lon="30.0037127361"><ele>78.33</ele><time>2026-04-25T14:03:08Z</time></trkpt><trkpt lat="59.0613195766" lon="30.0036123209"><ele>78.70</ele><time>2026-04-25T14:03:41Z</time></trkpt><trkpt lat="59.0613111947" lon="30.0037004147"><ele>79.16</ele><time>2026-04-25T14:04:17Z</time></trkpt><trkpt lat="59.0612767451" lon="30.0036554039"><ele>80.59</ele><time>2026-04-25T14:05:28Z</time></trkpt><trkpt lat="59.0613489132" lon="30.0035808887"><ele>80.42</ele><time>2026-04-25T14:06:08Z</time></trkpt><trkpt lat="59.0613474883" lon="30.0036169309"><ele>80.85</ele><time>2026-04-25T14:06:33Z</time></trkpt><trkpt lat="59.0613560379" lon="30.0036383048"><ele>80.19</ele><time>2026-04-25T14:07:00Z</time></trkpt><trkpt lat="59.0613432135" lon="30.0036179367"><ele>79.88</ele><time>2026-04-25T14:07:23Z</time></trkpt><trkpt lat="59.0613550320" lon="30.0036296714"><ele>80.80</ele><time>2026-04-25T14:07:51Z</time></trkpt><trkpt lat="59.0614496637" lon="30.0035827328"><ele>81.12</ele><time>2026-04-25T14:08:16Z</time></trkpt><trkpt lat="59.0614968538" lon="30.0035984907"><ele>87.17</ele><time>2026-04-25T14:08:42Z</time></trkpt><trkpt lat="59.0615081694" lon="30.0035510492"><ele>88.41</ele><time>2026-04-25T14:09:07Z</time></trkpt><trkpt lat="59.0616287850" lon="30.0033964030"><ele>86.18</ele><time>2026-04-25T14:09:29Z</time></trkpt><trkpt lat="59.0617663320" lon="30.0034058746"><ele>83.66</ele><time>2026-04-25T14:09:52Z</time></trkpt><trkpt lat="59.0618199762" lon="30.0034105685"><ele>83.58</ele><time>2026-04-25T14:10:01Z</time></trkpt><trkpt lat="59.0620005224" lon="30.0033731852"><ele>83.25</ele><time>2026-04-25T14:10:25Z</time></trkpt><trkpt lat="59.0620040428" lon="30.0034020189"><ele>83.78</ele><time>2026-04-25T14:10:47Z</time></trkpt><trkpt lat="59.0621047933" lon="30.0034162682"><ele>86.14</ele><time>2026-04-25T14:11:15Z</time></trkpt><trkpt lat="59.0621799789" lon="30.0033219717"><ele>86.44</ele><time>2026-04-25T14:11:36Z</time></trkpt><trkpt lat="59.0622467827" lon="30.0032830797"><ele>86.07</ele><time>2026-04-25T14:11:50Z</time></trkpt><trkpt lat="59.0623047017" lon="30.0032615382"><ele>85.67</ele><time>2026-04-25T14:12:02Z</time></trkpt><trkpt lat="59.0624848288" lon="30.0031239912"><ele>87.90</ele><time>2026-04-25T14:12:31Z</time></trkpt><trkpt lat="59.0625271574" lon="30.0031667389"><ele>89.35</ele><time>2026-04-25T14:12:54Z</time></trkpt><trkpt lat="59.0625083819" lon="30.0032059662"><ele>87.77</ele><time>2026-04-25T14:13:24Z</time></trkpt><trkpt lat="59.0624829847" lon="30.0031358935"><ele>86.33</ele><time>2026-04-25T14:13:50Z</time></trkpt><trkpt lat="59.0624353755" lon="30.0030694250"><ele>86.50</ele><time>2026-04-25T14:14:18Z</time></trkpt><trkpt lat="59.0624123253" lon="30.0028864481"><ele>86.02</ele><time>2026-04-25T14:14:39Z</time></trkpt><trkpt lat="59.0624449309" lon="30.0027262699"><ele>85.84</ele><time>2026-04-25T14:15:01Z</time></trkpt><trkpt lat="59.0624473616" lon="30.0026266929"><ele>86.15</ele><time>2026-04-25T14:15:11Z</time></trkpt><trkpt lat="59.0623990819" lon="30.0024906546"><ele>86.06</ele><time>2026-04-25T14:15:32Z</time></trkpt><trkpt lat="59.0624251496" lon="30.0023799296"><ele>86.32</ele><time>2026-04-25T14:15:58Z</time></trkpt><trkpt lat="59.0623777080" lon="30.0022490043"><ele>85.84</ele><time>2026-04-25T14:16:14Z</time></trkpt><trkpt lat="59.0623688232" lon="30.0020993873"><ele>85.52</ele><time>2026-04-25T14:16:35Z</time></trkpt><trkpt lat="59.0623851679" lon="30.0020098686"><ele>85.91</ele><time>2026-04-25T14:16:55Z</time></trkpt><trkpt lat="59.0623733494" lon="30.0018247124"><ele>87.09</ele><time>2026-04-25T14:17:17Z</time></trkpt><trkpt lat="59.0624208748" lon="30.0016943738"><ele>89.31</ele><time>2026-04-25T14:17:40Z</time></trkpt><trkpt lat="59.0624549892" lon="30.0015946291"><ele>89.08</ele><time>2026-04-25T14:18:05Z</time></trkpt><trkpt lat="59.0624965634" lon="30.0015114807"><ele>88.54</ele><time>2026-04-25T14:18:32Z</time></trkpt><trkpt lat="59.0625445917" lon="30.0014036894"><ele>89.44</ele><time>2026-04-25T14:18:55Z</time></trkpt><trkpt lat="59.0625295881" lon="30.0013576727"><ele>89.46</ele><time>2026-04-25T14:19:18Z</time></trkpt><trkpt lat="59.0625358745" lon="30.0013571698"><ele>89.49</ele><time>2026-04-25T14:19:19Z</time></trkpt><trkpt lat="59.0625533089" lon="30.0013126619"><ele>88.84</ele><time>2026-04-25T14:19:42Z</time></trkpt><trkpt lat="59.0625724196" lon="30.0012948085"><ele>88.64</ele><time>2026-04-25T14:20:10Z</time></trkpt><trkpt lat="59.0625584219" lon="30.0012121629"><ele>89.55</ele><time>2026-04-25T14:20:39Z</time></trkpt><trkpt lat="59.0625264030" lon="30.0011308584"><ele>87.68</ele><time>2026-04-25T14:21:09Z</time></trkpt><trkpt lat="59.0625237208" lon="30.0012819003"><ele>87.70</ele><time>2026-04-25T14:21:35Z</time></trkpt><trkpt lat="59.0624866728" lon="30.0013182778"><ele>86.86</ele><time>2026-04-25T14:21:58Z</time></trkpt><trkpt lat="59.0624780394" lon="30.0012518931"><ele>87.88</ele><time>2026-04-25T14:22:26Z</time></trkpt><trkpt lat="59.0624859184" lon="30.0012405775"><ele>88.37</ele><time>2026-04-25T14:22:35Z</time></trkpt><trkpt lat="59.0625067055" lon="30.0012428407"><ele>90.26</ele><time>2026-04-25T14:22:59Z</time></trkpt><trkpt lat="59.0624633711" lon="30.0012649689"><ele>89.27</ele><time>2026-04-25T14:23:24Z</time></trkpt><trkpt lat="59.0624425001" lon="30.0012749434"><ele>88.18</ele><time>2026-04-25T14:23:49Z</time></trkpt><trkpt lat="59.0623779595" lon="30.0012265798"><ele>88.29</ele><time>2026-04-25T14:24:08Z</time></trkpt><trkpt lat="59.0623739362" lon="30.0012408290"><ele>87.98</ele><time>2026-04-25T14:24:19Z</time></trkpt><trkpt lat="59.0623320267" lon="30.0012881029"><ele>87.68</ele><time>2026-04-25T14:24:23Z</time></trkpt><trkpt lat="59.0622851718" lon="30.0012872647"><ele>87.46</ele><time>2026-04-25T14:24:28Z</time></trkpt><trkpt lat="59.0622298513" lon="30.0012884382"><ele>87.28</ele><time>2026-04-25T14:24:35Z</time></trkpt><trkpt lat="59.0620865207" lon="30.0012931321"><ele>85.82</ele><time>2026-04-25T14:24:57Z</time></trkpt><trkpt lat="59.0619950742" lon="30.0014655478"><ele>83.48</ele><time>2026-04-25T14:25:18Z</time></trkpt><trkpt lat="59.0619683359" lon="30.0015499536"><ele>83.13</ele><time>2026-04-25T14:25:28Z</time></trkpt><trkpt lat="59.0618974250" lon="30.0016689766"><ele>83.37</ele><time>2026-04-25T14:25:50Z</time></trkpt><trkpt lat="59.0618044697" lon="30.0017466769"><ele>83.55</ele><time>2026-04-25T14:26:15Z</time></trkpt><trkpt lat="59.0617742110" lon="30.0017510355"><ele>83.53</ele><time>2026-04-25T14:26:22Z</time></trkpt><trkpt lat="59.0616465546" lon="30.0018101279"><ele>83.66</ele><time>2026-04-25T14:26:42Z</time></trkpt><trkpt lat="59.0616328921" lon="30.0018118881"><ele>83.56</ele><time>2026-04-25T14:26:44Z</time></trkpt><trkpt lat="59.0615213290" lon="30.0018564798"><ele>83.21</ele><time>2026-04-25T14:27:00Z</time></trkpt><trkpt lat="59.0615057386" lon="30.0018611737"><ele>82.88</ele><time>2026-04-25T14:27:02Z</time></trkpt><trkpt lat="59.0614111070" lon="30.0019367784"><ele>83.00</ele><time>2026-04-25T14:27:27Z</time></trkpt><trkpt lat="59.0613857936" lon="30.0019208528"><ele>83.03</ele><time>2026-04-25T14:27:55Z</time></trkpt><trkpt lat="59.0614013840" lon="30.0018912647"><ele>83.14</ele><time>2026-04-25T14:28:22Z</time></trkpt><trkpt lat="59.0613699518" lon="30.0018591620"><ele>84.66</ele><time>2026-04-25T14:28:45Z</time></trkpt><trkpt lat="59.0613945108" lon="30.0018454995"><ele>85.27</ele><time>2026-04-25T14:29:04Z</time></trkpt><trkpt lat="59.0613969415" lon="30.0018734112"><ele>84.38</ele><time>2026-04-25T14:29:31Z</time></trkpt><trkpt lat="59.0613961034" lon="30.0018581562"><ele>85.26</ele><time>2026-04-25T14:29:59Z</time></trkpt><trkpt lat="59.0614003781" lon="30.0018081162"><ele>86.44</ele><time>2026-04-25T14:30:30Z</time></trkpt><trkpt lat="59.0613904875" lon="30.0017408933"><ele>88.23</ele><time>2026-04-25T14:30:55Z</time></trkpt><trkpt lat="59.0613422077" lon="30.0015897676"><ele>87.89</ele><time>2026-04-25T14:31:12Z</time></trkpt><trkpt lat="59.0612905752" lon="30.0014335290"><ele>85.78</ele><time>2026-04-25T14:31:30Z</time></trkpt><trkpt lat="59.0611975361" lon="30.0011757854"><ele>84.23</ele><time>2026-04-25T14:31:52Z</time></trkpt><trkpt lat="59.0611791797" lon="30.0009840913"><ele>83.15</ele><time>2026-04-25T14:32:11Z</time></trkpt><trkpt lat="59.0611742344" lon="30.0008304510"><ele>82.45</ele><time>2026-04-25T14:32:23Z</time></trkpt><trkpt lat="59.0611908305" lon="30.0005577039"><ele>82.29</ele><time>2026-04-25T14:32:35Z</time></trkpt><trkpt lat="59.0611759108" lon="30.0004217494"><ele>82.19</ele><time>2026-04-25T14:32:52Z</time></trkpt><trkpt lat="59.0611894894" lon="30.0003117789"><ele>82.96</ele><time>2026-04-25T14:32:57Z</time></trkpt><trkpt lat="59.0611697081" lon="30.0000588968"><ele>83.05</ele><time>2026-04-25T14:33:21Z</time></trkpt><trkpt lat="59.0612228494" lon="29.9999253731"><ele>84.71</ele><time>2026-04-25T14:33:39Z</time></trkpt><trkpt lat="59.0613279585" lon="29.9998206832"><ele>84.51</ele><time>2026-04-25T14:34:03Z</time></trkpt><trkpt lat="59.0613909904" lon="29.9998213537"><ele>84.13</ele><time>2026-04-25T14:34:23Z</time></trkpt><trkpt lat="59.0614986978" lon="29.9998209346"><ele>83.73</ele><time>2026-04-25T14:34:44Z</time></trkpt><trkpt lat="59.0615658369" lon="29.9997994769"><ele>83.58</ele><time>2026-04-25T14:34:54Z</time></trkpt><trkpt lat="59.0616833512" lon="29.9996793643"><ele>82.53</ele><time>2026-04-25T14:35:17Z</time></trkpt><trkpt lat="59.0617600456" lon="29.9996235408"><ele>82.09</ele><time>2026-04-25T14:35:36Z</time></trkpt><trkpt lat="59.0618501510" lon="29.9995359499"><ele>81.68</ele><time>2026-04-25T14:35:55Z</time></trkpt><trkpt lat="59.0619645640" lon="29.9994419049"><ele>81.93</ele><time>2026-04-25T14:36:14Z</time></trkpt><trkpt lat="59.0620123409" lon="29.9993331078"><ele>83.28</ele><time>2026-04-25T14:36:32Z</time></trkpt><trkpt lat="59.0620302781" lon="29.9992798828"><ele>83.44</ele><time>2026-04-25T14:37:04Z</time></trkpt><trkpt lat="59.0621246584" lon="29.9992386438"><ele>84.19</ele><time>2026-04-25T14:37:25Z</time></trkpt><trkpt lat="59.0621085651" lon="29.9991268292"><ele>84.11</ele><time>2026-04-25T14:37:47Z</time></trkpt><trkpt lat="59.0621192101" lon="29.9990238994"><ele>84.03</ele><time>2026-04-25T14:38:14Z</time></trkpt><trkpt lat="59.0621971618" lon="29.9989612028"><ele>83.12</ele><time>2026-04-25T14:38:38Z</time></trkpt><trkpt lat="59.0622717608" lon="29.9989313632"><ele>82.45</ele><time>2026-04-25T14:38:58Z</time></trkpt><trkpt lat="59.0623221360" lon="29.9989263341"><ele>82.78</ele><time>2026-04-25T14:39:10Z</time></trkpt><trkpt lat="59.0623544902" lon="29.9988119211"><ele>82.82</ele><time>2026-04-25T14:39:28Z</time></trkpt><trkpt lat="59.0624307655" lon="29.9987155292"><ele>83.04</ele><time>2026-04-25T14:39:53Z</time></trkpt><trkpt lat="59.0625293367" lon="29.9986940715"><ele>83.20</ele><time>2026-04-25T14:40:22Z</time></trkpt><trkpt lat="59.0625776164" lon="29.9988047127"><ele>82.75</ele><time>2026-04-25T14:40:42Z</time></trkpt><trkpt lat="59.0626556519" lon="29.9988598656"><ele>83.10</ele><time>2026-04-25T14:40:59Z</time></trkpt><trkpt lat="59.0627450030" lon="29.9988551717"><ele>87.58</ele><time>2026-04-25T14:41:31Z</time></trkpt><trkpt lat="59.0627885889" lon="29.9989478756"><ele>86.34</ele><time>2026-04-25T14:41:57Z</time></trkpt><trkpt lat="59.0628073644" lon="29.9989869352"><ele>91.74</ele><time>2026-04-25T14:42:25Z</time></trkpt><trkpt lat="59.0627501160" lon="29.9989527371"><ele>89.67</ele><time>2026-04-25T14:42:54Z</time></trkpt><trkpt lat="59.0627121460" lon="29.9989784695"><ele>88.25</ele><time>2026-04-25T14:43:24Z</time></trkpt><trkpt lat="59.0627398062" lon="29.9990104884"><ele>87.26</ele><time>2026-04-25T14:43:50Z</time></trkpt><trkpt lat="59.0627862420" lon="29.9990389869"><ele>87.22</ele><time>2026-04-25T14:44:14Z</time></trkpt><trkpt lat="59.0628234576" lon="29.9991184473"><ele>87.62</ele><time>2026-04-25T14:44:36Z</time></trkpt><trkpt lat="59.0629587416" lon="29.9990784656"><ele>87.52</ele><time>2026-04-25T14:45:04Z</time></trkpt><trkpt lat="59.0629714821" lon="29.9990622886"><ele>86.72</ele><time>2026-04-25T14:45:23Z</time></trkpt><trkpt lat="59.0630531218" lon="29.9990095664"><ele>86.61</ele><time>2026-04-25T14:45:46Z</time></trkpt><trkpt lat="59.0630734898" lon="29.9989935569"><ele>86.66</ele><time>2026-04-25T14:45:51Z</time></trkpt><trkpt lat="59.0631780121" lon="29.9988552555"><ele>87.13</ele><time>2026-04-25T14:46:12Z</time></trkpt><trkpt lat="59.0632537007" lon="29.9988384917"><ele>87.10</ele><time>2026-04-25T14:46:31Z</time></trkpt><trkpt lat="59.0632687043" lon="29.9988331273"><ele>86.79</ele><time>2026-04-25T14:46:45Z</time></trkpt><trkpt lat="59.0633144695" lon="29.9987020344"><ele>86.25</ele><time>2026-04-25T14:47:09Z</time></trkpt><trkpt lat="59.0633628331" lon="29.9986726977"><ele>86.37</ele><time>2026-04-25T14:47:23Z</time></trkpt><trkpt lat="59.0633845422" lon="29.9984996952"><ele>85.89</ele><time>2026-04-25T14:47:43Z</time></trkpt><trkpt lat="59.0634824429" lon="29.9983803369"><ele>86.04</ele><time>2026-04-25T14:48:01Z</time></trkpt><trkpt lat="59.0635618195" lon="29.9982504174"><ele>85.61</ele><time>2026-04-25T14:48:20Z</time></trkpt><trkpt lat="59.0636128653" lon="29.9981633294"><ele>84.93</ele><time>2026-04-25T14:48:36Z</time></trkpt><trkpt lat="59.0636460576" lon="29.9982271995"><ele>84.20</ele><time>2026-04-25T14:48:55Z</time></trkpt><trkpt lat="59.0636552777" lon="29.9981813505"><ele>82.82</ele><time>2026-04-25T14:49:26Z</time></trkpt><trkpt lat="59.0636401903" lon="29.9981105234"><ele>83.42</ele><time>2026-04-25T14:49:52Z</time></trkpt><trkpt lat="59.0636742208" lon="29.9981317297"><ele>84.85</ele><time>2026-04-25T14:50:21Z</time></trkpt><trkpt lat="59.0637775697" lon="29.9980602320"><ele>84.15</ele><time>2026-04-25T14:50:49Z</time></trkpt><trkpt lat="59.0638032183" lon="29.9981935043"><ele>80.13</ele><time>2026-04-25T14:51:18Z</time></trkpt><trkpt lat="59.0637288708" lon="29.9982056580"><ele>79.83</ele><time>2026-04-25T14:51:45Z</time></trkpt><trkpt lat="59.0636985283" lon="29.9981922470"><ele>78.80</ele><time>2026-04-25T14:52:11Z</time></trkpt><trkpt lat="59.0637086704" lon="29.9981824402"><ele>79.84</ele><time>2026-04-25T14:52:37Z</time></trkpt><trkpt lat="59.0637783241" lon="29.9980850425"><ele>80.14</ele><time>2026-04-25T14:52:56Z</time></trkpt><trkpt lat="59.0638466366" lon="29.9979283847"><ele>80.40</ele><time>2026-04-25T14:53:13Z</time></trkpt><trkpt lat="59.0639437828" lon="29.9978998862"><ele>79.64</ele><time>2026-04-25T14:53:33Z</time></trkpt><trkpt lat="59.0639954153" lon="29.9978676997"><ele>78.67</ele><time>2026-04-25T14:53:49Z</time></trkpt><trkpt lat="59.0640197229" lon="29.9978594854"><ele>78.52</ele><time>2026-04-25T14:53:58Z</time></trkpt><trkpt lat="59.0641179588" lon="29.9978697114"><ele>77.63</ele><time>2026-04-25T14:54:17Z</time></trkpt><trkpt lat="59.0641991794" lon="29.9979562126"><ele>76.68</ele><time>2026-04-25T14:54:34Z</time></trkpt><trkpt lat="59.0641985927" lon="29.9979634210"><ele>76.65</ele><time>2026-04-25T14:54:37Z</time></trkpt><trkpt lat="59.0642754547" lon="29.9979901593"><ele>76.24</ele><time>2026-04-25T14:54:57Z</time></trkpt><trkpt lat="59.0643388219" lon="29.9980919156"><ele>76.99</ele><time>2026-04-25T14:55:19Z</time></trkpt><trkpt lat="59.0644300170" lon="29.9981794227"><ele>78.02</ele><time>2026-04-25T14:55:41Z</time></trkpt><trkpt lat="59.0645413287" lon="29.9982540216"><ele>79.64</ele><time>2026-04-25T14:56:02Z</time></trkpt><trkpt lat="59.0646352060" lon="29.9982626550"><ele>82.88</ele><time>2026-04-25T14:56:21Z</time></trkpt><trkpt lat="59.0647096373" lon="29.9981937557"><ele>83.03</ele><time>2026-04-25T14:56:38Z</time></trkpt><trkpt lat="59.0647662152" lon="29.9981853738"><ele>88.86</ele><time>2026-04-25T14:57:01Z</time></trkpt><trkpt lat="59.0647308435" lon="29.9981330708"><ele>90.45</ele><time>2026-04-25T14:57:28Z</time></trkpt><trkpt lat="59.0647836495" lon="29.9981239345"><ele>90.22</ele><time>2026-04-25T14:57:55Z</time></trkpt><trkpt lat="59.0647674724" lon="29.9980811868"><ele>90.20</ele><time>2026-04-25T14:58:10Z</time></trkpt><trkpt lat="59.0647383034" lon="29.9979185779"><ele>89.12</ele><time>2026-04-25T14:58:35Z</time></trkpt><trkpt lat="59.0647336096" lon="29.9977918435"><ele>88.43</ele><time>2026-04-25T14:58:54Z</time></trkpt><trkpt lat="59.0646660514" lon="29.9976236187"><ele>88.40</ele><time>2026-04-25T14:59:18Z</time></trkpt><trkpt lat="59.0646327753" lon="29.9973968882"><ele>88.19</ele><time>2026-04-25T14:59:40Z</time></trkpt><trkpt lat="59.0646112338" lon="29.9973138236"><ele>87.81</ele><time>2026-04-25T14:59:51Z</time></trkpt><trkpt lat="59.0645917878" lon="29.9970430043"><ele>86.39</ele><time>2026-04-25T15:00:14Z</time></trkpt><trkpt lat="59.0645854175" lon="29.9967646413"><ele>85.12</ele><time>2026-04-25T15:00:33Z</time></trkpt><trkpt lat="59.0645277500" lon="29.9965676665"><ele>85.20</ele><time>2026-04-25T15:00:51Z</time></trkpt><trkpt lat="59.0645494591" lon="29.9964482244"><ele>85.42</ele><time>2026-04-25T15:01:09Z</time></trkpt><trkpt lat="59.0644508041" lon="29.9963288661"><ele>87.54</ele><time>2026-04-25T15:01:34Z</time></trkpt><trkpt lat="59.0644061286" lon="29.9963950831"><ele>86.13</ele><time>2026-04-25T15:02:03Z</time></trkpt><trkpt lat="59.0643969085" lon="29.9964043871"><ele>85.94</ele><time>2026-04-25T15:02:11Z</time></trkpt><trkpt lat="59.0643948968" lon="29.9961352441"><ele>84.88</ele><time>2026-04-25T15:02:40Z</time></trkpt><trkpt lat="59.0644441824" lon="29.9960421212"><ele>85.96</ele><time>2026-04-25T15:03:06Z</time></trkpt><trkpt lat="59.0644112416" lon="29.9960450549"><ele>86.90</ele><time>2026-04-25T15:03:26Z</time></trkpt><trkpt lat="59.0643589385" lon="29.9961572047"><ele>87.05</ele><time>2026-04-25T15:03:45Z</time></trkpt><trkpt lat="59.0642273426" lon="29.9962571170"><ele>83.42</ele><time>2026-04-25T15:04:12Z</time></trkpt><trkpt lat="59.0642389096" lon="29.9963095877"><ele>83.69</ele><time>2026-04-25T15:04:35Z</time></trkpt><trkpt lat="59.0641182102" lon="29.9964124337"><ele>82.26</ele><time>2026-04-25T15:04:55Z</time></trkpt><trkpt lat="59.0640540887" lon="29.9963873718"><ele>81.71</ele><time>2026-04-25T15:05:09Z</time></trkpt><trkpt lat="59.0639695991" lon="29.9963406846"><ele>80.55</ele><time>2026-04-25T15:05:28Z</time></trkpt><trkpt lat="59.0638952516" lon="29.9964048062"><ele>79.96</ele><time>2026-04-25T15:05:44Z</time></trkpt><trkpt lat="59.0637847781" lon="29.9965270143"><ele>79.51</ele><time>2026-04-25T15:06:04Z</time></trkpt><trkpt lat="59.0637044795" lon="29.9965455383"><ele>80.12</ele><time>2026-04-25T15:06:19Z</time></trkpt><trkpt lat="59.0636179782" lon="29.9965224881"><ele>79.16</ele><time>2026-04-25T15:06:36Z</time></trkpt><trkpt lat="59.0635959338" lon="29.9965762161"><ele>79.12</ele><time>2026-04-25T15:06:50Z</time></trkpt><trkpt lat="59.0635351650" lon="29.9966037087"><ele>79.65</ele><time>2026-04-25T15:07:05Z</time></trkpt><trkpt lat="59.0634298045" lon="29.9966173712"><ele>79.04</ele><time>2026-04-25T15:07:24Z</time></trkpt><trkpt lat="59.0633288026" lon="29.9966225680"><ele>78.76</ele><time>2026-04-25T15:07:44Z</time></trkpt><trkpt lat="59.0633510146" lon="29.9967391603"><ele>77.60</ele><time>2026-04-25T15:08:11Z</time></trkpt><trkpt lat="59.0633035731" lon="29.9967704248"><ele>77.86</ele><time>2026-04-25T15:08:35Z</time></trkpt><trkpt lat="59.0631792694" lon="29.9967605341"><ele>77.62</ele><time>2026-04-25T15:08:54Z</time></trkpt><trkpt lat="59.0631225239" lon="29.9967397470"><ele>77.49</ele><time>2026-04-25T15:09:07Z</time></trkpt><trkpt lat="59.0629948676" lon="29.9967704248"><ele>77.58</ele><time>2026-04-25T15:09:24Z</time></trkpt><trkpt lat="59.0629070252" lon="29.9967565946"><ele>77.95</ele><time>2026-04-25T15:09:45Z</time></trkpt><trkpt lat="59.0627668798" lon="29.9967980850"><ele>77.68</ele><time>2026-04-25T15:10:05Z</time></trkpt><trkpt lat="59.0626814682" lon="29.9968233146"><ele>77.39</ele><time>2026-04-25T15:10:22Z</time></trkpt><trkpt lat="59.0626295842" lon="29.9968701694"><ele>77.31</ele><time>2026-04-25T15:10:42Z</time></trkpt><trkpt lat="59.0625784546" lon="29.9970560800"><ele>78.16</ele><time>2026-04-25T15:11:02Z</time></trkpt><trkpt lat="59.0625435859" lon="29.9970288388"><ele>79.20</ele><time>2026-04-25T15:11:22Z</time></trkpt><trkpt lat="59.0625265706" lon="29.9970326107"><ele>78.03</ele><time>2026-04-25T15:11:45Z</time></trkpt><trkpt lat="59.0624809731" lon="29.9970199540"><ele>76.73</ele><time>2026-04-25T15:12:08Z</time></trkpt><trkpt lat="59.0624800511" lon="29.9970149249"><ele>76.73</ele><time>2026-04-25T15:12:10Z</time></trkpt><trkpt lat="59.0624093916" lon="29.9969822355"><ele>75.70</ele><time>2026-04-25T15:12:32Z</time></trkpt><trkpt lat="59.0623202082" lon="29.9969736021"><ele>75.10</ele><time>2026-04-25T15:12:56Z</time></trkpt><trkpt lat="59.0622302704" lon="29.9969880190"><ele>76.87</ele><time>2026-04-25T15:13:22Z</time></trkpt><trkpt lat="59.0621920489" lon="29.9970161822"><ele>76.87</ele><time>2026-04-25T15:13:43Z</time></trkpt><trkpt lat="59.0622000955" lon="29.9970188644"><ele>76.54</ele><time>2026-04-25T15:14:08Z</time></trkpt><trkpt lat="59.0622432623" lon="29.9970176909"><ele>74.87</ele><time>2026-04-25T15:14:48Z</time></trkpt><trkpt lat="59.0621834993" lon="29.9970306829"><ele>75.03</ele><time>2026-04-25T15:15:08Z</time></trkpt><trkpt lat="59.0620933101" lon="29.9970596842"><ele>74.67</ele><time>2026-04-25T15:15:23Z</time></trkpt><trkpt lat="59.0619897097" lon="29.9971405696"><ele>73.62</ele><time>2026-04-25T15:15:41Z</time></trkpt><trkpt lat="59.0618734527" lon="29.9971660506"><ele>73.07</ele><time>2026-04-25T15:15:56Z</time></trkpt><trkpt lat="59.0617852751" lon="29.9972271547"><ele>72.47</ele><time>2026-04-25T15:16:09Z</time></trkpt><trkpt lat="59.0617461316" lon="29.9972428288"><ele>72.36</ele><time>2026-04-25T15:16:18Z</time></trkpt><trkpt lat="59.0616368316" lon="29.9972840678"><ele>72.90</ele><time>2026-04-25T15:16:39Z</time></trkpt><trkpt lat="59.0615587123" lon="29.9973885901"><ele>75.35</ele><time>2026-04-25T15:17:02Z</time></trkpt><trkpt lat="59.0615456365" lon="29.9974482693"><ele>78.65</ele><time>2026-04-25T15:17:36Z</time></trkpt><trkpt lat="59.0615640767" lon="29.9974018335"><ele>79.41</ele><time>2026-04-25T15:17:55Z</time></trkpt><trkpt lat="59.0614933334" lon="29.9973751791"><ele>79.59</ele><time>2026-04-25T15:18:19Z</time></trkpt><trkpt lat="59.0614652541" lon="29.9973744247"><ele>79.52</ele><time>2026-04-25T15:18:24Z</time></trkpt><trkpt lat="59.0613522660" lon="29.9972750992"><ele>79.08</ele><time>2026-04-25T15:18:46Z</time></trkpt><trkpt lat="59.0613054950" lon="29.9973178469"><ele>79.11</ele><time>2026-04-25T15:19:06Z</time></trkpt><trkpt lat="59.0612045769" lon="29.9973708205"><ele>78.73</ele><time>2026-04-25T15:19:28Z</time></trkpt><trkpt lat="59.0611889027" lon="29.9973833933"><ele>78.80</ele><time>2026-04-25T15:19:30Z</time></trkpt><trkpt lat="59.0610943548" lon="29.9973750953"><ele>80.15</ele><time>2026-04-25T15:19:58Z</time></trkpt><trkpt lat="59.0610715561" lon="29.9973393884"><ele>80.35</ele><time>2026-04-25T15:20:16Z</time></trkpt><trkpt lat="59.0609741583" lon="29.9973351136"><ele>79.71</ele><time>2026-04-25T15:20:31Z</time></trkpt><trkpt lat="59.0608647745" lon="29.9973843992"><ele>79.40</ele><time>2026-04-25T15:20:49Z</time></trkpt><trkpt lat="59.0607894212" lon="29.9972765241"><ele>77.70</ele><time>2026-04-25T15:21:07Z</time></trkpt><trkpt lat="59.0607537143" lon="29.9971622787"><ele>76.51</ele><time>2026-04-25T15:21:33Z</time></trkpt><trkpt lat="59.0607502777" lon="29.9971414078"><ele>76.44</ele><time>2026-04-25T15:21:37Z</time></trkpt><trkpt lat="59.0607726574" lon="29.9968933035"><ele>75.20</ele><time>2026-04-25T15:22:02Z</time></trkpt><trkpt lat="59.0607267246" lon="29.9965169560"><ele>75.17</ele><time>2026-04-25T15:22:23Z</time></trkpt><trkpt lat="59.0607380401" lon="29.9962939974"><ele>73.18</ele><time>2026-04-25T15:22:38Z</time></trkpt><trkpt lat="59.0607808717" lon="29.9960049894"><ele>70.45</ele><time>2026-04-25T15:22:56Z</time></trkpt><trkpt lat="59.0607812908" lon="29.9957837909"><ele>67.79</ele><time>2026-04-25T15:23:15Z</time></trkpt><trkpt lat="59.0607729089" lon="29.9956192542"><ele>70.79</ele><time>2026-04-25T15:23:35Z</time></trkpt><trkpt lat="59.0607983060" lon="29.9956363533"><ele>74.36</ele><time>2026-04-25T15:24:01Z</time></trkpt><trkpt lat="59.0608241223" lon="29.9956561346"><ele>74.24</ele><time>2026-04-25T15:24:31Z</time></trkpt><trkpt lat="59.0608735755" lon="29.9956239481"><ele>74.62</ele><time>2026-04-25T15:24:58Z</time></trkpt><trkpt lat="59.0609128866" lon="29.9955738243"><ele>76.24</ele><time>2026-04-25T15:25:22Z</time></trkpt><trkpt lat="59.0609398764" lon="29.9956240319"><ele>76.95</ele><time>2026-04-25T15:25:33Z</time></trkpt><trkpt lat="59.0610985458" lon="29.9956171587"><ele>76.72</ele><time>2026-04-25T15:25:58Z</time></trkpt><trkpt lat="59.0611283854" lon="29.9956081063"><ele>76.58</ele><time>2026-04-25T15:26:03Z</time></trkpt><trkpt lat="59.0612372663" lon="29.9956509378"><ele>78.35</ele><time>2026-04-25T15:26:20Z</time></trkpt><trkpt lat="59.0612760745" lon="29.9956534524"><ele>78.68</ele><time>2026-04-25T15:26:24Z</time></trkpt><trkpt lat="59.0613769088" lon="29.9957206752"><ele>78.80</ele><time>2026-04-25T15:26:37Z</time></trkpt><trkpt lat="59.0615100972" lon="29.9957271293"><ele>78.50</ele><time>2026-04-25T15:26:56Z</time></trkpt><trkpt lat="59.0615992807" lon="29.9956526142"><ele>77.82</ele><time>2026-04-25T15:27:15Z</time></trkpt><trkpt lat="59.0617409348" lon="29.9955588207"><ele>77.61</ele><time>2026-04-25T15:27:36Z</time></trkpt><trkpt lat="59.0618395060" lon="29.9954972975"><ele>77.03</ele><time>2026-04-25T15:27:55Z</time></trkpt><trkpt lat="59.0618934017" lon="29.9954602495"><ele>77.53</ele><time>2026-04-25T15:28:13Z</time></trkpt><trkpt lat="59.0619112551" lon="29.9954164959"><ele>77.66</ele><time>2026-04-25T15:28:18Z</time></trkpt><trkpt lat="59.0620230697" lon="29.9952444993"><ele>76.53</ele><time>2026-04-25T15:28:38Z</time></trkpt><trkpt lat="59.0620299429" lon="29.9952137377"><ele>76.38</ele><time>2026-04-25T15:28:41Z</time></trkpt><trkpt lat="59.0620999318" lon="29.9950392265"><ele>76.64</ele><time>2026-04-25T15:29:04Z</time></trkpt><trkpt lat="59.0621874388" lon="29.9948921241"><ele>76.74</ele><time>2026-04-25T15:29:23Z</time></trkpt><trkpt lat="59.0622802265" lon="29.9947857577"><ele>76.68</ele><time>2026-04-25T15:29:44Z</time></trkpt><trkpt lat="59.0623653028" lon="29.9947707541"><ele>76.72</ele><time>2026-04-25T15:30:03Z</time></trkpt><trkpt lat="59.0624652989" lon="29.9947230611"><ele>76.30</ele><time>2026-04-25T15:30:18Z</time></trkpt><trkpt lat="59.0625207871" lon="29.9947308563"><ele>76.48</ele><time>2026-04-25T15:30:27Z</time></trkpt><trkpt lat="59.0626160894" lon="29.9947825726"><ele>76.36</ele><time>2026-04-25T15:30:46Z</time></trkpt><trkpt lat="59.0626846533" lon="29.9946515635"><ele>74.24</ele><time>2026-04-25T15:31:07Z</time></trkpt><trkpt lat="59.0626667999" lon="29.9946325365"><ele>75.57</ele><time>2026-04-25T15:31:35Z</time></trkpt><trkpt lat="59.0626585018" lon="29.9945620447"><ele>73.15</ele><time>2026-04-25T15:32:02Z</time></trkpt><trkpt lat="59.0627368726" lon="29.9946771283"><ele>73.44</ele><time>2026-04-25T15:32:18Z</time></trkpt><trkpt lat="59.0628612600" lon="29.9947047886"><ele>73.67</ele><time>2026-04-25T15:32:36Z</time></trkpt><trkpt lat="59.0629699733" lon="29.9947124161"><ele>74.17</ele><time>2026-04-25T15:32:51Z</time></trkpt><trkpt lat="59.0630471706" lon="29.9947321974"><ele>74.24</ele><time>2026-04-25T15:33:06Z</time></trkpt><trkpt lat="59.0631894954" lon="29.9946689140"><ele>73.34</ele><time>2026-04-25T15:33:25Z</time></trkpt><trkpt lat="59.0633801837" lon="29.9946090672"><ele>72.06</ele><time>2026-04-25T15:33:44Z</time></trkpt><trkpt lat="59.0636125300" lon="29.9944959115"><ele>70.51</ele><time>2026-04-25T15:34:11Z</time></trkpt><trkpt lat="59.0637499932" lon="29.9944084883"><ele>68.88</ele><time>2026-04-25T15:34:32Z</time></trkpt><trkpt lat="59.0637903102" lon="29.9944124278"><ele>73.72</ele><time>2026-04-25T15:34:52Z</time></trkpt><trkpt lat="59.0638131928" lon="29.9944581930"><ele>73.82</ele><time>2026-04-25T15:35:03Z</time></trkpt><trkpt lat="59.0639120992" lon="29.9944335502"><ele>74.40</ele><time>2026-04-25T15:35:24Z</time></trkpt><trkpt lat="59.0640004445" lon="29.9943797383"><ele>74.05</ele><time>2026-04-25T15:35:41Z</time></trkpt><trkpt lat="59.0641115885" lon="29.9944315385"><ele>73.55</ele><time>2026-04-25T15:35:56Z</time></trkpt><trkpt lat="59.0642819088" lon="29.9944709335"><ele>72.62</ele><time>2026-04-25T15:36:13Z</time></trkpt><trkpt lat="59.0644306038" lon="29.9945088197"><ele>71.81</ele><time>2026-04-25T15:36:31Z</time></trkpt><trkpt lat="59.0645501297" lon="29.9945007730"><ele>72.58</ele><time>2026-04-25T15:36:48Z</time></trkpt><trkpt lat="59.0645827353" lon="29.9945079815"><ele>73.06</ele><time>2026-04-25T15:37:08Z</time></trkpt><trkpt lat="59.0646402352" lon="29.9944945704"><ele>72.51</ele><time>2026-04-25T15:37:36Z</time></trkpt><trkpt lat="59.0647128224" lon="29.9945716001"><ele>78.22</ele><time>2026-04-25T15:38:02Z</time></trkpt><trkpt lat="59.0646878444" lon="29.9945324566"><ele>76.91</ele><time>2026-04-25T15:38:26Z</time></trkpt><trkpt lat="59.0646606870" lon="29.9945301935"><ele>76.53</ele><time>2026-04-25T15:38:33Z</time></trkpt><trkpt lat="59.0645847470" lon="29.9945118371"><ele>75.14</ele><time>2026-04-25T15:39:01Z</time></trkpt><trkpt lat="59.0645720065" lon="29.9944114219"><ele>74.82</ele><time>2026-04-25T15:39:18Z</time></trkpt><trkpt lat="59.0645880159" lon="29.9942938238"><ele>74.40</ele><time>2026-04-25T15:39:31Z</time></trkpt><trkpt lat="59.0645850822" lon="29.9941687658"><ele>73.87</ele><time>2026-04-25T15:39:57Z</time></trkpt><trkpt lat="59.0646140836" lon="29.9940078333"><ele>73.41</ele><time>2026-04-25T15:40:17Z</time></trkpt><trkpt lat="59.0646045282" lon="29.9939463940"><ele>73.18</ele><time>2026-04-25T15:40:25Z</time></trkpt><trkpt lat="59.0645806398" lon="29.9937111139"><ele>72.59</ele><time>2026-04-25T15:40:49Z</time></trkpt><trkpt lat="59.0645504650" lon="29.9936036579"><ele>71.85</ele><time>2026-04-25T15:41:04Z</time></trkpt><trkpt lat="59.0645069629" lon="29.9933826271"><ele>70.97</ele><time>2026-04-25T15:41:28Z</time></trkpt><trkpt lat="59.0644491278" lon="29.9932547193"><ele>70.01</ele><time>2026-04-25T15:41:51Z</time></trkpt><trkpt lat="59.0644264128" lon="29.9932547193"><ele>69.76</ele><time>2026-04-25T15:41:58Z</time></trkpt><trkpt lat="59.0643575974" lon="29.9931594171"><ele>69.44</ele><time>2026-04-25T15:42:16Z</time></trkpt><trkpt lat="59.0642921347" lon="29.9929393921"><ele>68.51</ele><time>2026-04-25T15:42:43Z</time></trkpt><trkpt lat="59.0642739460" lon="29.9929114804"><ele>68.49</ele><time>2026-04-25T15:42:50Z</time></trkpt><trkpt lat="59.0642805677" lon="29.9927762803"><ele>67.66</ele><time>2026-04-25T15:43:07Z</time></trkpt><trkpt lat="59.0642618760" lon="29.9926068820"><ele>66.28</ele><time>2026-04-25T15:43:30Z</time></trkpt><trkpt lat="59.0641908813" lon="29.9925416708"><ele>64.75</ele><time>2026-04-25T15:43:55Z</time></trkpt><trkpt lat="59.0642032865" lon="29.9925676547"><ele>63.23</ele><time>2026-04-25T15:44:23Z</time></trkpt><trkpt lat="59.0642260853" lon="29.9925430119"><ele>62.53</ele><time>2026-04-25T15:44:49Z</time></trkpt><trkpt lat="59.0642032027" lon="29.9926475342"><ele>62.85</ele><time>2026-04-25T15:45:15Z</time></trkpt><trkpt lat="59.0641335491" lon="29.9925945606"><ele>63.54</ele><time>2026-04-25T15:45:36Z</time></trkpt><trkpt lat="59.0641270112" lon="29.9925483763"><ele>63.56</ele><time>2026-04-25T15:45:45Z</time></trkpt><trkpt lat="59.0640975069" lon="29.9924589414"><ele>64.04</ele><time>2026-04-25T15:46:09Z</time></trkpt><trkpt lat="59.0640552621" lon="29.9924336281"><ele>63.91</ele><time>2026-04-25T15:46:16Z</time></trkpt><trkpt lat="59.0639696829" lon="29.9923202209"><ele>65.73</ele><time>2026-04-25T15:46:40Z</time></trkpt><trkpt lat="59.0638712794" lon="29.9923141859"><ele>66.38</ele><time>2026-04-25T15:47:04Z</time></trkpt><trkpt lat="59.0638245083" lon="29.9923144374"><ele>68.23</ele><time>2026-04-25T15:47:25Z</time></trkpt><trkpt lat="59.0638009552" lon="29.9923419300"><ele>68.83</ele><time>2026-04-25T15:47:50Z</time></trkpt><trkpt lat="59.0637434553" lon="29.9923208915"><ele>69.03</ele><time>2026-04-25T15:48:09Z</time></trkpt><trkpt lat="59.0637011267" lon="29.9922979251"><ele>69.17</ele><time>2026-04-25T15:48:28Z</time></trkpt><trkpt lat="59.0636299644" lon="29.9922650680"><ele>68.99</ele><time>2026-04-25T15:48:52Z</time></trkpt><trkpt lat="59.0635958500" lon="29.9922364019"><ele>69.30</ele><time>2026-04-25T15:49:14Z</time></trkpt><trkpt lat="59.0635504201" lon="29.9922477175"><ele>69.94</ele><time>2026-04-25T15:49:34Z</time></trkpt><trkpt lat="59.0635220055" lon="29.9921897985"><ele>70.25</ele><time>2026-04-25T15:49:58Z</time></trkpt><trkpt lat="59.0634437185" lon="29.9921028782"><ele>70.85</ele><time>2026-04-25T15:50:20Z</time></trkpt><trkpt lat="59.0633661021" lon="29.9920852762"><ele>70.67</ele><time>2026-04-25T15:50:45Z</time></trkpt><trkpt lat="59.0633316524" lon="29.9920365773"><ele>71.62</ele><time>2026-04-25T15:51:09Z</time></trkpt><trkpt lat="59.0632634237" lon="29.9920389242"><ele>71.86</ele><time>2026-04-25T15:51:35Z</time></trkpt><trkpt lat="59.0632014815" lon="29.9920463003"><ele>72.65</ele><time>2026-04-25T15:51:53Z</time></trkpt><trkpt lat="59.0631749108" lon="29.9919875432"><ele>73.34</ele><time>2026-04-25T15:52:13Z</time></trkpt><trkpt lat="59.0631411318" lon="29.9919359107"><ele>72.92</ele><time>2026-04-25T15:52:44Z</time></trkpt><trkpt lat="59.0631207637" lon="29.9918753933"><ele>75.85</ele><time>2026-04-25T15:53:13Z</time></trkpt><trkpt lat="59.0631024912" lon="29.9920494016"><ele>75.80</ele><time>2026-04-25T15:53:47Z</time></trkpt><trkpt lat="59.0630894154" lon="29.9921285268"><ele>76.51</ele><time>2026-04-25T15:54:10Z</time></trkpt><trkpt lat="59.0630892478" lon="29.9921607133"><ele>76.39</ele><time>2026-04-25T15:54:13Z</time></trkpt><trkpt lat="59.0630469192" lon="29.9923689198"><ele>78.60</ele><time>2026-04-25T15:54:31Z</time></trkpt><trkpt lat="59.0630031656" lon="29.9925177824"><ele>79.74</ele><time>2026-04-25T15:54:54Z</time></trkpt><trkpt lat="59.0629557241" lon="29.9926757813"><ele>79.88</ele><time>2026-04-25T15:55:14Z</time></trkpt><trkpt lat="59.0628964640" lon="29.9928573333"><ele>79.96</ele><time>2026-04-25T15:55:33Z</time></trkpt><trkpt lat="59.0628123097" lon="29.9929861631"><ele>80.31</ele><time>2026-04-25T15:55:51Z</time></trkpt><trkpt lat="59.0626770258" lon="29.9930885900"><ele>80.22</ele><time>2026-04-25T15:56:11Z</time></trkpt><trkpt lat="59.0625473578" lon="29.9931364506"><ele>79.48</ele><time>2026-04-25T15:56:31Z</time></trkpt><trkpt lat="59.0625250619" lon="29.9930729996"><ele>79.62</ele><time>2026-04-25T15:56:49Z</time></trkpt><trkpt lat="59.0624444280" lon="29.9931324273"><ele>78.71</ele><time>2026-04-25T15:57:11Z</time></trkpt><trkpt lat="59.0623891074" lon="29.9931211118"><ele>78.79</ele><time>2026-04-25T15:57:21Z</time></trkpt><trkpt lat="59.0623451862" lon="29.9930995703"><ele>78.41</ele><time>2026-04-25T15:57:29Z</time></trkpt><trkpt lat="59.0622564219" lon="29.9931055214"><ele>77.57</ele><time>2026-04-25T15:57:53Z</time></trkpt><trkpt lat="59.0621482115" lon="29.9931116402"><ele>80.41</ele><time>2026-04-25T15:58:18Z</time></trkpt><trkpt lat="59.0621238202" lon="29.9931181781"><ele>82.19</ele><time>2026-04-25T15:58:42Z</time></trkpt><trkpt lat="59.0621899534" lon="29.9931474309"><ele>79.91</ele><time>2026-04-25T15:59:14Z</time></trkpt><trkpt lat="59.0621500555" lon="29.9931258056"><ele>78.38</ele><time>2026-04-25T15:59:41Z</time></trkpt><trkpt lat="59.0621715970" lon="29.9930877518"><ele>77.72</ele><time>2026-04-25T16:00:12Z</time></trkpt><trkpt lat="59.0621527378" lon="29.9931398034"><ele>77.35</ele><time>2026-04-25T16:00:40Z</time></trkpt><trkpt lat="59.0620766301" lon="29.9930233788"><ele>78.00</ele><time>2026-04-25T16:01:42Z</time></trkpt><trkpt lat="59.0621534921" lon="29.9932327587"><ele>77.73</ele><time>2026-04-25T16:02:31Z</time></trkpt><trkpt lat="59.0621422604" lon="29.9931072816"><ele>76.63</ele><time>2026-04-25T16:03:11Z</time></trkpt><trkpt lat="59.0621700045" lon="29.9931443296"><ele>75.97</ele><time>2026-04-25T16:03:53Z</time></trkpt><trkpt lat="59.0622072201" lon="29.9931783602"><ele>76.44</ele><time>2026-04-25T16:04:24Z</time></trkpt><trkpt lat="59.0622087289" lon="29.9931668770"><ele>77.69</ele><time>2026-04-25T16:05:25Z</time></trkpt><trkpt lat="59.0621067211" lon="29.9931651168"><ele>75.46</ele><time>2026-04-25T16:05:51Z</time></trkpt><trkpt lat="59.0620420966" lon="29.9932247121"><ele>75.02</ele><time>2026-04-25T16:06:07Z</time></trkpt><trkpt lat="59.0619581938" lon="29.9932563957"><ele>74.53</ele><time>2026-04-25T16:06:25Z</time></trkpt><trkpt lat="59.0618565213" lon="29.9933200143"><ele>73.68</ele><time>2026-04-25T16:06:40Z</time></trkpt><trkpt lat="59.0617721155" lon="29.9933707248"><ele>73.11</ele><time>2026-04-25T16:07:01Z</time></trkpt><trkpt lat="59.0616398491" lon="29.9933749158"><ele>72.65</ele><time>2026-04-25T16:07:20Z</time></trkpt><trkpt lat="59.0615455527" lon="29.9933974631"><ele>72.46</ele><time>2026-04-25T16:07:42Z</time></trkpt><trkpt lat="59.0613852069" lon="29.9934744928"><ele>71.98</ele><time>2026-04-25T16:08:07Z</time></trkpt><trkpt lat="59.0612927545" lon="29.9936174043"><ele>70.12</ele><time>2026-04-25T16:08:29Z</time></trkpt><trkpt lat="59.0611602366" lon="29.9937485810"><ele>70.21</ele><time>2026-04-25T16:08:51Z</time></trkpt><trkpt lat="59.0610426385" lon="29.9938702863"><ele>74.81</ele><time>2026-04-25T16:09:17Z</time></trkpt><trkpt lat="59.0609687101" lon="29.9939480703"><ele>79.27</ele><time>2026-04-25T16:09:52Z</time></trkpt><trkpt lat="59.0608729050" lon="29.9941003695"><ele>78.30</ele><time>2026-04-25T16:10:11Z</time></trkpt><trkpt lat="59.0607522056" lon="29.9942222424"><ele>76.18</ele><time>2026-04-25T16:10:33Z</time></trkpt><trkpt lat="59.0606530476" lon="29.9942619726"><ele>75.75</ele><time>2026-04-25T16:10:50Z</time></trkpt><trkpt lat="59.0605914406" lon="29.9942236673"><ele>75.31</ele><time>2026-04-25T16:11:10Z</time></trkpt><trkpt lat="59.0605741739" lon="29.9940292072"><ele>75.12</ele><time>2026-04-25T16:11:29Z</time></trkpt><trkpt lat="59.0605585836" lon="29.9938285444"><ele>73.67</ele><time>2026-04-25T16:11:49Z</time></trkpt><trkpt lat="59.0605906863" lon="29.9936161470"><ele>71.18</ele><time>2026-04-25T16:12:11Z</time></trkpt><trkpt lat="59.0605939552" lon="29.9935193360"><ele>70.36</ele><time>2026-04-25T16:12:19Z</time></trkpt><trkpt lat="59.0605065320" lon="29.9928855803"><ele>67.96</ele><time>2026-04-25T16:12:44Z</time></trkpt><trkpt lat="59.0604896005" lon="29.9925847538"><ele>72.09</ele><time>2026-04-25T16:13:10Z</time></trkpt><trkpt lat="59.0604742616" lon="29.9923976697"><ele>71.72</ele><time>2026-04-25T16:13:28Z</time></trkpt><trkpt lat="59.0604985692" lon="29.9922301155"><ele>69.83</ele><time>2026-04-25T16:13:46Z</time></trkpt><trkpt lat="59.0605143271" lon="29.9921109248"><ele>71.50</ele><time>2026-04-25T16:14:08Z</time></trkpt><trkpt lat="59.0605488606" lon="29.9920975138"><ele>72.67</ele><time>2026-04-25T16:14:39Z</time></trkpt><trkpt lat="59.0605522972" lon="29.9920159578"><ele>73.25</ele><time>2026-04-25T16:15:02Z</time></trkpt><trkpt lat="59.0605351981" lon="29.9919965118"><ele>73.25</ele><time>2026-04-25T16:15:31Z</time></trkpt><trkpt lat="59.0606147423" lon="29.9919862859"><ele>72.42</ele><time>2026-04-25T16:15:47Z</time></trkpt><trkpt lat="59.0606953762" lon="29.9919358268"><ele>69.62</ele><time>2026-04-25T16:16:07Z</time></trkpt><trkpt lat="59.0608041734" lon="29.9918862898"><ele>68.46</ele><time>2026-04-25T16:16:25Z</time></trkpt><trkpt lat="59.0609368589" lon="29.9918285385"><ele>67.23</ele><time>2026-04-25T16:16:48Z</time></trkpt><trkpt lat="59.0611041617" lon="29.9916964397"><ele>65.19</ele><time>2026-04-25T16:17:12Z</time></trkpt><trkpt lat="59.0611732285" lon="29.9916362576"><ele>64.94</ele><time>2026-04-25T16:17:23Z</time></trkpt><trkpt lat="59.0612976998" lon="29.9915899057"><ele>64.82</ele><time>2026-04-25T16:17:43Z</time></trkpt><trkpt lat="59.0613854583" lon="29.9915159773"><ele>66.55</ele><time>2026-04-25T16:18:02Z</time></trkpt><trkpt lat="59.0614656731" lon="29.9914230220"><ele>67.93</ele><time>2026-04-25T16:18:25Z</time></trkpt><trkpt lat="59.0615442954" lon="29.9914994650"><ele>68.30</ele><time>2026-04-25T16:18:50Z</time></trkpt><trkpt lat="59.0615639929" lon="29.9914702959"><ele>70.57</ele><time>2026-04-25T16:19:26Z</time></trkpt><trkpt lat="59.0615692735" lon="29.9912929349"><ele>70.65</ele><time>2026-04-25T16:19:45Z</time></trkpt><trkpt lat="59.0615696926" lon="29.9912475888"><ele>70.40</ele><time>2026-04-25T16:19:50Z</time></trkpt><trkpt lat="59.0615784097" lon="29.9911164958"><ele>70.09</ele><time>2026-04-25T16:20:09Z</time></trkpt><trkpt lat="59.0616803337" lon="29.9912200961"><ele>67.95</ele><time>2026-04-25T16:20:32Z</time></trkpt><trkpt lat="59.0617096703" lon="29.9912226945"><ele>67.40</ele><time>2026-04-25T16:20:41Z</time></trkpt><trkpt lat="59.0617571957" lon="29.9912294000"><ele>67.36</ele><time>2026-04-25T16:20:46Z</time></trkpt><trkpt lat="59.0618471336" lon="29.9911114667"><ele>67.54</ele><time>2026-04-25T16:21:04Z</time></trkpt><trkpt lat="59.0619132668" lon="29.9910853151"><ele>66.54</ele><time>2026-04-25T16:21:19Z</time></trkpt><trkpt lat="59.0620457847" lon="29.9910963792"><ele>66.22</ele><time>2026-04-25T16:21:39Z</time></trkpt><trkpt lat="59.0620731097" lon="29.9911064375"><ele>66.19</ele><time>2026-04-25T16:21:44Z</time></trkpt><trkpt lat="59.0621907916" lon="29.9910321739"><ele>67.78</ele><time>2026-04-25T16:22:01Z</time></trkpt><trkpt lat="59.0623097308" lon="29.9909563176"><ele>69.84</ele><time>2026-04-25T16:22:24Z</time></trkpt><trkpt lat="59.0623515565" lon="29.9909378774"><ele>72.53</ele><time>2026-04-25T16:23:02Z</time></trkpt><trkpt lat="59.0623634588" lon="29.9908334389"><ele>73.33</ele><time>2026-04-25T16:23:33Z</time></trkpt><trkpt lat="59.0624097269" lon="29.9907170981"><ele>72.70</ele><time>2026-04-25T16:23:54Z</time></trkpt><trkpt lat="59.0624715015" lon="29.9906548206"><ele>72.17</ele><time>2026-04-25T16:24:18Z</time></trkpt><trkpt lat="59.0625318512" lon="29.9906156771"><ele>71.22</ele><time>2026-04-25T16:24:42Z</time></trkpt><trkpt lat="59.0625983197" lon="29.9906483665"><ele>70.62</ele><time>2026-04-25T16:25:08Z</time></trkpt><trkpt lat="59.0626728348" lon="29.9905745219"><ele>70.61</ele><time>2026-04-25T16:25:33Z</time></trkpt><trkpt lat="59.0627129842" lon="29.9904781301"><ele>70.29</ele><time>2026-04-25T16:25:54Z</time></trkpt><trkpt lat="59.0627810452" lon="29.9905141722"><ele>70.33</ele><time>2026-04-25T16:26:18Z</time></trkpt><trkpt lat="59.0629188437" lon="29.9904466979"><ele>70.78</ele><time>2026-04-25T16:26:45Z</time></trkpt><trkpt lat="59.0629796125" lon="29.9904343765"><ele>70.45</ele><time>2026-04-25T16:27:06Z</time></trkpt><trkpt lat="59.0630779322" lon="29.9904759508"><ele>70.25</ele><time>2026-04-25T16:27:31Z</time></trkpt><trkpt lat="59.0631469991" lon="29.9904954806"><ele>70.33</ele><time>2026-04-25T16:27:50Z</time></trkpt><trkpt lat="59.0632295609" lon="29.9905482028"><ele>70.46</ele><time>2026-04-25T16:28:14Z</time></trkpt><trkpt lat="59.0632885695" lon="29.9905737676"><ele>69.68</ele><time>2026-04-25T16:28:43Z</time></trkpt><trkpt lat="59.0633645933" lon="29.9906979036"><ele>69.98</ele><time>2026-04-25T16:29:12Z</time></trkpt><trkpt lat="59.0633970313" lon="29.9907172658"><ele>70.28</ele><time>2026-04-25T16:29:33Z</time></trkpt><trkpt lat="59.0634209197" lon="29.9907000829"><ele>70.54</ele><time>2026-04-25T16:29:35Z</time></trkpt><trkpt lat="59.0635217540" lon="29.9906252325"><ele>70.97</ele><time>2026-04-25T16:29:58Z</time></trkpt><trkpt lat="59.0636103507" lon="29.9906726740"><ele>70.64</ele><time>2026-04-25T16:30:22Z</time></trkpt><trkpt lat="59.0637297928" lon="29.9906217959"><ele>70.24</ele><time>2026-04-25T16:30:41Z</time></trkpt><trkpt lat="59.0638535097" lon="29.9905782938"><ele>70.29</ele><time>2026-04-25T16:31:01Z</time></trkpt><trkpt lat="59.0639289469" lon="29.9905932974"><ele>70.10</ele><time>2026-04-25T16:31:22Z</time></trkpt><trkpt lat="59.0640415996" lon="29.9905782100"><ele>72.12</ele><time>2026-04-25T16:31:45Z</time></trkpt><trkpt lat="59.0641687531" lon="29.9906009249"><ele>73.78</ele><time>2026-04-25T16:32:05Z</time></trkpt><trkpt lat="59.0642270911" lon="29.9905645475"><ele>75.28</ele><time>2026-04-25T16:32:10Z</time></trkpt><trkpt lat="59.0643206332" lon="29.9905881006"><ele>79.59</ele><time>2026-04-25T16:32:32Z</time></trkpt><trkpt lat="59.0643571783" lon="29.9905875139"><ele>79.55</ele><time>2026-04-25T16:32:56Z</time></trkpt><trkpt lat="59.0643693320" lon="29.9905502144"><ele>81.25</ele><time>2026-04-25T16:33:25Z</time></trkpt><trkpt lat="59.0643961541" lon="29.9905365519"><ele>83.77</ele><time>2026-04-25T16:33:53Z</time></trkpt><trkpt lat="59.0644601919" lon="29.9905306008"><ele>82.38</ele><time>2026-04-25T16:34:22Z</time></trkpt><trkpt lat="59.0644448530" lon="29.9906222150"><ele>82.87</ele><time>2026-04-25T16:34:47Z</time></trkpt><trkpt lat="59.0644214675" lon="29.9907017592"><ele>82.33</ele><time>2026-04-25T16:35:16Z</time></trkpt><trkpt lat="59.0643926337" lon="29.9906193651"><ele>78.60</ele><time>2026-04-25T16:35:48Z</time></trkpt><trkpt lat="59.0644335374" lon="29.9905679002"><ele>78.78</ele><time>2026-04-25T16:36:15Z</time></trkpt><trkpt lat="59.0643735230" lon="29.9902729411"><ele>77.62</ele><time>2026-04-25T16:36:36Z</time></trkpt><trkpt lat="59.0643299371" lon="29.9901362322"><ele>76.95</ele><time>2026-04-25T16:37:01Z</time></trkpt><trkpt lat="59.0643665660" lon="29.9901697598"><ele>78.71</ele><time>2026-04-25T16:37:35Z</time></trkpt><trkpt lat="59.0643775463" lon="29.9900447857"><ele>77.50</ele><time>2026-04-25T16:37:58Z</time></trkpt><trkpt lat="59.0643418394" lon="29.9899224099"><ele>76.06</ele><time>2026-04-25T16:38:20Z</time></trkpt><trkpt lat="59.0643017739" lon="29.9898202345"><ele>73.98</ele><time>2026-04-25T16:38:40Z</time></trkpt><trkpt lat="59.0642910451" lon="29.9897226691"><ele>72.65</ele><time>2026-04-25T16:38:52Z</time></trkpt><trkpt lat="59.0642769635" lon="29.9894815218"><ele>71.38</ele><time>2026-04-25T16:39:10Z</time></trkpt><trkpt lat="59.0642032865" lon="29.9892114569"><ele>69.67</ele><time>2026-04-25T16:39:33Z</time></trkpt><trkpt lat="59.0640905499" lon="29.9888331816"><ele>67.86</ele><time>2026-04-25T16:39:54Z</time></trkpt><trkpt lat="59.0640574414" lon="29.9887043517"><ele>65.53</ele><time>2026-04-25T16:40:13Z</time></trkpt><trkpt lat="59.0640151966" lon="29.9885535613"><ele>68.11</ele><time>2026-04-25T16:40:42Z</time></trkpt><trkpt lat="59.0639241692" lon="29.9885648768"><ele>69.67</ele><time>2026-04-25T16:41:13Z</time></trkpt><trkpt lat="59.0638488997" lon="29.9885548186"><ele>67.89</ele><time>2026-04-25T16:41:30Z</time></trkpt><trkpt lat="59.0637332294" lon="29.9885259010"><ele>68.23</ele><time>2026-04-25T16:41:55Z</time></trkpt><trkpt lat="59.0636308026" lon="29.9884677306"><ele>68.51</ele><time>2026-04-25T16:42:17Z</time></trkpt><trkpt lat="59.0634861309" lon="29.9884916190"><ele>66.38</ele><time>2026-04-25T16:42:37Z</time></trkpt><trkpt lat="59.0633978695" lon="29.9885157589"><ele>65.35</ele><time>2026-04-25T16:42:51Z</time></trkpt><trkpt lat="59.0632689558" lon="29.9885553215"><ele>65.24</ele><time>2026-04-25T16:43:16Z</time></trkpt><trkpt lat="59.0631904174" lon="29.9886214547"><ele>65.59</ele><time>2026-04-25T16:43:34Z</time></trkpt><trkpt lat="59.0630807821" lon="29.9887225404"><ele>67.50</ele><time>2026-04-25T16:43:58Z</time></trkpt><trkpt lat="59.0630399622" lon="29.9887196906"><ele>67.01</ele><time>2026-04-25T16:44:30Z</time></trkpt><trkpt lat="59.0629866533" lon="29.9887317605"><ele>68.14</ele><time>2026-04-25T16:44:54Z</time></trkpt><trkpt lat="59.0629558079" lon="29.9888071977"><ele>68.25</ele><time>2026-04-25T16:45:18Z</time></trkpt><trkpt lat="59.0629094560" lon="29.9889278971"><ele>67.82</ele><time>2026-04-25T16:45:40Z</time></trkpt><trkpt lat="59.0628243797" lon="29.9890982173"><ele>67.08</ele><time>2026-04-25T16:45:59Z</time></trkpt><trkpt lat="59.0626954660" lon="29.9891195074"><ele>67.01</ele><time>2026-04-25T16:46:22Z</time></trkpt><trkpt lat="59.0625415742" lon="29.9890282284"><ele>67.51</ele><time>2026-04-25T16:46:41Z</time></trkpt><trkpt lat="59.0624310169" lon="29.9889927730"><ele>65.34</ele><time>2026-04-25T16:47:01Z</time></trkpt><trkpt lat="59.0623638779" lon="29.9889651965"><ele>64.49</ele><time>2026-04-25T16:47:15Z</time></trkpt><trkpt lat="59.0622319467" lon="29.9889490195"><ele>63.08</ele><time>2026-04-25T16:47:39Z</time></trkpt><trkpt lat="59.0621136781" lon="29.9889474269"><ele>63.26</ele><time>2026-04-25T16:47:58Z</time></trkpt><trkpt lat="59.0619817469" lon="29.9889024161"><ele>68.44</ele><time>2026-04-25T16:48:31Z</time></trkpt><trkpt lat="59.0619365685" lon="29.9889148213"><ele>68.15</ele><time>2026-04-25T16:48:50Z</time></trkpt><trkpt lat="59.0618433617" lon="29.9889289029"><ele>68.27</ele><time>2026-04-25T16:49:14Z</time></trkpt><trkpt lat="59.0617474727" lon="29.9888559803"><ele>68.50</ele><time>2026-04-25T16:49:39Z</time></trkpt><trkpt lat="59.0616710298" lon="29.9888414796"><ele>68.79</ele><time>2026-04-25T16:50:01Z</time></trkpt><trkpt lat="59.0615916532" lon="29.9888837244"><ele>69.18</ele><time>2026-04-25T16:50:25Z</time></trkpt><trkpt lat="59.0614979435" lon="29.9888968840"><ele>69.02</ele><time>2026-04-25T16:50:48Z</time></trkpt><trkpt lat="59.0614200756" lon="29.9889139831"><ele>69.26</ele><time>2026-04-25T16:51:10Z</time></trkpt><trkpt lat="59.0614001267" lon="29.9889320880"><ele>69.28</ele><time>2026-04-25T16:51:16Z</time></trkpt><trkpt lat="59.0613361727" lon="29.9890392087"><ele>68.82</ele><time>2026-04-25T16:51:38Z</time></trkpt><trkpt lat="59.0612723865" lon="29.9891267996"><ele>67.98</ele><time>2026-04-25T16:52:04Z</time></trkpt><trkpt lat="59.0611943509" lon="29.9891974591"><ele>67.96</ele><time>2026-04-25T16:52:27Z</time></trkpt><trkpt lat="59.0611741506" lon="29.9892081041"><ele>67.91</ele><time>2026-04-25T16:52:35Z</time></trkpt><trkpt lat="59.0611471608" lon="29.9893359281"><ele>67.99</ele><time>2026-04-25T16:53:00Z</time></trkpt><trkpt lat="59.0611434728" lon="29.9893480819"><ele>68.00</ele><time>2026-04-25T16:53:01Z</time></trkpt><trkpt lat="59.0610921755" lon="29.9894902389"><ele>68.03</ele><time>2026-04-25T16:53:31Z</time></trkpt><trkpt lat="59.0610472485" lon="29.9896100163"><ele>68.87</ele><time>2026-04-25T16:53:54Z</time></trkpt><trkpt lat="59.0610416327" lon="29.9897005409"><ele>69.39</ele><time>2026-04-25T16:54:19Z</time></trkpt><trkpt lat="59.0609648544" lon="29.9897774868"><ele>69.24</ele><time>2026-04-25T16:54:44Z</time></trkpt><trkpt lat="59.0608838852" lon="29.9897833541"><ele>68.92</ele><time>2026-04-25T16:55:05Z</time></trkpt><trkpt lat="59.0608193446" lon="29.9897523411"><ele>68.82</ele><time>2026-04-25T16:55:27Z</time></trkpt><trkpt lat="59.0607600007" lon="29.9898371659"><ele>69.01</ele><time>2026-04-25T16:55:48Z</time></trkpt><trkpt lat="59.0606895927" lon="29.9898400996"><ele>68.82</ele><time>2026-04-25T16:56:09Z</time></trkpt><trkpt lat="59.0606590826" lon="29.9899245054"><ele>68.81</ele><time>2026-04-25T16:56:26Z</time></trkpt><trkpt lat="59.0606170893" lon="29.9899137765"><ele>70.82</ele><time>2026-04-25T16:56:45Z</time></trkpt><trkpt lat="59.0606136527" lon="29.9898962583"><ele>72.47</ele><time>2026-04-25T16:57:25Z</time></trkpt><trkpt lat="59.0605985653" lon="29.9899602961"><ele>73.19</ele><time>2026-04-25T16:58:00Z</time></trkpt><trkpt lat="59.0605405625" lon="29.9898479786"><ele>71.45</ele><time>2026-04-25T16:58:19Z</time></trkpt><trkpt lat="59.0605035145" lon="29.9896958470"><ele>69.86</ele><time>2026-04-25T16:58:41Z</time></trkpt><trkpt lat="59.0604906064" lon="29.9896101840"><ele>69.20</ele><time>2026-04-25T16:59:08Z</time></trkpt><trkpt lat="59.0604833141" lon="29.9895484932"><ele>69.06</ele><time>2026-04-25T16:59:16Z</time></trkpt><trkpt lat="59.0604352020" lon="29.9894448929"><ele>68.70</ele><time>2026-04-25T16:59:41Z</time></trkpt><trkpt lat="59.0603982378" lon="29.9893942662"><ele>68.10</ele><time>2026-04-25T17:00:05Z</time></trkpt><trkpt lat="59.0603458509" lon="29.9893070944"><ele>68.03</ele><time>2026-04-25T17:00:30Z</time></trkpt><trkpt lat="59.0603134129" lon="29.9892237782"><ele>68.02</ele><time>2026-04-25T17:00:51Z</time></trkpt><trkpt lat="59.0602855012" lon="29.9891220219"><ele>71.26</ele><time>2026-04-25T17:01:17Z</time></trkpt><trkpt lat="59.0602694079" lon="29.9891264644"><ele>72.82</ele><time>2026-04-25T17:01:46Z</time></trkpt><trkpt lat="59.0602623671" lon="29.9891451560"><ele>76.97</ele><time>2026-04-25T17:02:13Z</time></trkpt><trkpt lat="59.0602884348" lon="29.9891053420"><ele>76.95</ele><time>2026-04-25T17:02:49Z</time></trkpt><trkpt lat="59.0603507124" lon="29.9890855607"><ele>75.90</ele><time>2026-04-25T17:03:15Z</time></trkpt><trkpt lat="59.0603927057" lon="29.9890545476"><ele>75.50</ele><time>2026-04-25T17:03:27Z</time></trkpt><trkpt lat="59.0604955517" lon="29.9889977183"><ele>75.03</ele><time>2026-04-25T17:03:48Z</time></trkpt><trkpt lat="59.0605465975" lon="29.9889763445"><ele>74.48</ele><time>2026-04-25T17:04:14Z</time></trkpt><trkpt lat="59.0605957154" lon="29.9889121391"><ele>73.85</ele><time>2026-04-25T17:04:27Z</time></trkpt><trkpt lat="59.0606750920" lon="29.9887255579"><ele>72.30</ele><time>2026-04-25T17:04:51Z</time></trkpt><trkpt lat="59.0607456677" lon="29.9886459298"><ele>71.51</ele><time>2026-04-25T17:05:13Z</time></trkpt><trkpt lat="59.0608596615" lon="29.9885965604"><ele>71.48</ele><time>2026-04-25T17:05:36Z</time></trkpt><trkpt lat="59.0608975478" lon="29.9885545671"><ele>74.10</ele><time>2026-04-25T17:06:08Z</time></trkpt><trkpt lat="59.0609201789" lon="29.9884930439"><ele>75.09</ele><time>2026-04-25T17:06:36Z</time></trkpt><trkpt lat="59.0609889943" lon="29.9884212110"><ele>74.37</ele><time>2026-04-25T17:06:59Z</time></trkpt><trkpt lat="59.0610700473" lon="29.9883481208"><ele>73.06</ele><time>2026-04-25T17:07:24Z</time></trkpt><trkpt lat="59.0611604881" lon="29.9883671477"><ele>72.10</ele><time>2026-04-25T17:07:46Z</time></trkpt><trkpt lat="59.0612655133" lon="29.9883030262"><ele>71.02</ele><time>2026-04-25T17:08:10Z</time></trkpt><trkpt lat="59.0613727178" lon="29.9883301836"><ele>70.00</ele><time>2026-04-25T17:08:34Z</time></trkpt><trkpt lat="59.0614539385" lon="29.9883186165"><ele>69.14</ele><time>2026-04-25T17:08:58Z</time></trkpt><trkpt lat="59.0614666790" lon="29.9883129168"><ele>68.90</ele><time>2026-04-25T17:08:59Z</time></trkpt><trkpt lat="59.0615811758" lon="29.9883406609"><ele>67.99</ele><time>2026-04-25T17:09:22Z</time></trkpt><trkpt lat="59.0615908988" lon="29.9883523118"><ele>67.91</ele><time>2026-04-25T17:09:24Z</time></trkpt><trkpt lat="59.0616789926" lon="29.9883929640"><ele>69.41</ele><time>2026-04-25T17:09:46Z</time></trkpt><trkpt lat="59.0617323853" lon="29.9883155990"><ele>69.77</ele><time>2026-04-25T17:10:04Z</time></trkpt><trkpt lat="59.0617912263" lon="29.9882384855"><ele>69.28</ele><time>2026-04-25T17:10:28Z</time></trkpt><trkpt lat="59.0618882049" lon="29.9881563429"><ele>69.28</ele><time>2026-04-25T17:10:49Z</time></trkpt><trkpt lat="59.0619184636" lon="29.9880630523"><ele>69.54</ele><time>2026-04-25T17:11:10Z</time></trkpt><trkpt lat="59.0619973373" lon="29.9879917223"><ele>68.80</ele><time>2026-04-25T17:11:29Z</time></trkpt><trkpt lat="59.0619985107" lon="29.9880149402"><ele>68.95</ele><time>2026-04-25T17:11:59Z</time></trkpt><trkpt lat="59.0620395821" lon="29.9879851006"><ele>70.41</ele><time>2026-04-25T17:12:47Z</time></trkpt><trkpt lat="59.0620234888" lon="29.9879680015"><ele>70.98</ele><time>2026-04-25T17:13:15Z</time></trkpt><trkpt lat="59.0620571841" lon="29.9878668319"><ele>69.56</ele><time>2026-04-25T17:13:40Z</time></trkpt><trkpt lat="59.0621196292" lon="29.9876789097"><ele>68.89</ele><time>2026-04-25T17:14:06Z</time></trkpt><trkpt lat="59.0621944796" lon="29.9876151234"><ele>68.55</ele><time>2026-04-25T17:14:32Z</time></trkpt><trkpt lat="59.0623001754" lon="29.9875719566"><ele>68.68</ele><time>2026-04-25T17:14:53Z</time></trkpt><trkpt lat="59.0623991657" lon="29.9875647482"><ele>69.98</ele><time>2026-04-25T17:15:13Z</time></trkpt><trkpt lat="59.0624176897" lon="29.9875269458"><ele>72.33</ele><time>2026-04-25T17:15:43Z</time></trkpt><trkpt lat="59.0624247305" lon="29.9875183962"><ele>72.59</ele><time>2026-04-25T17:16:15Z</time></trkpt><trkpt lat="59.0624369681" lon="29.9875438772"><ele>72.81</ele><time>2026-04-25T17:16:48Z</time></trkpt><trkpt lat="59.0624479484" lon="29.9876022153"><ele>72.89</ele><time>2026-04-25T17:17:14Z</time></trkpt><trkpt lat="59.0624299273" lon="29.9875644967"><ele>72.40</ele><time>2026-04-25T17:17:38Z</time></trkpt><trkpt lat="59.0623988304" lon="29.9875288736"><ele>72.18</ele><time>2026-04-25T17:18:11Z</time></trkpt><trkpt lat="59.0623602737" lon="29.9875732977"><ele>72.07</ele><time>2026-04-25T17:18:36Z</time></trkpt><trkpt lat="59.0622578468" lon="29.9876094237"><ele>71.60</ele><time>2026-04-25T17:18:57Z</time></trkpt><trkpt lat="59.0622223075" lon="29.9876022153"><ele>71.42</ele><time>2026-04-25T17:19:04Z</time></trkpt><trkpt lat="59.0621068887" lon="29.9875862058"><ele>71.18</ele><time>2026-04-25T17:19:24Z</time></trkpt><trkpt lat="59.0620181244" lon="29.9874837790"><ele>71.45</ele><time>2026-04-25T17:19:43Z</time></trkpt><trkpt lat="59.0619260911" lon="29.9874971900"><ele>69.21</ele><time>2026-04-25T17:20:03Z</time></trkpt><trkpt lat="59.0618255921" lon="29.9874680210"><ele>68.04</ele><time>2026-04-25T17:20:25Z</time></trkpt><trkpt lat="59.0616610553" lon="29.9873669352"><ele>67.46</ele><time>2026-04-25T17:20:49Z</time></trkpt><trkpt lat="59.0616389271" lon="29.9873565417"><ele>67.51</ele><time>2026-04-25T17:20:54Z</time></trkpt><trkpt lat="59.0615606401" lon="29.9872687832"><ele>67.41</ele><time>2026-04-25T17:21:15Z</time></trkpt><trkpt lat="59.0614631586" lon="29.9871659372"><ele>67.18</ele><time>2026-04-25T17:21:39Z</time></trkpt><trkpt lat="59.0613989532" lon="29.9870885722"><ele>68.06</ele><time>2026-04-25T17:22:07Z</time></trkpt><trkpt lat="59.0613308921" lon="29.9870450702"><ele>68.22</ele><time>2026-04-25T17:22:30Z</time></trkpt><trkpt lat="59.0612609871" lon="29.9870394543"><ele>68.61</ele><time>2026-04-25T17:22:57Z</time></trkpt><trkpt lat="59.0612070914" lon="29.9871046655"><ele>69.08</ele><time>2026-04-25T17:23:24Z</time></trkpt><trkpt lat="59.0611564647" lon="29.9871513527"><ele>70.05</ele><time>2026-04-25T17:23:49Z</time></trkpt><trkpt lat="59.0610769205" lon="29.9871448986"><ele>71.00</ele><time>2026-04-25T17:24:16Z</time></trkpt><trkpt lat="59.0610614140" lon="29.9870779272"><ele>71.87</ele><time>2026-04-25T17:24:49Z</time></trkpt><trkpt lat="59.0610267129" lon="29.9870989658"><ele>71.60</ele><time>2026-04-25T17:25:12Z</time></trkpt><trkpt lat="59.0609612502" lon="29.9869839661"><ele>71.36</ele><time>2026-04-25T17:25:36Z</time></trkpt><trkpt lat="59.0608920157" lon="29.9869033322"><ele>72.09</ele><time>2026-04-25T17:25:54Z</time></trkpt><trkpt lat="59.0608444903" lon="29.9869356025"><ele>72.57</ele><time>2026-04-25T17:26:20Z</time></trkpt><trkpt lat="59.0608138964" lon="29.9869532045"><ele>72.89</ele><time>2026-04-25T17:26:40Z</time></trkpt><trkpt lat="59.0607736632" lon="29.9869653583"><ele>72.90</ele><time>2026-04-25T17:26:50Z</time></trkpt><trkpt lat="59.0606399719" lon="29.9869381171"><ele>72.84</ele><time>2026-04-25T17:27:16Z</time></trkpt><trkpt lat="59.0605881717" lon="29.9868722353"><ele>73.48</ele><time>2026-04-25T17:27:36Z</time></trkpt><trkpt lat="59.0605650377" lon="29.9868698046"><ele>73.93</ele><time>2026-04-25T17:28:15Z</time></trkpt><trkpt lat="59.0605534706" lon="29.9869511090"><ele>73.96</ele><time>2026-04-25T17:28:33Z</time></trkpt><trkpt lat="59.0605251398" lon="29.9870535359"><ele>73.63</ele><time>2026-04-25T17:28:52Z</time></trkpt><trkpt lat="59.0604601800" lon="29.9871879816"><ele>73.25</ele><time>2026-04-25T17:29:13Z</time></trkpt><trkpt lat="59.0604135767" lon="29.9873303063"><ele>73.22</ele><time>2026-04-25T17:29:33Z</time></trkpt><trkpt lat="59.0604098048" lon="29.9873675220"><ele>73.32</ele><time>2026-04-25T17:29:35Z</time></trkpt><trkpt lat="59.0602869261" lon="29.9874957651"><ele>73.44</ele><time>2026-04-25T17:30:01Z</time></trkpt><trkpt lat="59.0602155961" lon="29.9873020593"><ele>73.16</ele><time>2026-04-25T17:30:24Z</time></trkpt><trkpt lat="59.0601791348" lon="29.9872169830"><ele>72.98</ele><time>2026-04-25T17:30:46Z</time></trkpt><trkpt lat="59.0601454396" lon="29.9872300588"><ele>72.56</ele><time>2026-04-25T17:31:18Z</time></trkpt><trkpt lat="59.0601389017" lon="29.9872407876"><ele>72.59</ele><time>2026-04-25T17:31:21Z</time></trkpt><trkpt lat="59.0600783844" lon="29.9871832877"><ele>72.32</ele><time>2026-04-25T17:31:43Z</time></trkpt><trkpt lat="59.0600085631" lon="29.9871469103"><ele>72.58</ele><time>2026-04-25T17:32:09Z</time></trkpt><trkpt lat="59.0599642228" lon="29.9870899133"><ele>72.28</ele><time>2026-04-25T17:32:30Z</time></trkpt><trkpt lat="59.0598664898" lon="29.9870054238"><ele>71.56</ele><time>2026-04-25T17:32:51Z</time></trkpt><trkpt lat="59.0597778931" lon="29.9869242869"><ele>71.84</ele><time>2026-04-25T17:33:14Z</time></trkpt><trkpt lat="59.0597055573" lon="29.9868537951"><ele>70.71</ele><time>2026-04-25T17:33:38Z</time></trkpt><trkpt lat="59.0596444532" lon="29.9869338423"><ele>70.68</ele><time>2026-04-25T17:34:00Z</time></trkpt><trkpt lat="59.0596387535" lon="29.9869361054"><ele>70.45</ele><time>2026-04-25T17:34:02Z</time></trkpt><trkpt lat="59.0595340636" lon="29.9870438129"><ele>70.53</ele><time>2026-04-25T17:34:25Z</time></trkpt><trkpt lat="59.0594635718" lon="29.9871341698"><ele>70.44</ele><time>2026-04-25T17:34:47Z</time></trkpt><trkpt lat="59.0593796689" lon="29.9871821981"><ele>69.66</ele><time>2026-04-25T17:35:08Z</time></trkpt><trkpt lat="59.0592766553" lon="29.9872450624"><ele>69.54</ele><time>2026-04-25T17:35:31Z</time></trkpt><trkpt lat="59.0592639148" lon="29.9872539472"><ele>69.48</ele><time>2026-04-25T17:35:32Z</time></trkpt><trkpt lat="59.0591935907" lon="29.9873645883"><ele>69.59</ele><time>2026-04-25T17:35:57Z</time></trkpt><trkpt lat="59.0591174830" lon="29.9874397740"><ele>69.63</ele><time>2026-04-25T17:36:20Z</time></trkpt><trkpt lat="59.0590282157" lon="29.9874623213"><ele>69.87</ele><time>2026-04-25T17:36:38Z</time></trkpt><trkpt lat="59.0589780919" lon="29.9875116907"><ele>69.76</ele><time>2026-04-25T17:37:11Z</time></trkpt><trkpt lat="59.0589314885" lon="29.9875042308"><ele>70.67</ele><time>2026-04-25T17:37:33Z</time></trkpt><trkpt lat="59.0588956140" lon="29.9875012971"><ele>70.88</ele><time>2026-04-25T17:37:51Z</time></trkpt><trkpt lat="59.0588130523" lon="29.9875934143"><ele>71.00</ele><time>2026-04-25T17:38:19Z</time></trkpt><trkpt lat="59.0587379504" lon="29.9875271134"><ele>70.22</ele><time>2026-04-25T17:38:41Z</time></trkpt><trkpt lat="59.0586599149" lon="29.9874844495"><ele>69.60</ele><time>2026-04-25T17:39:02Z</time></trkpt><trkpt lat="59.0586021636" lon="29.9874206632"><ele>69.28</ele><time>2026-04-25T17:39:16Z</time></trkpt><trkpt lat="59.0585278161" lon="29.9873253610"><ele>70.99</ele><time>2026-04-25T17:39:39Z</time></trkpt><trkpt lat="59.0584813803" lon="29.9873108603"><ele>71.74</ele><time>2026-04-25T17:39:58Z</time></trkpt><trkpt lat="59.0584725793" lon="29.9873004667"><ele>71.44</ele><time>2026-04-25T17:40:06Z</time></trkpt><trkpt lat="59.0583937895" lon="29.9873629957"><ele>70.83</ele><time>2026-04-25T17:40:35Z</time></trkpt><trkpt lat="59.0582542308" lon="29.9874512572"><ele>70.69</ele><time>2026-04-25T17:41:01Z</time></trkpt><trkpt lat="59.0581648797" lon="29.9875316396"><ele>71.10</ele><time>2026-04-25T17:41:21Z</time></trkpt><trkpt lat="59.0580978245" lon="29.9875514209"><ele>71.91</ele><time>2026-04-25T17:41:44Z</time></trkpt><trkpt lat="59.0580813121" lon="29.9875635747"><ele>71.99</ele><time>2026-04-25T17:41:46Z</time></trkpt><trkpt lat="59.0579539072" lon="29.9876601342"><ele>72.18</ele><time>2026-04-25T17:42:08Z</time></trkpt><trkpt lat="59.0578476246" lon="29.9877253454"><ele>73.15</ele><time>2026-04-25T17:42:31Z</time></trkpt><trkpt lat="59.0577881970" lon="29.9877796602"><ele>74.28</ele><time>2026-04-25T17:42:53Z</time></trkpt><trkpt lat="59.0577255003" lon="29.9877749663"><ele>74.41</ele><time>2026-04-25T17:43:20Z</time></trkpt><trkpt lat="59.0577273443" lon="29.9876554403"><ele>73.83</ele><time>2026-04-25T17:43:40Z</time></trkpt><trkpt lat="59.0577267576" lon="29.9876491539"><ele>73.80</ele><time>2026-04-25T17:43:41Z</time></trkpt><trkpt lat="59.0575788170" lon="29.9875630718"><ele>74.28</ele><time>2026-04-25T17:44:03Z</time></trkpt><trkpt lat="59.0574844368" lon="29.9875466432"><ele>73.62</ele><time>2026-04-25T17:44:24Z</time></trkpt><trkpt lat="59.0574495681" lon="29.9874810129"><ele>73.08</ele><time>2026-04-25T17:44:44Z</time></trkpt><trkpt lat="59.0573887154" lon="29.9873644207"><ele>72.46</ele><time>2026-04-25T17:45:05Z</time></trkpt><trkpt lat="59.0573008731" lon="29.9873037357"><ele>71.62</ele><time>2026-04-25T17:45:23Z</time></trkpt><trkpt lat="59.0572377574" lon="29.9873567093"><ele>72.59</ele><time>2026-04-25T17:45:41Z</time></trkpt><trkpt lat="59.0571872983" lon="29.9873436335"><ele>72.76</ele><time>2026-04-25T17:45:56Z</time></trkpt><trkpt lat="59.0570342448" lon="29.9874187354"><ele>72.59</ele><time>2026-04-25T17:46:13Z</time></trkpt><trkpt lat="59.0569329914" lon="29.9875712860"><ele>71.24</ele><time>2026-04-25T17:46:30Z</time></trkpt><trkpt lat="59.0568905789" lon="29.9876448791"><ele>71.20</ele><time>2026-04-25T17:46:35Z</time></trkpt><trkpt lat="59.0567839611" lon="29.9877057318"><ele>70.17</ele><time>2026-04-25T17:46:51Z</time></trkpt><trkpt lat="59.0566880722" lon="29.9877403490"><ele>70.54</ele><time>2026-04-25T17:47:05Z</time></trkpt><trkpt lat="59.0566500183" lon="29.9878442846"><ele>71.00</ele><time>2026-04-25T17:47:20Z</time></trkpt><trkpt lat="59.0566381998" lon="29.9879894592"><ele>71.02</ele><time>2026-04-25T17:47:40Z</time></trkpt><trkpt lat="59.0565802809" lon="29.9881554209"><ele>71.28</ele><time>2026-04-25T17:47:55Z</time></trkpt><trkpt lat="59.0565732401" lon="29.9882410001"><ele>71.08</ele><time>2026-04-25T17:47:59Z</time></trkpt><trkpt lat="59.0565945301" lon="29.9887196906"><ele>69.99</ele><time>2026-04-25T17:48:22Z</time></trkpt><trkpt lat="59.0566297341" lon="29.9890630972"><ele>73.66</ele><time>2026-04-25T17:48:40Z</time></trkpt><trkpt lat="59.0566789359" lon="29.9893916678"><ele>78.98</ele><time>2026-04-25T17:48:59Z</time></trkpt></trkseg></trk></gpx>